Darstellungsparameter: Aktuell verwendete Einstellungen:
Skalierung der Graphiken ... ?
xyx+y,   Skalierungsfaktor:      Skalierung: Modus: x, Faktor: 1
Darstellungszeitraum ... ?
Vom - - bis: - -   Zeitraum: 08.06.2014 - 14.06.2014
Min/Max/Avg-Anzeige ... ?
Zeige MMA aktuell
Zeige MMA Monat
Zeige MMA alles
Zeige --A aktuell
Zeige --A Monat
Zeige --A alles
Keine MMA-Anzeige
MMA:
Keine MMA-Graphiken
MMA-Basis: 08.06.2014 - 14.06.2014
Quicknavigation für Darstellung... ?
Tage:      1T, 2T, 3T, 5T -1T -2T -3T -5T +1T +2T +3T +5T
Wochen: 1W, 2W, 3W -1W -2W -3W +1W +2W +3W
Monate: 1M, 3M, 6M -1M -3M -6M +1M +3M +6M
Jahre:    1J, 3J, 5J, 10J -1J -3J -5J -10J +1J +3J +5J +10J
Nutze für die Darstellung ... ?
Originaldaten oder Mittelwerte auf ...
Stundenbasis Tagesbasis Wochenbasis
Monatsbasis Jahresbasis      Datenbasis: Original-Daten
Darstellen als:
Statistik (Auto) Statistik J:M      Darstellung:
Zur Graphik,    zurück zur Übersicht aller Sensoren.
 
Tabellarische Datenbersicht: ?
 
Sensor: Nr:Datum:Temp:Abs-Feuchte:Windchill:Wind:
Aussen-T/F 1 08-06-2014 00:00:00 19.5 C 13.43 g/m*3 19.5 C 0 km/h
2 08-06-2014 00:05:00 19.3 C 13.44 g/m*3 19.3 C 0 km/h
3 08-06-2014 00:10:00 19.3 C 13.44 g/m*3 19.3 C 0 km/h
4 08-06-2014 00:15:00 19.2 C 13.52 g/m*3 19.2 C 0 km/h
5 08-06-2014 00:20:00 19.1 C 13.44 g/m*3 19.1 C 0 km/h
6 08-06-2014 00:25:00 18.9 C 13.45 g/m*3 18.9 C 0 km/h
7 08-06-2014 00:30:00 18.8 C 13.37 g/m*3 18.8 C 0 km/h
8 08-06-2014 00:35:00 18.7 C 13.29 g/m*3 18.7 C 0 km/h
9 08-06-2014 00:40:00 18.7 C 13.29 g/m*3 18.7 C 1.6 km/h
10 08-06-2014 00:45:00 18.7 C 13.29 g/m*3 18.7 C 0 km/h
11 08-06-2014 00:50:00 18.7 C 13.29 g/m*3 18.7 C 0 km/h
12 08-06-2014 00:55:00 18.7 C 13.29 g/m*3 18.7 C 0 km/h
13 08-06-2014 01:00:00 18.6 C 13.21 g/m*3 18.6 C 0 km/h
14 08-06-2014 01:05:00 18.4 C 13.05 g/m*3 18.4 C 1.6 km/h
15 08-06-2014 01:10:00 18.4 C 13.21 g/m*3 18.4 C 0 km/h
16 08-06-2014 01:15:00 18.3 C 13.13 g/m*3 18.3 C 0 km/h
17 08-06-2014 01:20:00 18.2 C 13.21 g/m*3 18.2 C 0 km/h
18 08-06-2014 01:25:00 18.1 C 13.13 g/m*3 18.1 C 0 km/h
19 08-06-2014 01:30:00 18 C 13.21 g/m*3 18 C 0 km/h
20 08-06-2014 01:35:00 17.9 C 13.13 g/m*3 17.9 C 0 km/h
21 08-06-2014 01:40:00 17.9 C 13.13 g/m*3 17.9 C 0 km/h
22 08-06-2014 01:45:00 17.8 C 13.05 g/m*3 17.8 C 0 km/h
23 08-06-2014 01:50:00 17.8 C 13.05 g/m*3 17.8 C 0 km/h
24 08-06-2014 01:55:00 17.7 C 12.98 g/m*3 17.7 C 1.6 km/h
25 08-06-2014 02:00:00 17.7 C 12.98 g/m*3 17.7 C 0 km/h
Sensor: Nr:Datum:Temp:Abs-Feuchte:Windchill:Wind:
Aussen-T/F 26 08-06-2014 02:05:00 17.6 C 13.05 g/m*3 17.6 C 0 km/h
27 08-06-2014 02:10:00 17.5 C 12.97 g/m*3 17.5 C 0 km/h
28 08-06-2014 02:15:00 17.4 C 12.89 g/m*3 17.4 C 0 km/h
29 08-06-2014 02:20:00 17.3 C 12.82 g/m*3 17.3 C 0 km/h
30 08-06-2014 02:25:00 17.3 C 12.82 g/m*3 17.3 C 0 km/h
31 08-06-2014 02:30:00 17.2 C 12.74 g/m*3 17.2 C 0 km/h
32 08-06-2014 02:35:00 17.1 C 12.81 g/m*3 17.1 C 0 km/h
33 08-06-2014 02:40:00 17.1 C 12.81 g/m*3 17.1 C 0 km/h
34 08-06-2014 02:45:00 17 C 12.73 g/m*3 17 C 0 km/h
35 08-06-2014 02:50:00 16.9 C 12.66 g/m*3 16.9 C 0 km/h
36 08-06-2014 02:55:00 16.9 C 12.66 g/m*3 16.9 C 0 km/h
37 08-06-2014 03:00:00 16.9 C 12.66 g/m*3 16.9 C 0 km/h
38 08-06-2014 03:05:00 16.8 C 12.58 g/m*3 16.8 C 0 km/h
39 08-06-2014 03:10:00 16.8 C 12.58 g/m*3 16.8 C 0 km/h
40 08-06-2014 03:15:00 16.7 C 12.51 g/m*3 16.7 C 0 km/h
41 08-06-2014 03:20:00 16.7 C 12.65 g/m*3 16.7 C 0 km/h
42 08-06-2014 03:25:00 16.6 C 12.57 g/m*3 16.6 C 0 km/h
43 08-06-2014 03:30:00 16.4 C 12.42 g/m*3 16.4 C 0 km/h
44 08-06-2014 03:35:00 16.4 C 12.56 g/m*3 16.4 C 0 km/h
45 08-06-2014 03:40:00 16.3 C 12.49 g/m*3 16.3 C 0 km/h
46 08-06-2014 03:45:00 16.3 C 12.62 g/m*3 16.3 C 0 km/h
47 08-06-2014 03:50:00 16.3 C 12.62 g/m*3 16.3 C 0 km/h
48 08-06-2014 03:55:00 16.3 C 12.62 g/m*3 16.3 C 0 km/h
49 08-06-2014 04:00:00 16.3 C 12.62 g/m*3 16.3 C 0 km/h
50 08-06-2014 04:05:00 16.3 C 12.62 g/m*3 16.3 C 0 km/h
Sensor: Nr:Datum:Temp:Abs-Feuchte:Windchill:Wind:
Aussen-T/F 51 08-06-2014 04:10:00 16.3 C 12.62 g/m*3 16.3 C 0 km/h
52 08-06-2014 04:15:00 16.2 C 12.55 g/m*3 16.2 C 0 km/h
53 08-06-2014 04:20:00 16.2 C 12.55 g/m*3 16.2 C 0 km/h
54 08-06-2014 04:25:00 16.2 C 12.55 g/m*3 16.2 C 0 km/h
55 08-06-2014 04:30:00 16.2 C 12.69 g/m*3 16.2 C 0 km/h
56 08-06-2014 04:35:00 16.2 C 12.55 g/m*3 16.2 C 0 km/h
57 08-06-2014 04:40:00 16.2 C 12.55 g/m*3 16.2 C 0 km/h
58 08-06-2014 04:45:00 16.2 C 12.55 g/m*3 16.2 C 0 km/h
59 08-06-2014 04:50:00 16 C 12.4 g/m*3 16 C 0 km/h
60 08-06-2014 04:55:00 15.9 C 12.32 g/m*3 15.9 C 0 km/h
61 08-06-2014 05:00:00 15.8 C 12.38 g/m*3 15.8 C 0 km/h
62 08-06-2014 05:05:00 15.8 C 12.38 g/m*3 15.8 C 0 km/h
63 08-06-2014 05:10:00 15.8 C 12.38 g/m*3 15.8 C 1.6 km/h
64 08-06-2014 05:15:00 15.8 C 12.38 g/m*3 15.8 C 0 km/h
65 08-06-2014 05:20:00 15.8 C 12.38 g/m*3 15.8 C 0 km/h
66 08-06-2014 05:25:00 15.8 C 12.38 g/m*3 15.8 C 0 km/h
67 08-06-2014 05:30:00 15.7 C 12.31 g/m*3 15.7 C 0 km/h
68 08-06-2014 05:35:00 15.7 C 12.31 g/m*3 15.7 C 0 km/h
69 08-06-2014 05:40:00 15.6 C 12.23 g/m*3 15.6 C 0 km/h
70 08-06-2014 05:45:00 15.6 C 12.37 g/m*3 15.6 C 0 km/h
71 08-06-2014 05:50:00 15.6 C 12.37 g/m*3 15.6 C 0 km/h
72 08-06-2014 05:55:00 15.6 C 12.37 g/m*3 15.6 C 0 km/h
73 08-06-2014 06:00:00 15.5 C 12.29 g/m*3 15.5 C 0 km/h
74 08-06-2014 06:05:00 15.6 C 12.37 g/m*3 15.6 C 0 km/h
75 08-06-2014 06:10:00 15.6 C 12.5 g/m*3 15.6 C 0 km/h
Sensor: Nr:Datum:Temp:Abs-Feuchte:Windchill:Wind:
Aussen-T/F 76 08-06-2014 06:15:00 15.7 C 12.58 g/m*3 15.7 C 0 km/h
77 08-06-2014 06:20:00 15.8 C 12.65 g/m*3 15.8 C 0 km/h
78 08-06-2014 06:25:00 15.9 C 12.73 g/m*3 15.9 C 0 km/h
79 08-06-2014 06:30:00 16.1 C 12.88 g/m*3 16.1 C 0 km/h
80 08-06-2014 06:35:00 16.2 C 12.82 g/m*3 16.2 C 0 km/h
81 08-06-2014 06:40:00 16.4 C 12.98 g/m*3 16.4 C 0 km/h
82 08-06-2014 06:45:00 16.5 C 13.06 g/m*3 16.5 C 0 km/h
83 08-06-2014 06:50:00 16.6 C 13.14 g/m*3 16.6 C 0 km/h
84 08-06-2014 06:55:00 16.8 C 13.15 g/m*3 16.8 C 0 km/h
85 08-06-2014 07:00:00 16.9 C 13.09 g/m*3 16.9 C 0 km/h
86 08-06-2014 07:05:00 17 C 13.02 g/m*3 17 C 0 km/h
87 08-06-2014 07:10:00 17 C 13.02 g/m*3 17 C 0 km/h
88 08-06-2014 07:15:00 17.1 C 13.1 g/m*3 17.1 C 0 km/h
89 08-06-2014 07:20:00 17.1 C 13.1 g/m*3 17.1 C 0 km/h
90 08-06-2014 07:25:00 17.1 C 13.1 g/m*3 17.1 C 0 km/h
91 08-06-2014 07:30:00 17.2 C 13.33 g/m*3 17.2 C 0 km/h
92 08-06-2014 07:35:00 17.2 C 13.33 g/m*3 17.2 C 0 km/h
93 08-06-2014 07:40:00 17.2 C 13.33 g/m*3 17.2 C 0 km/h
94 08-06-2014 07:45:00 17.3 C 13.26 g/m*3 17.3 C 1.6 km/h
95 08-06-2014 07:50:00 17.5 C 13.42 g/m*3 17.5 C 0 km/h
96 08-06-2014 07:55:00 17.7 C 13.58 g/m*3 17.7 C 0 km/h
97 08-06-2014 08:00:00 18.1 C 13.75 g/m*3 18.1 C 0 km/h
98 08-06-2014 08:05:00 18.3 C 13.76 g/m*3 18.3 C 0 km/h
99 08-06-2014 08:10:00 18.6 C 13.85 g/m*3 18.6 C 0 km/h
100 08-06-2014 08:15:00 18.8 C 14.01 g/m*3 18.8 C 0 km/h
Sensor: Nr:Datum:Temp:Abs-Feuchte:Windchill:Wind:
Aussen-T/F 101 08-06-2014 08:20:00 19.1 C 13.93 g/m*3 19.1 C 0 km/h
102 08-06-2014 08:25:00 19.2 C 14.02 g/m*3 19.2 C 0 km/h
103 08-06-2014 08:30:00 19.4 C 14.18 g/m*3 19.4 C 0 km/h
104 08-06-2014 08:35:00 19.7 C 14.26 g/m*3 19.7 C 0 km/h
105 08-06-2014 08:40:00 19.9 C 14.43 g/m*3 19.9 C 0 km/h
106 08-06-2014 08:45:00 20 C 14.17 g/m*3 20 C 0 km/h
107 08-06-2014 08:50:00 20.1 C 14.43 g/m*3 20.1 C 0 km/h
108 08-06-2014 08:55:00 20.1 C 14.43 g/m*3 20.1 C 0 km/h
109 08-06-2014 09:00:00 20.4 C 14.51 g/m*3 20.4 C 0 km/h
110 08-06-2014 09:05:00 20.6 C 14.5 g/m*3 20.6 C 0 km/h
111 08-06-2014 09:10:00 20.6 C 14.5 g/m*3 20.6 C 0 km/h
112 08-06-2014 09:15:00 20.6 C 14.68 g/m*3 20.6 C 0 km/h
113 08-06-2014 09:20:00 20.4 C 14.68 g/m*3 20.4 C 0 km/h
114 08-06-2014 09:25:00 20.3 C 14.6 g/m*3 20.3 C 0 km/h
115 08-06-2014 09:30:00 20.3 C 14.6 g/m*3 20.3 C 0 km/h
116 08-06-2014 09:35:00 20.3 C 14.77 g/m*3 20.3 C 0 km/h
117 08-06-2014 09:40:00 20.4 C 14.86 g/m*3 20.4 C 0 km/h
118 08-06-2014 09:45:00 20.5 C 14.95 g/m*3 20.5 C 0 km/h
119 08-06-2014 09:50:00 20.8 C 15.21 g/m*3 20.8 C 0 km/h
120 08-06-2014 09:55:00 21.1 C 15.29 g/m*3 21.1 C 0 km/h
121 08-06-2014 10:00:00 21.6 C 15.55 g/m*3 21.6 C 0 km/h
122 08-06-2014 10:05:00 21.9 C 15.63 g/m*3 21.9 C 0 km/h
123 08-06-2014 10:10:00 22.2 C 15.71 g/m*3 22.2 C 0 km/h
124 08-06-2014 10:15:00 22.4 C 15.89 g/m*3 22.4 C 0 km/h
125 08-06-2014 10:20:00 22.7 C 15.96 g/m*3 22.7 C 0 km/h
Sensor: Nr:Datum:Temp:Abs-Feuchte:Windchill:Wind:
Aussen-T/F 126 08-06-2014 10:25:00 22.9 C 16.14 g/m*3 22.9 C 0 km/h
127 08-06-2014 10:30:00 22.8 C 15.85 g/m*3 22.8 C 0 km/h
128 08-06-2014 10:35:00 22.9 C 16.14 g/m*3 22.9 C 0 km/h
129 08-06-2014 10:40:00 23.1 C 16.33 g/m*3 23.1 C 0 km/h
130 08-06-2014 10:45:00 23.3 C 16.52 g/m*3 23.3 C 0 km/h
131 08-06-2014 10:50:00 23.4 C 16.4 g/m*3 23.4 C 0 km/h
132 08-06-2014 10:55:00 23.2 C 16.22 g/m*3 23.2 C 0 km/h
133 08-06-2014 11:00:00 23.2 C 16.22 g/m*3 23.2 C 0 km/h
134 08-06-2014 11:05:00 23.3 C 16.1 g/m*3 23.3 C 0 km/h
135 08-06-2014 11:10:00 23.7 C 15.4 g/m*3 23.7 C 0 km/h
136 08-06-2014 11:15:00 24.6 C 16.43 g/m*3 24.6 C 0 km/h
137 08-06-2014 11:20:00 25.3 C 16.86 g/m*3 25.3 C 0 km/h
138 08-06-2014 11:25:00 25.6 C 16.19 g/m*3 25.6 C 0 km/h
139 08-06-2014 11:30:00 25.5 C 16.1 g/m*3 25.5 C 0 km/h
140 08-06-2014 11:35:00 25.3 C 16.62 g/m*3 25.3 C 0 km/h
141 08-06-2014 11:40:00 25.4 C 16.24 g/m*3 25.4 C 0 km/h
142 08-06-2014 11:45:00 25.8 C 16.61 g/m*3 25.8 C 0 km/h
143 08-06-2014 11:50:00 25.7 C 16.28 g/m*3 25.7 C 0 km/h
144 08-06-2014 11:55:00 25.5 C 15.86 g/m*3 25.5 C 1.6 km/h
145 08-06-2014 12:00:00 26 C 16.55 g/m*3 26 C 4.8 km/h
146 08-06-2014 12:05:00 26.9 C 15.87 g/m*3 26.9 C 4.8 km/h
147 08-06-2014 12:10:00 27.7 C 15.25 g/m*3 27.7 C 4.8 km/h
148 08-06-2014 12:15:00 28.3 C 15.48 g/m*3 28.3 C 8.1 km/h
149 08-06-2014 12:20:00 28.8 C 14.77 g/m*3 28.8 C 6.4 km/h
150 08-06-2014 12:25:00 29.2 C 16.55 g/m*3 29.2 C 3.2 km/h
Sensor: Nr:Datum:Temp:Abs-Feuchte:Windchill:Wind:
Aussen-T/F 151 08-06-2014 12:30:00 29.2 C 15.97 g/m*3 29.2 C 4.8 km/h
152 08-06-2014 12:35:00 29.1 C 14.73 g/m*3 29.1 C 6.4 km/h
153 08-06-2014 12:40:00 29.5 C 15.64 g/m*3 29.5 C 6.4 km/h
154 08-06-2014 12:45:00 29.7 C 14.92 g/m*3 29.7 C 1.6 km/h
155 08-06-2014 12:50:00 29.9 C 14.78 g/m*3 29.9 C 3.2 km/h
156 08-06-2014 12:55:00 30.1 C 14.63 g/m*3 30.1 C 4.8 km/h
157 08-06-2014 13:00:00 30.3 C 14.49 g/m*3 30.3 C 6.4 km/h
158 08-06-2014 13:05:00 30.6 C 14.72 g/m*3 30.6 C 6.4 km/h
159 08-06-2014 13:10:00 30.8 C 14.88 g/m*3 30.8 C 4.8 km/h
160 08-06-2014 13:15:00 30.8 C 14.88 g/m*3 30.8 C 6.4 km/h
161 08-06-2014 13:20:00 30.8 C 14.56 g/m*3 30.8 C 6.4 km/h
162 08-06-2014 13:25:00 30.9 C 16.23 g/m*3 30.9 C 6.4 km/h
163 08-06-2014 13:30:00 31.1 C 15.44 g/m*3 31.1 C 4.8 km/h
164 08-06-2014 13:35:00 31.2 C 14.88 g/m*3 31.2 C 8.1 km/h
165 08-06-2014 13:40:00 31.5 C 14.79 g/m*3 31.5 C 9.7 km/h
166 08-06-2014 13:45:00 31.6 C 14.54 g/m*3 31.6 C 9.7 km/h
167 08-06-2014 13:50:00 31.7 C 15.95 g/m*3 31.7 C 6.4 km/h
168 08-06-2014 13:55:00 31.9 C 15.45 g/m*3 31.9 C 4.8 km/h
169 08-06-2014 14:00:00 32 C 15.53 g/m*3 32 C 8.1 km/h
170 08-06-2014 14:05:00 32.2 C 15.35 g/m*3 32.2 C 3.2 km/h
171 08-06-2014 14:10:00 32.2 C 16.04 g/m*3 32.2 C 6.4 km/h
172 08-06-2014 14:15:00 32.3 C 15.78 g/m*3 32.3 C 9.7 km/h
173 08-06-2014 14:20:00 32.4 C 15.86 g/m*3 32.4 C 9.7 km/h
174 08-06-2014 14:25:00 32.3 C 16.12 g/m*3 32.3 C 11.3 km/h
175 08-06-2014 14:30:00 32.3 C 15.44 g/m*3 32.3 C 8.1 km/h
Sensor: Nr:Datum:Temp:Abs-Feuchte:Windchill:Wind:
Aussen-T/F 176 08-06-2014 14:35:00 32.4 C 14.83 g/m*3 32.4 C 8.1 km/h
177 08-06-2014 14:40:00 32.7 C 14.72 g/m*3 32.7 C 6.4 km/h
178 08-06-2014 14:45:00 32.7 C 15.77 g/m*3 32.7 C 4.8 km/h
179 08-06-2014 14:50:00 32.8 C 14.79 g/m*3 32.8 C 4.8 km/h
180 08-06-2014 14:55:00 32.8 C 14.09 g/m*3 32.8 C 8.1 km/h
181 08-06-2014 15:00:00 32.5 C 14.21 g/m*3 32.5 C 4.8 km/h
182 08-06-2014 15:05:00 32.6 C 14.64 g/m*3 32.6 C 6.4 km/h
183 08-06-2014 15:10:00 32.8 C 14.79 g/m*3 32.8 C 6.4 km/h
184 08-06-2014 15:15:00 33.2 C 14.75 g/m*3 33.2 C 6.4 km/h
185 08-06-2014 15:20:00 33.6 C 14.7 g/m*3 33.6 C 4.8 km/h
186 08-06-2014 15:25:00 33.7 C 13.67 g/m*3 33.7 C 8.1 km/h
187 08-06-2014 15:30:00 33.6 C 14.33 g/m*3 33.6 C 8.1 km/h
188 08-06-2014 15:35:00 33.2 C 14.39 g/m*3 33.2 C 8.1 km/h
189 08-06-2014 15:40:00 32.8 C 15.85 g/m*3 32.8 C 0 km/h
190 08-06-2014 15:45:00 31.7 C 16.28 g/m*3 31.7 C 1.6 km/h
191 08-06-2014 15:50:00 30.6 C 16.91 g/m*3 30.6 C 0 km/h
192 08-06-2014 15:55:00 29.3 C 16.93 g/m*3 29.3 C 1.6 km/h
193 08-06-2014 16:00:00 29.2 C 16.55 g/m*3 29.2 C 6.4 km/h
194 08-06-2014 16:05:00 30.5 C 16.51 g/m*3 30.5 C 6.4 km/h
195 08-06-2014 16:10:00 31.1 C 16.09 g/m*3 31.1 C 11.3 km/h
196 08-06-2014 16:15:00 31.8 C 16.37 g/m*3 31.8 C 14.5 km/h
197 08-06-2014 16:20:00 32.4 C 15.86 g/m*3 32.4 C 11.3 km/h
198 08-06-2014 16:25:00 32.7 C 17.17 g/m*3 32.7 C 8.1 km/h
199 08-06-2014 16:30:00 32.8 C 16.55 g/m*3 32.8 C 11.3 km/h
200 08-06-2014 16:35:00 32.7 C 15.77 g/m*3 32.7 C 8.1 km/h
Sensor: Nr:Datum:Temp:Abs-Feuchte:Windchill:Wind:
Aussen-T/F 201 08-06-2014 16:40:00 32.4 C 16.21 g/m*3 32.4 C 8.1 km/h
202 08-06-2014 16:45:00 32.5 C 15.95 g/m*3 32.5 C 8.1 km/h
203 08-06-2014 16:50:00 32.9 C 15.58 g/m*3 32.9 C 6.4 km/h
204 08-06-2014 16:55:00 32.9 C 16.29 g/m*3 32.9 C 9.7 km/h
205 08-06-2014 17:00:00 33.1 C 17.18 g/m*3 33.1 C 9.7 km/h
206 08-06-2014 17:05:00 33.6 C 16.53 g/m*3 33.6 C 4.8 km/h
207 08-06-2014 17:10:00 33.7 C 15.51 g/m*3 33.7 C 6.4 km/h
208 08-06-2014 17:15:00 33.6 C 16.17 g/m*3 33.6 C 6.4 km/h
209 08-06-2014 17:20:00 33.9 C 16.05 g/m*3 33.9 C 8.1 km/h
210 08-06-2014 17:25:00 34 C 16.51 g/m*3 34 C 4.8 km/h
211 08-06-2014 17:30:00 33.8 C 16.71 g/m*3 33.8 C 4.8 km/h
212 08-06-2014 17:35:00 33.6 C 16.9 g/m*3 33.6 C 6.4 km/h
213 08-06-2014 17:40:00 33.5 C 14.98 g/m*3 33.5 C 4.8 km/h
214 08-06-2014 17:45:00 33.4 C 14.91 g/m*3 33.4 C 3.2 km/h
215 08-06-2014 17:50:00 33.6 C 17.64 g/m*3 33.6 C 6.4 km/h
216 08-06-2014 17:55:00 33.7 C 15.51 g/m*3 33.7 C 6.4 km/h
217 08-06-2014 18:00:00 33.7 C 15.88 g/m*3 33.7 C 9.7 km/h
218 08-06-2014 18:05:00 33.6 C 15.8 g/m*3 33.6 C 6.4 km/h
219 08-06-2014 18:10:00 33.4 C 16 g/m*3 33.4 C 6.4 km/h
220 08-06-2014 18:15:00 33.5 C 16.81 g/m*3 33.5 C 8.1 km/h
221 08-06-2014 18:20:00 33.6 C 15.8 g/m*3 33.6 C 4.8 km/h
222 08-06-2014 18:25:00 33.6 C 16.53 g/m*3 33.6 C 6.4 km/h
223 08-06-2014 18:30:00 33.4 C 15.63 g/m*3 33.4 C 8.1 km/h
224 08-06-2014 18:35:00 33.4 C 15.27 g/m*3 33.4 C 3.2 km/h
225 08-06-2014 18:40:00 33.4 C 15.63 g/m*3 33.4 C 6.4 km/h
Sensor: Nr:Datum:Temp:Abs-Feuchte:Windchill:Wind:
Aussen-T/F 226 08-06-2014 18:45:00 33.4 C 16.36 g/m*3 33.4 C 9.7 km/h
227 08-06-2014 18:50:00 33.2 C 16.91 g/m*3 33.2 C 11.3 km/h
228 08-06-2014 18:55:00 33 C 16.02 g/m*3 33 C 8.1 km/h
229 08-06-2014 19:00:00 32.8 C 16.2 g/m*3 32.8 C 9.7 km/h
230 08-06-2014 19:05:00 32.5 C 16.29 g/m*3 32.5 C 8.1 km/h
231 08-06-2014 19:10:00 32.3 C 16.81 g/m*3 32.3 C 8.1 km/h
232 08-06-2014 19:15:00 32.1 C 16.29 g/m*3 32.1 C 9.7 km/h
233 08-06-2014 19:20:00 31.8 C 16.7 g/m*3 31.8 C 8.1 km/h
234 08-06-2014 19:25:00 31.6 C 16.52 g/m*3 31.6 C 4.8 km/h
235 08-06-2014 19:30:00 31.3 C 16.59 g/m*3 31.3 C 8.1 km/h
236 08-06-2014 19:35:00 31.1 C 16.41 g/m*3 31.1 C 6.4 km/h
237 08-06-2014 19:40:00 30.8 C 16.15 g/m*3 30.8 C 8.1 km/h
238 08-06-2014 19:45:00 30.6 C 16.6 g/m*3 30.6 C 8.1 km/h
239 08-06-2014 19:50:00 30.4 C 16.42 g/m*3 30.4 C 6.4 km/h
240 08-06-2014 19:55:00 30.4 C 16.42 g/m*3 30.4 C 6.4 km/h
241 08-06-2014 20:00:00 30.3 C 16.64 g/m*3 30.3 C 4.8 km/h
242 08-06-2014 20:05:00 30.2 C 16.86 g/m*3 30.2 C 6.4 km/h
243 08-06-2014 20:10:00 30.1 C 16.46 g/m*3 30.1 C 6.4 km/h
244 08-06-2014 20:15:00 29.8 C 16.2 g/m*3 29.8 C 8.1 km/h
245 08-06-2014 20:20:00 29.6 C 16.02 g/m*3 29.6 C 9.7 km/h
246 08-06-2014 20:25:00 29.4 C 16.15 g/m*3 29.4 C 8.1 km/h
247 08-06-2014 20:30:00 29.2 C 16.26 g/m*3 29.2 C 8.1 km/h
248 08-06-2014 20:35:00 28.9 C 16 g/m*3 28.9 C 6.4 km/h
249 08-06-2014 20:40:00 28.7 C 16.11 g/m*3 28.7 C 8.1 km/h
250 08-06-2014 20:45:00 28.5 C 16.21 g/m*3 28.5 C 8.1 km/h
Sensor: Nr:Datum:Temp:Abs-Feuchte:Windchill:Wind:
Aussen-T/F 251 08-06-2014 20:50:00 28.3 C 16.03 g/m*3 28.3 C 9.7 km/h
252 08-06-2014 20:55:00 28.1 C 16.13 g/m*3 28.1 C 6.4 km/h
253 08-06-2014 21:00:00 27.7 C 17.12 g/m*3 27.7 C 8.1 km/h
254 08-06-2014 21:05:00 26.9 C 16.89 g/m*3 26.9 C 1.6 km/h
255 08-06-2014 21:10:00 26.1 C 16.89 g/m*3 26.1 C 0 km/h
256 08-06-2014 21:15:00 25.5 C 16.81 g/m*3 25.5 C 0 km/h
257 08-06-2014 21:20:00 25.1 C 16.67 g/m*3 25.1 C 0 km/h
258 08-06-2014 21:25:00 24.9 C 16.71 g/m*3 24.9 C 0 km/h
259 08-06-2014 21:30:00 24.7 C 16.75 g/m*3 24.7 C 0 km/h
260 08-06-2014 21:35:00 24.4 C 16.69 g/m*3 24.4 C 0 km/h
261 08-06-2014 21:40:00 24.2 C 16.72 g/m*3 24.2 C 1.6 km/h
262 08-06-2014 21:45:00 23.9 C 16.44 g/m*3 23.9 C 1.6 km/h
263 08-06-2014 21:50:00 23.8 C 16.56 g/m*3 23.8 C 0 km/h
264 08-06-2014 21:55:00 23.8 C 16.78 g/m*3 23.8 C 0 km/h
265 08-06-2014 22:00:00 23.7 C 16.68 g/m*3 23.7 C 1.6 km/h
266 08-06-2014 22:05:00 23.5 C 16.71 g/m*3 23.5 C 0 km/h
267 08-06-2014 22:10:00 23.4 C 16.61 g/m*3 23.4 C 0 km/h
268 08-06-2014 22:15:00 23.3 C 16.73 g/m*3 23.3 C 0 km/h
269 08-06-2014 22:20:00 23.2 C 16.63 g/m*3 23.2 C 0 km/h
270 08-06-2014 22:25:00 23.1 C 16.54 g/m*3 23.1 C 0 km/h
271 08-06-2014 22:30:00 23.2 C 16.63 g/m*3 23.2 C 1.6 km/h
272 08-06-2014 22:35:00 23.1 C 16.54 g/m*3 23.1 C 0 km/h
273 08-06-2014 22:40:00 23 C 16.65 g/m*3 23 C 1.6 km/h
274 08-06-2014 22:45:00 22.9 C 16.55 g/m*3 22.9 C 0 km/h
275 08-06-2014 22:50:00 22.8 C 16.66 g/m*3 22.8 C 0 km/h
Sensor: Nr:Datum:Temp:Abs-Feuchte:Windchill:Wind:
Aussen-T/F 276 08-06-2014 22:55:00 22.7 C 16.57 g/m*3 22.7 C 0 km/h
277 08-06-2014 23:00:00 22.6 C 16.47 g/m*3 22.6 C 0 km/h
278 08-06-2014 23:05:00 22.5 C 16.38 g/m*3 22.5 C 0 km/h
279 08-06-2014 23:10:00 22.4 C 16.28 g/m*3 22.4 C 0 km/h
280 08-06-2014 23:15:00 22.3 C 16.39 g/m*3 22.3 C 0 km/h
281 08-06-2014 23:20:00 22.3 C 16.39 g/m*3 22.3 C 0 km/h
282 08-06-2014 23:25:00 22.2 C 16.3 g/m*3 22.2 C 0 km/h
283 08-06-2014 23:30:00 22.2 C 16.3 g/m*3 22.2 C 0 km/h
284 08-06-2014 23:35:00 22.1 C 16.4 g/m*3 22.1 C 0 km/h
285 08-06-2014 23:40:00 21.9 C 16.21 g/m*3 21.9 C 0 km/h
286 08-06-2014 23:45:00 21.9 C 16.21 g/m*3 21.9 C 0 km/h
287 08-06-2014 23:50:00 21.8 C 16.12 g/m*3 21.8 C 0 km/h
288 08-06-2014 23:55:00 21.7 C 16.21 g/m*3 21.7 C 0 km/h
289 09-06-2014 00:00:00 21.7 C 16.21 g/m*3 21.7 C 1.6 km/h
290 09-06-2014 00:05:00 21.6 C 16.12 g/m*3 21.6 C 0 km/h
291 09-06-2014 00:10:00 21.5 C 16.03 g/m*3 21.5 C 0 km/h
292 09-06-2014 00:15:00 21.4 C 16.12 g/m*3 21.4 C 0 km/h
293 09-06-2014 00:20:00 21.4 C 16.12 g/m*3 21.4 C 0 km/h
294 09-06-2014 00:25:00 21.3 C 16.03 g/m*3 21.3 C 0 km/h
295 09-06-2014 00:30:00 21.2 C 15.94 g/m*3 21.2 C 0 km/h
296 09-06-2014 00:35:00 21.2 C 15.94 g/m*3 21.2 C 0 km/h
297 09-06-2014 00:40:00 21.1 C 15.85 g/m*3 21.1 C 1.6 km/h
298 09-06-2014 00:45:00 20.9 C 15.66 g/m*3 20.9 C 0 km/h
299 09-06-2014 00:50:00 20.8 C 15.75 g/m*3 20.8 C 0 km/h
300 09-06-2014 00:55:00 20.7 C 15.66 g/m*3 20.7 C 0 km/h
Sensor: Nr:Datum:Temp:Abs-Feuchte:Windchill:Wind:
Aussen-T/F 301 09-06-2014 01:00:00 20.7 C 15.66 g/m*3 20.7 C 0 km/h
302 09-06-2014 01:05:00 20.6 C 15.57 g/m*3 20.6 C 0 km/h
303 09-06-2014 01:10:00 20.5 C 15.66 g/m*3 20.5 C 0 km/h
304 09-06-2014 01:15:00 20.4 C 15.57 g/m*3 20.4 C 0 km/h
305 09-06-2014 01:20:00 20.3 C 15.48 g/m*3 20.3 C 0 km/h
306 09-06-2014 01:25:00 20.3 C 15.48 g/m*3 20.3 C 0 km/h
307 09-06-2014 01:30:00 20.3 C 15.48 g/m*3 20.3 C 0 km/h
308 09-06-2014 01:35:00 20.3 C 15.65 g/m*3 20.3 C 0 km/h
309 09-06-2014 01:40:00 20.2 C 15.39 g/m*3 20.2 C 0 km/h
310 09-06-2014 01:45:00 20.1 C 15.47 g/m*3 20.1 C 0 km/h
311 09-06-2014 01:50:00 20.1 C 15.47 g/m*3 20.1 C 0 km/h
312 09-06-2014 01:55:00 20 C 15.38 g/m*3 20 C 0 km/h
313 09-06-2014 02:00:00 19.9 C 15.29 g/m*3 19.9 C 0 km/h
314 09-06-2014 02:05:00 19.8 C 15.37 g/m*3 19.8 C 0 km/h
315 09-06-2014 02:10:00 19.8 C 15.37 g/m*3 19.8 C 0 km/h
316 09-06-2014 02:15:00 19.7 C 15.28 g/m*3 19.7 C 0 km/h
317 09-06-2014 02:20:00 19.7 C 15.28 g/m*3 19.7 C 0 km/h
318 09-06-2014 02:25:00 19.7 C 15.28 g/m*3 19.7 C 1.6 km/h
319 09-06-2014 02:30:00 19.7 C 15.45 g/m*3 19.7 C 1.6 km/h
320 09-06-2014 02:35:00 19.7 C 15.45 g/m*3 19.7 C 0 km/h
321 09-06-2014 02:40:00 19.7 C 15.45 g/m*3 19.7 C 0 km/h
322 09-06-2014 02:45:00 19.7 C 15.28 g/m*3 19.7 C 0 km/h
323 09-06-2014 02:50:00 19.7 C 15.45 g/m*3 19.7 C 0 km/h
324 09-06-2014 02:55:00 19.7 C 15.45 g/m*3 19.7 C 0 km/h
325 09-06-2014 03:00:00 19.6 C 15.36 g/m*3 19.6 C 0 km/h
Sensor: Nr:Datum:Temp:Abs-Feuchte:Windchill:Wind:
Aussen-T/F 326 09-06-2014 03:05:00 19.6 C 15.36 g/m*3 19.6 C 0 km/h
327 09-06-2014 03:10:00 19.6 C 15.53 g/m*3 19.6 C 0 km/h
328 09-06-2014 03:15:00 19.6 C 15.53 g/m*3 19.6 C 0 km/h
329 09-06-2014 03:20:00 19.6 C 15.53 g/m*3 19.6 C 0 km/h
330 09-06-2014 03:25:00 19.4 C 15.35 g/m*3 19.4 C 0 km/h
331 09-06-2014 03:30:00 19.4 C 15.35 g/m*3 19.4 C 0 km/h
332 09-06-2014 03:35:00 19.3 C 15.26 g/m*3 19.3 C 0 km/h
333 09-06-2014 03:40:00 19.3 C 15.26 g/m*3 19.3 C 0 km/h
334 09-06-2014 03:45:00 19.4 C 15.35 g/m*3 19.4 C 0 km/h
335 09-06-2014 03:50:00 19.3 C 15.26 g/m*3 19.3 C 0 km/h
336 09-06-2014 03:55:00 19.4 C 15.35 g/m*3 19.4 C 1.6 km/h
337 09-06-2014 04:00:00 19.4 C 15.35 g/m*3 19.4 C 1.6 km/h
338 09-06-2014 04:05:00 19.4 C 15.35 g/m*3 19.4 C 0 km/h
339 09-06-2014 04:10:00 19.4 C 15.35 g/m*3 19.4 C 3.2 km/h
340 09-06-2014 04:15:00 19.4 C 15.35 g/m*3 19.4 C 0 km/h
341 09-06-2014 04:20:00 19.5 C 15.44 g/m*3 19.5 C 1.6 km/h
342 09-06-2014 04:25:00 19.6 C 15.53 g/m*3 19.6 C 1.6 km/h
343 09-06-2014 04:30:00 19.6 C 15.36 g/m*3 19.6 C 0 km/h
344 09-06-2014 04:35:00 19.6 C 15.19 g/m*3 19.6 C 0 km/h
345 09-06-2014 04:40:00 19.6 C 15.19 g/m*3 19.6 C 1.6 km/h
346 09-06-2014 04:45:00 19.5 C 15.1 g/m*3 19.5 C 1.6 km/h
347 09-06-2014 04:50:00 19.6 C 15.19 g/m*3 19.6 C 8.1 km/h
348 09-06-2014 04:55:00 19.8 C 15.2 g/m*3 19.8 C 8.1 km/h
349 09-06-2014 05:00:00 19.7 C 15.11 g/m*3 19.7 C 0 km/h
350 09-06-2014 05:05:00 19.5 C 14.94 g/m*3 19.5 C 0 km/h
Sensor: Nr:Datum:Temp:Abs-Feuchte:Windchill:Wind:
Aussen-T/F 351 09-06-2014 05:10:00 19.4 C 15.02 g/m*3 19.4 C 0 km/h
352 09-06-2014 05:15:00 19.3 C 14.93 g/m*3 19.3 C 0 km/h
353 09-06-2014 05:20:00 19.1 C 14.75 g/m*3 19.1 C 0 km/h
354 09-06-2014 05:25:00 19 C 14.83 g/m*3 19 C 0 km/h
355 09-06-2014 05:30:00 18.9 C 14.74 g/m*3 18.9 C 0 km/h
356 09-06-2014 05:35:00 18.8 C 14.66 g/m*3 18.8 C 0 km/h
357 09-06-2014 05:40:00 18.8 C 14.82 g/m*3 18.8 C 0 km/h
358 09-06-2014 05:45:00 18.7 C 14.73 g/m*3 18.7 C 0 km/h
359 09-06-2014 05:50:00 18.7 C 14.73 g/m*3 18.7 C 0 km/h
360 09-06-2014 05:55:00 18.7 C 14.73 g/m*3 18.7 C 0 km/h
361 09-06-2014 06:00:00 18.7 C 14.73 g/m*3 18.7 C 0 km/h
362 09-06-2014 06:05:00 18.6 C 14.64 g/m*3 18.6 C 0 km/h
363 09-06-2014 06:10:00 18.6 C 14.64 g/m*3 18.6 C 0 km/h
364 09-06-2014 06:15:00 18.6 C 14.64 g/m*3 18.6 C 0 km/h
365 09-06-2014 06:20:00 18.6 C 14.64 g/m*3 18.6 C 0 km/h
366 09-06-2014 06:25:00 18.6 C 14.64 g/m*3 18.6 C 0 km/h
367 09-06-2014 06:30:00 18.6 C 14.8 g/m*3 18.6 C 0 km/h
368 09-06-2014 06:35:00 18.6 C 14.8 g/m*3 18.6 C 0 km/h
369 09-06-2014 06:40:00 18.6 C 14.8 g/m*3 18.6 C 0 km/h
370 09-06-2014 06:45:00 18.6 C 14.8 g/m*3 18.6 C 0 km/h
371 09-06-2014 06:50:00 18.7 C 14.89 g/m*3 18.7 C 1.6 km/h
372 09-06-2014 06:55:00 18.7 C 14.89 g/m*3 18.7 C 0 km/h
373 09-06-2014 07:00:00 18.8 C 14.98 g/m*3 18.8 C 0 km/h
374 09-06-2014 07:05:00 18.8 C 14.98 g/m*3 18.8 C 0 km/h
375 09-06-2014 07:10:00 18.8 C 14.98 g/m*3 18.8 C 0 km/h
Sensor: Nr:Datum:Temp:Abs-Feuchte:Windchill:Wind:
Aussen-T/F 376 09-06-2014 07:15:00 18.8 C 14.98 g/m*3 18.8 C 0 km/h
377 09-06-2014 07:20:00 18.9 C 15.07 g/m*3 18.9 C 0 km/h
378 09-06-2014 07:25:00 19 C 15.16 g/m*3 19 C 0 km/h
379 09-06-2014 07:30:00 19.1 C 15.25 g/m*3 19.1 C 0 km/h
380 09-06-2014 07:35:00 19.2 C 15.34 g/m*3 19.2 C 0 km/h
381 09-06-2014 07:40:00 19.3 C 15.43 g/m*3 19.3 C 0 km/h
382 09-06-2014 07:45:00 19.3 C 15.43 g/m*3 19.3 C 0 km/h
383 09-06-2014 07:50:00 19.4 C 15.52 g/m*3 19.4 C 0 km/h
384 09-06-2014 07:55:00 19.7 C 15.79 g/m*3 19.7 C 0 km/h
385 09-06-2014 08:00:00 19.9 C 15.81 g/m*3 19.9 C 0 km/h
386 09-06-2014 08:05:00 20.2 C 15.91 g/m*3 20.2 C 0 km/h
387 09-06-2014 08:10:00 20.5 C 16.01 g/m*3 20.5 C 0 km/h
388 09-06-2014 08:15:00 20.7 C 16.02 g/m*3 20.7 C 0 km/h
389 09-06-2014 08:20:00 20.9 C 16.03 g/m*3 20.9 C 0 km/h
390 09-06-2014 08:25:00 21.2 C 16.31 g/m*3 21.2 C 0 km/h
391 09-06-2014 08:30:00 21.4 C 16.5 g/m*3 21.4 C 0 km/h
392 09-06-2014 08:35:00 21.6 C 16.31 g/m*3 21.6 C 0 km/h
393 09-06-2014 08:40:00 21.8 C 16.5 g/m*3 21.8 C 0 km/h
394 09-06-2014 08:45:00 21.9 C 16.6 g/m*3 21.9 C 0 km/h
395 09-06-2014 08:50:00 21.9 C 16.4 g/m*3 21.9 C 0 km/h
396 09-06-2014 08:55:00 22.1 C 16.79 g/m*3 22.1 C 0 km/h
397 09-06-2014 09:00:00 22.4 C 17.08 g/m*3 22.4 C 0 km/h
398 09-06-2014 09:05:00 22.7 C 16.77 g/m*3 22.7 C 4.8 km/h
399 09-06-2014 09:10:00 23.2 C 16.84 g/m*3 23.2 C 4.8 km/h
400 09-06-2014 09:15:00 23.6 C 17.23 g/m*3 23.6 C 3.2 km/h
Sensor: Nr:Datum:Temp:Abs-Feuchte:Windchill:Wind:
Aussen-T/F 401 09-06-2014 09:20:00 23.7 C 16.9 g/m*3 23.7 C 1.6 km/h
402 09-06-2014 09:25:00 23.7 C 17.11 g/m*3 23.7 C 3.2 km/h
403 09-06-2014 09:30:00 23.4 C 16.82 g/m*3 23.4 C 9.7 km/h
404 09-06-2014 09:35:00 23.6 C 16.8 g/m*3 23.6 C 9.7 km/h
405 09-06-2014 09:40:00 23.9 C 16.66 g/m*3 23.9 C 1.6 km/h
406 09-06-2014 09:45:00 24.2 C 16.72 g/m*3 24.2 C 6.4 km/h
407 09-06-2014 09:50:00 24.4 C 16.91 g/m*3 24.4 C 4.8 km/h
408 09-06-2014 09:55:00 24.8 C 17.07 g/m*3 24.8 C 8.1 km/h
409 09-06-2014 10:00:00 25.2 C 16.76 g/m*3 25.2 C 4.8 km/h
410 09-06-2014 10:05:00 25.6 C 16.9 g/m*3 25.6 C 3.2 km/h
411 09-06-2014 10:10:00 25.9 C 16.95 g/m*3 25.9 C 9.7 km/h
412 09-06-2014 10:15:00 26.3 C 17.08 g/m*3 26.3 C 8.1 km/h
413 09-06-2014 10:20:00 26.5 C 17.02 g/m*3 26.5 C 6.4 km/h
414 09-06-2014 10:25:00 26.7 C 16.96 g/m*3 26.7 C 8.1 km/h
415 09-06-2014 10:30:00 26.7 C 16.71 g/m*3 26.7 C 6.4 km/h
416 09-06-2014 10:35:00 26.8 C 17.05 g/m*3 26.8 C 8.1 km/h
417 09-06-2014 10:40:00 26.9 C 16.89 g/m*3 26.9 C 6.4 km/h
418 09-06-2014 10:45:00 27.1 C 17.08 g/m*3 27.1 C 6.4 km/h
419 09-06-2014 10:50:00 27.1 C 16.82 g/m*3 27.1 C 12.9 km/h
420 09-06-2014 10:55:00 27.2 C 16.39 g/m*3 27.2 C 6.4 km/h
421 09-06-2014 11:00:00 27.4 C 16.84 g/m*3 27.4 C 6.4 km/h
422 09-06-2014 11:05:00 27.6 C 16.76 g/m*3 27.6 C 6.4 km/h
423 09-06-2014 11:10:00 27.8 C 17.21 g/m*3 27.8 C 9.7 km/h
424 09-06-2014 11:15:00 28.1 C 17.23 g/m*3 28.1 C 6.4 km/h
425 09-06-2014 11:20:00 28.2 C 17.32 g/m*3 28.2 C 9.7 km/h
Sensor: Nr:Datum:Temp:Abs-Feuchte:Windchill:Wind:
Aussen-T/F 426 09-06-2014 11:25:00 28.4 C 17.51 g/m*3 28.4 C 4.8 km/h
427 09-06-2014 11:30:00 28.4 C 17.51 g/m*3 28.4 C 4.8 km/h
428 09-06-2014 11:35:00 28.6 C 17.99 g/m*3 28.6 C 4.8 km/h
429 09-06-2014 11:40:00 28.9 C 17.43 g/m*3 28.9 C 6.4 km/h
430 09-06-2014 11:45:00 29.2 C 17.42 g/m*3 29.2 C 8.1 km/h
431 09-06-2014 11:50:00 29.3 C 17.81 g/m*3 29.3 C 8.1 km/h
432 09-06-2014 11:55:00 29.6 C 18.1 g/m*3 29.6 C 6.4 km/h
433 09-06-2014 12:00:00 29.8 C 18 g/m*3 29.8 C 6.4 km/h
434 09-06-2014 12:05:00 30 C 17.89 g/m*3 30 C 11.3 km/h
435 09-06-2014 12:10:00 30.2 C 17.47 g/m*3 30.2 C 8.1 km/h
436 09-06-2014 12:15:00 30.2 C 18.09 g/m*3 30.2 C 8.1 km/h
437 09-06-2014 12:20:00 30.2 C 17.78 g/m*3 30.2 C 9.7 km/h
438 09-06-2014 12:25:00 30.2 C 18.39 g/m*3 30.2 C 9.7 km/h
439 09-06-2014 12:30:00 30.3 C 17.88 g/m*3 30.3 C 9.7 km/h
440 09-06-2014 12:35:00 30.4 C 17.66 g/m*3 30.4 C 8.1 km/h
441 09-06-2014 12:40:00 30.5 C 18.07 g/m*3 30.5 C 11.3 km/h
442 09-06-2014 12:45:00 30.7 C 17.95 g/m*3 30.7 C 8.1 km/h
443 09-06-2014 12:50:00 30.8 C 17.73 g/m*3 30.8 C 9.7 km/h
444 09-06-2014 12:55:00 31 C 17.92 g/m*3 31 C 9.7 km/h
445 09-06-2014 13:00:00 31.2 C 17.79 g/m*3 31.2 C 8.1 km/h
446 09-06-2014 13:05:00 31.5 C 17.75 g/m*3 31.5 C 12.9 km/h
447 09-06-2014 13:10:00 31.5 C 18.08 g/m*3 31.5 C 12.9 km/h
448 09-06-2014 13:15:00 31.7 C 17.28 g/m*3 31.7 C 12.9 km/h
449 09-06-2014 13:20:00 32 C 17.89 g/m*3 32 C 11.3 km/h
450 09-06-2014 13:25:00 32.2 C 17.4 g/m*3 32.2 C 8.1 km/h
Sensor: Nr:Datum:Temp:Abs-Feuchte:Windchill:Wind:
Aussen-T/F 451 09-06-2014 13:30:00 32.5 C 18.37 g/m*3 32.5 C 6.4 km/h
452 09-06-2014 13:35:00 32.7 C 17.52 g/m*3 32.7 C 11.3 km/h
453 09-06-2014 13:40:00 32.9 C 17.35 g/m*3 32.9 C 8.1 km/h
454 09-06-2014 13:45:00 33 C 17.44 g/m*3 33 C 4.8 km/h
455 09-06-2014 13:50:00 33.1 C 17.54 g/m*3 33.1 C 6.4 km/h
456 09-06-2014 13:55:00 33.3 C 17.36 g/m*3 33.3 C 9.7 km/h
457 09-06-2014 14:00:00 33.3 C 17.72 g/m*3 33.3 C 12.9 km/h
458 09-06-2014 14:05:00 33 C 17.09 g/m*3 33 C 9.7 km/h
459 09-06-2014 14:10:00 33.3 C 17.72 g/m*3 33.3 C 6.4 km/h
460 09-06-2014 14:15:00 33.5 C 17.91 g/m*3 33.5 C 9.7 km/h
461 09-06-2014 14:20:00 33.6 C 16.9 g/m*3 33.6 C 8.1 km/h
462 09-06-2014 14:25:00 33.7 C 17.73 g/m*3 33.7 C 8.1 km/h
463 09-06-2014 14:30:00 33.8 C 17.82 g/m*3 33.8 C 6.4 km/h
464 09-06-2014 14:35:00 33.8 C 17.82 g/m*3 33.8 C 9.7 km/h
465 09-06-2014 14:40:00 33.8 C 17.82 g/m*3 33.8 C 8.1 km/h
466 09-06-2014 14:45:00 33.9 C 17.54 g/m*3 33.9 C 9.7 km/h
467 09-06-2014 14:50:00 34.2 C 17.44 g/m*3 34.2 C 9.7 km/h
468 09-06-2014 14:55:00 34.2 C 16.68 g/m*3 34.2 C 9.7 km/h
469 09-06-2014 15:00:00 34.2 C 17.06 g/m*3 34.2 C 6.4 km/h
470 09-06-2014 15:05:00 34.2 C 17.44 g/m*3 34.2 C 11.3 km/h
471 09-06-2014 15:10:00 34.3 C 17.15 g/m*3 34.3 C 11.3 km/h
472 09-06-2014 15:15:00 34.2 C 17.06 g/m*3 34.2 C 14.5 km/h
473 09-06-2014 15:20:00 34.1 C 16.6 g/m*3 34.1 C 9.7 km/h
474 09-06-2014 15:25:00 34.2 C 17.44 g/m*3 34.2 C 9.7 km/h
475 09-06-2014 15:30:00 34.4 C 17.62 g/m*3 34.4 C 9.7 km/h
Sensor: Nr:Datum:Temp:Abs-Feuchte:Windchill:Wind:
Aussen-T/F 476 09-06-2014 15:35:00 34.4 C 17.24 g/m*3 34.4 C 8.1 km/h
477 09-06-2014 15:40:00 34.4 C 16.09 g/m*3 34.4 C 6.4 km/h
478 09-06-2014 15:45:00 34.6 C 15.87 g/m*3 34.6 C 11.3 km/h
479 09-06-2014 15:50:00 34.6 C 16.26 g/m*3 34.6 C 8.1 km/h
480 09-06-2014 15:55:00 34.7 C 16.35 g/m*3 34.7 C 4.8 km/h
481 09-06-2014 16:00:00 34.8 C 16.04 g/m*3 34.8 C 11.3 km/h
482 09-06-2014 16:05:00 34.8 C 16.04 g/m*3 34.8 C 8.1 km/h
483 09-06-2014 16:10:00 34.9 C 16.52 g/m*3 34.9 C 6.4 km/h
484 09-06-2014 16:15:00 34.8 C 15.65 g/m*3 34.8 C 8.1 km/h
485 09-06-2014 16:20:00 34.7 C 15.18 g/m*3 34.7 C 8.1 km/h
486 09-06-2014 16:25:00 34.8 C 15.65 g/m*3 34.8 C 4.8 km/h
487 09-06-2014 16:30:00 34.8 C 15.26 g/m*3 34.8 C 4.8 km/h
488 09-06-2014 16:35:00 34.8 C 15.26 g/m*3 34.8 C 6.4 km/h
489 09-06-2014 16:40:00 34.9 C 16.91 g/m*3 34.9 C 4.8 km/h
490 09-06-2014 16:45:00 35.1 C 16.29 g/m*3 35.1 C 4.8 km/h
491 09-06-2014 16:50:00 35.1 C 16.69 g/m*3 35.1 C 6.4 km/h
492 09-06-2014 16:55:00 34.8 C 16.82 g/m*3 34.8 C 3.2 km/h
493 09-06-2014 17:00:00 34.7 C 17.51 g/m*3 34.7 C 8.1 km/h
494 09-06-2014 17:05:00 35 C 17.39 g/m*3 35 C 8.1 km/h
495 09-06-2014 17:10:00 35.3 C 17.67 g/m*3 35.3 C 9.7 km/h
496 09-06-2014 17:15:00 35 C 16.6 g/m*3 35 C 6.4 km/h
497 09-06-2014 17:20:00 35.2 C 16.38 g/m*3 35.2 C 8.1 km/h
498 09-06-2014 17:25:00 35.2 C 16.78 g/m*3 35.2 C 6.4 km/h
499 09-06-2014 17:30:00 35.2 C 17.18 g/m*3 35.2 C 6.4 km/h
500 09-06-2014 17:35:00 35.1 C 17.48 g/m*3 35.1 C 3.2 km/h
Sensor: Nr:Datum:Temp:Abs-Feuchte:Windchill:Wind:
Aussen-T/F 501 09-06-2014 17:40:00 35.1 C 17.09 g/m*3 35.1 C 6.4 km/h
502 09-06-2014 17:45:00 35.2 C 17.18 g/m*3 35.2 C 12.9 km/h
503 09-06-2014 17:50:00 35.2 C 17.18 g/m*3 35.2 C 8.1 km/h
504 09-06-2014 17:55:00 35.3 C 16.46 g/m*3 35.3 C 4.8 km/h
505 09-06-2014 18:00:00 35.4 C 17.36 g/m*3 35.4 C 8.1 km/h
506 09-06-2014 18:05:00 35.3 C 16.46 g/m*3 35.3 C 6.4 km/h
507 09-06-2014 18:10:00 35.2 C 16.38 g/m*3 35.2 C 8.1 km/h
508 09-06-2014 18:15:00 35.2 C 16.38 g/m*3 35.2 C 11.3 km/h
509 09-06-2014 18:20:00 35 C 16.6 g/m*3 35 C 16.1 km/h
510 09-06-2014 18:25:00 34.8 C 16.43 g/m*3 34.8 C 16.1 km/h
511 09-06-2014 18:30:00 34.8 C 16.43 g/m*3 34.8 C 9.7 km/h
512 09-06-2014 18:35:00 34.8 C 16.43 g/m*3 34.8 C 9.7 km/h
513 09-06-2014 18:40:00 34.8 C 16.43 g/m*3 34.8 C 9.7 km/h
514 09-06-2014 18:45:00 34.6 C 17.42 g/m*3 34.6 C 11.3 km/h
515 09-06-2014 18:50:00 34.2 C 18.2 g/m*3 34.2 C 11.3 km/h
516 09-06-2014 18:55:00 33.9 C 17.54 g/m*3 33.9 C 9.7 km/h
517 09-06-2014 19:00:00 33.5 C 17.54 g/m*3 33.5 C 12.9 km/h
518 09-06-2014 19:05:00 33.4 C 17.45 g/m*3 33.4 C 11.3 km/h
519 09-06-2014 19:10:00 33.3 C 17.72 g/m*3 33.3 C 9.7 km/h
520 09-06-2014 19:15:00 33.1 C 18.25 g/m*3 33.1 C 4.8 km/h
521 09-06-2014 19:20:00 32.9 C 17.7 g/m*3 32.9 C 6.4 km/h
522 09-06-2014 19:25:00 32.7 C 18.57 g/m*3 32.7 C 3.2 km/h
523 09-06-2014 19:30:00 32.4 C 17.93 g/m*3 32.4 C 3.2 km/h
524 09-06-2014 19:35:00 32.2 C 19.11 g/m*3 32.2 C 3.2 km/h
525 09-06-2014 19:40:00 31.2 C 18.76 g/m*3 31.2 C 1.6 km/h
Sensor: Nr:Datum:Temp:Abs-Feuchte:Windchill:Wind:
Aussen-T/F 526 09-06-2014 19:45:00 30.2 C 19.01 g/m*3 30.2 C 0 km/h
527 09-06-2014 19:50:00 29.1 C 19.06 g/m*3 29.1 C 1.6 km/h
528 09-06-2014 19:55:00 28.2 C 18.97 g/m*3 28.2 C 1.6 km/h
529 09-06-2014 20:00:00 27.6 C 18.89 g/m*3 27.6 C 1.6 km/h
530 09-06-2014 20:05:00 27.2 C 18.74 g/m*3 27.2 C 0 km/h
531 09-06-2014 20:10:00 26.8 C 18.58 g/m*3 26.8 C 1.6 km/h
532 09-06-2014 20:15:00 26.7 C 18.48 g/m*3 26.7 C 0 km/h
533 09-06-2014 20:20:00 26.5 C 18.52 g/m*3 26.5 C 0 km/h
534 09-06-2014 20:25:00 26.3 C 18.32 g/m*3 26.3 C 1.6 km/h
535 09-06-2014 20:30:00 26.1 C 17.38 g/m*3 26.1 C 1.6 km/h
536 09-06-2014 20:35:00 25.9 C 17.19 g/m*3 25.9 C 1.6 km/h
537 09-06-2014 20:40:00 25.7 C 16.76 g/m*3 25.7 C 0 km/h
538 09-06-2014 20:45:00 25.4 C 16.72 g/m*3 25.4 C 1.6 km/h
539 09-06-2014 20:50:00 25.3 C 16.62 g/m*3 25.3 C 1.6 km/h
540 09-06-2014 20:55:00 25.2 C 16.76 g/m*3 25.2 C 1.6 km/h
541 09-06-2014 21:00:00 25.1 C 16.67 g/m*3 25.1 C 0 km/h
542 09-06-2014 21:05:00 25.1 C 16.67 g/m*3 25.1 C 1.6 km/h
543 09-06-2014 21:10:00 25.2 C 16.3 g/m*3 25.2 C 1.6 km/h
544 09-06-2014 21:15:00 25.1 C 16.2 g/m*3 25.1 C 1.6 km/h
545 09-06-2014 21:20:00 25.3 C 16.86 g/m*3 25.3 C 11.3 km/h
546 09-06-2014 21:25:00 26.3 C 15.84 g/m*3 26.3 C 14.5 km/h
547 09-06-2014 21:30:00 26.8 C 15.27 g/m*3 26.8 C 20.9 km/h
548 09-06-2014 21:35:00 26.8 C 14.76 g/m*3 26.8 C 11.3 km/h
549 09-06-2014 21:40:00 26.3 C 13.62 g/m*3 26.3 C 19.3 km/h
550 09-06-2014 21:45:00 25.8 C 13 g/m*3 25.8 C 11.3 km/h
Sensor: Nr:Datum:Temp:Abs-Feuchte:Windchill:Wind:
Aussen-T/F 551 09-06-2014 21:50:00 25.2 C 12.8 g/m*3 25.2 C 14.5 km/h
552 09-06-2014 21:55:00 24.8 C 12.29 g/m*3 24.8 C 11.3 km/h
553 09-06-2014 22:00:00 24.4 C 12.24 g/m*3 24.4 C 19.3 km/h
554 09-06-2014 22:05:00 23.9 C 12.33 g/m*3 23.9 C 14.5 km/h
555 09-06-2014 22:10:00 23.1 C 12.4 g/m*3 23.1 C 9.7 km/h
556 09-06-2014 22:15:00 22.3 C 12.44 g/m*3 22.3 C 16.1 km/h
557 09-06-2014 22:20:00 21.8 C 12.47 g/m*3 21.8 C 6.4 km/h
558 09-06-2014 22:25:00 21.6 C 12.52 g/m*3 21.6 C 6.4 km/h
559 09-06-2014 22:30:00 21.4 C 12.75 g/m*3 21.4 C 12.9 km/h
560 09-06-2014 22:35:00 21.2 C 12.79 g/m*3 21.2 C 9.7 km/h
561 09-06-2014 22:40:00 21.2 C 12.79 g/m*3 21.2 C 8.1 km/h
562 09-06-2014 22:45:00 21.1 C 12.9 g/m*3 21.1 C 4.8 km/h
563 09-06-2014 22:50:00 20.9 C 12.75 g/m*3 20.9 C 3.2 km/h
564 09-06-2014 22:55:00 20.8 C 12.86 g/m*3 20.8 C 3.2 km/h
565 09-06-2014 23:00:00 20.7 C 12.78 g/m*3 20.7 C 3.2 km/h
566 09-06-2014 23:05:00 20.6 C 12.71 g/m*3 20.6 C 4.8 km/h
567 09-06-2014 23:10:00 20.6 C 12.89 g/m*3 20.6 C 3.2 km/h
568 09-06-2014 23:15:00 20.5 C 12.99 g/m*3 20.5 C 0 km/h
569 09-06-2014 23:20:00 20.2 C 12.94 g/m*3 20.2 C 0 km/h
570 09-06-2014 23:25:00 19.9 C 12.89 g/m*3 19.9 C 0 km/h
571 09-06-2014 23:30:00 19.7 C 12.91 g/m*3 19.7 C 0 km/h
572 09-06-2014 23:35:00 19.6 C 13 g/m*3 19.6 C 0 km/h
573 09-06-2014 23:40:00 19.4 C 12.85 g/m*3 19.4 C 0 km/h
574 09-06-2014 23:45:00 19.3 C 12.94 g/m*3 19.3 C 0 km/h
575 09-06-2014 23:50:00 19.2 C 12.86 g/m*3 19.2 C 0 km/h
Sensor: Nr:Datum:Temp:Abs-Feuchte:Windchill:Wind:
Aussen-T/F 576 09-06-2014 23:55:00 18.9 C 12.8 g/m*3 18.9 C 0 km/h
577 10-06-2014 00:00:00 18.8 C 12.88 g/m*3 18.8 C 0 km/h
578 10-06-2014 00:05:00 18.7 C 12.81 g/m*3 18.7 C 0 km/h
579 10-06-2014 00:10:00 18.6 C 12.89 g/m*3 18.6 C 0 km/h
580 10-06-2014 00:15:00 18.6 C 12.89 g/m*3 18.6 C 0 km/h
581 10-06-2014 00:20:00 18.6 C 12.89 g/m*3 18.6 C 0 km/h
582 10-06-2014 00:25:00 18.5 C 12.82 g/m*3 18.5 C 0 km/h
583 10-06-2014 00:30:00 18.4 C 12.9 g/m*3 18.4 C 0 km/h
584 10-06-2014 00:35:00 18.4 C 12.9 g/m*3 18.4 C 0 km/h
585 10-06-2014 00:40:00 18.3 C 12.82 g/m*3 18.3 C 0 km/h
586 10-06-2014 00:45:00 18.3 C 12.82 g/m*3 18.3 C 0 km/h
587 10-06-2014 00:50:00 18.2 C 12.75 g/m*3 18.2 C 0 km/h
588 10-06-2014 00:55:00 18.2 C 12.75 g/m*3 18.2 C 0 km/h
589 10-06-2014 01:00:00 18.1 C 12.82 g/m*3 18.1 C 0 km/h
590 10-06-2014 01:05:00 18 C 12.75 g/m*3 18 C 0 km/h
591 10-06-2014 01:10:00 17.9 C 12.67 g/m*3 17.9 C 0 km/h
592 10-06-2014 01:15:00 17.9 C 12.67 g/m*3 17.9 C 0 km/h
593 10-06-2014 01:20:00 17.8 C 12.6 g/m*3 17.8 C 0 km/h
594 10-06-2014 01:25:00 17.8 C 12.75 g/m*3 17.8 C 0 km/h
595 10-06-2014 01:30:00 17.7 C 12.67 g/m*3 17.7 C 0 km/h
596 10-06-2014 01:35:00 17.6 C 12.6 g/m*3 17.6 C 0 km/h
597 10-06-2014 01:40:00 17.6 C 12.75 g/m*3 17.6 C 1.6 km/h
598 10-06-2014 01:45:00 17.6 C 12.75 g/m*3 17.6 C 0 km/h
599 10-06-2014 01:50:00 17.5 C 12.67 g/m*3 17.5 C 0 km/h
600 10-06-2014 01:55:00 17.5 C 12.67 g/m*3 17.5 C 0 km/h
Sensor: Nr:Datum:Temp:Abs-Feuchte:Windchill:Wind:
Aussen-T/F 601 10-06-2014 02:00:00 17.4 C 12.75 g/m*3 17.4 C 0 km/h
602 10-06-2014 02:05:00 17.4 C 12.75 g/m*3 17.4 C 1.6 km/h
603 10-06-2014 02:10:00 17.4 C 12.75 g/m*3 17.4 C 1.6 km/h
604 10-06-2014 02:15:00 17.3 C 12.67 g/m*3 17.3 C 0 km/h
605 10-06-2014 02:20:00 17.3 C 12.67 g/m*3 17.3 C 0 km/h
606 10-06-2014 02:25:00 17.2 C 12.59 g/m*3 17.2 C 0 km/h
607 10-06-2014 02:30:00 17.1 C 12.66 g/m*3 17.1 C 0 km/h
608 10-06-2014 02:35:00 17 C 12.59 g/m*3 17 C 0 km/h
609 10-06-2014 02:40:00 17 C 12.59 g/m*3 17 C 0 km/h
610 10-06-2014 02:45:00 16.9 C 12.51 g/m*3 16.9 C 0 km/h
611 10-06-2014 02:50:00 16.9 C 12.51 g/m*3 16.9 C 0 km/h
612 10-06-2014 02:55:00 16.8 C 12.58 g/m*3 16.8 C 0 km/h
613 10-06-2014 03:00:00 16.8 C 12.58 g/m*3 16.8 C 0 km/h
614 10-06-2014 03:05:00 16.7 C 12.51 g/m*3 16.7 C 0 km/h
615 10-06-2014 03:10:00 16.6 C 12.43 g/m*3 16.6 C 0 km/h
616 10-06-2014 03:15:00 16.6 C 12.57 g/m*3 16.6 C 0 km/h
617 10-06-2014 03:20:00 16.6 C 12.57 g/m*3 16.6 C 0 km/h
618 10-06-2014 03:25:00 16.6 C 12.57 g/m*3 16.6 C 0 km/h
619 10-06-2014 03:30:00 16.6 C 12.57 g/m*3 16.6 C 3.2 km/h
620 10-06-2014 03:35:00 16.6 C 12.57 g/m*3 16.6 C 0 km/h
621 10-06-2014 03:40:00 16.6 C 12.57 g/m*3 16.6 C 0 km/h
622 10-06-2014 03:45:00 16.6 C 12.57 g/m*3 16.6 C 0 km/h
623 10-06-2014 03:50:00 16.6 C 12.57 g/m*3 16.6 C 1.6 km/h
624 10-06-2014 03:55:00 16.6 C 12.57 g/m*3 16.6 C 0 km/h
625 10-06-2014 04:00:00 16.6 C 12.57 g/m*3 16.6 C 1.6 km/h
Sensor: Nr:Datum:Temp:Abs-Feuchte:Windchill:Wind:
Aussen-T/F 626 10-06-2014 04:05:00 16.6 C 12.57 g/m*3 16.6 C 0 km/h
627 10-06-2014 04:10:00 16.6 C 12.57 g/m*3 16.6 C 0 km/h
628 10-06-2014 04:15:00 16.4 C 12.42 g/m*3 16.4 C 0 km/h
629 10-06-2014 04:20:00 16.3 C 12.35 g/m*3 16.3 C 0 km/h
630 10-06-2014 04:25:00 16.3 C 12.35 g/m*3 16.3 C 0 km/h
631 10-06-2014 04:30:00 16.3 C 12.35 g/m*3 16.3 C 0 km/h
632 10-06-2014 04:35:00 16.3 C 12.35 g/m*3 16.3 C 0 km/h
633 10-06-2014 04:40:00 16.2 C 12.27 g/m*3 16.2 C 0 km/h
634 10-06-2014 04:45:00 16.2 C 12.41 g/m*3 16.2 C 4.8 km/h
635 10-06-2014 04:50:00 16.2 C 12.27 g/m*3 16.2 C 4.8 km/h
636 10-06-2014 04:55:00 16.2 C 12.41 g/m*3 16.2 C 0 km/h
637 10-06-2014 05:00:00 16.1 C 12.2 g/m*3 16.1 C 0 km/h
638 10-06-2014 05:05:00 16.1 C 12.2 g/m*3 16.1 C 0 km/h
639 10-06-2014 05:10:00 16 C 12.26 g/m*3 16 C 0 km/h
640 10-06-2014 05:15:00 16 C 12.4 g/m*3 16 C 0 km/h
641 10-06-2014 05:20:00 15.9 C 12.32 g/m*3 15.9 C 0 km/h
642 10-06-2014 05:25:00 15.9 C 12.32 g/m*3 15.9 C 0 km/h
643 10-06-2014 05:30:00 15.9 C 12.32 g/m*3 15.9 C 0 km/h
644 10-06-2014 05:35:00 15.9 C 12.32 g/m*3 15.9 C 0 km/h
645 10-06-2014 05:40:00 16 C 12.4 g/m*3 16 C 0 km/h
646 10-06-2014 05:45:00 16.1 C 12.61 g/m*3 16.1 C 0 km/h
647 10-06-2014 05:50:00 16.1 C 12.47 g/m*3 16.1 C 1.6 km/h
648 10-06-2014 05:55:00 16.3 C 12.62 g/m*3 16.3 C 6.4 km/h
649 10-06-2014 06:00:00 16.4 C 12.56 g/m*3 16.4 C 6.4 km/h
650 10-06-2014 06:05:00 16.5 C 12.64 g/m*3 16.5 C 1.6 km/h
Sensor: Nr:Datum:Temp:Abs-Feuchte:Windchill:Wind:
Aussen-T/F 651 10-06-2014 06:10:00 16.6 C 12.71 g/m*3 16.6 C 6.4 km/h
652 10-06-2014 06:15:00 16.7 C 12.79 g/m*3 16.7 C 1.6 km/h
653 10-06-2014 06:20:00 16.6 C 12.71 g/m*3 16.6 C 0 km/h
654 10-06-2014 06:25:00 16.7 C 12.79 g/m*3 16.7 C 0 km/h
655 10-06-2014 06:30:00 16.6 C 12.71 g/m*3 16.6 C 0 km/h
656 10-06-2014 06:35:00 16.7 C 12.65 g/m*3 16.7 C 1.6 km/h
657 10-06-2014 06:40:00 16.7 C 12.65 g/m*3 16.7 C 1.6 km/h
658 10-06-2014 06:45:00 16.8 C 12.72 g/m*3 16.8 C 4.8 km/h
659 10-06-2014 06:50:00 16.8 C 12.87 g/m*3 16.8 C 0 km/h
660 10-06-2014 06:55:00 16.8 C 12.87 g/m*3 16.8 C 0 km/h
661 10-06-2014 07:00:00 16.8 C 12.87 g/m*3 16.8 C 4.8 km/h
662 10-06-2014 07:05:00 16.8 C 12.87 g/m*3 16.8 C 4.8 km/h
663 10-06-2014 07:10:00 17.3 C 13.11 g/m*3 17.3 C 1.6 km/h
664 10-06-2014 07:15:00 17.6 C 13.35 g/m*3 17.6 C 4.8 km/h
665 10-06-2014 07:20:00 17.7 C 13.28 g/m*3 17.7 C 3.2 km/h
666 10-06-2014 07:25:00 18 C 13.36 g/m*3 18 C 4.8 km/h
667 10-06-2014 07:30:00 18.3 C 13.6 g/m*3 18.3 C 0 km/h
668 10-06-2014 07:35:00 18.4 C 13.68 g/m*3 18.4 C 0 km/h
669 10-06-2014 07:40:00 18.6 C 13.69 g/m*3 18.6 C 1.6 km/h
670 10-06-2014 07:45:00 18.7 C 13.77 g/m*3 18.7 C 0 km/h
671 10-06-2014 07:50:00 18.8 C 13.53 g/m*3 18.8 C 0 km/h
672 10-06-2014 07:55:00 18.9 C 13.93 g/m*3 18.9 C 0 km/h
673 10-06-2014 08:00:00 18.9 C 13.61 g/m*3 18.9 C 0 km/h
674 10-06-2014 08:05:00 19.1 C 13.93 g/m*3 19.1 C 0 km/h
675 10-06-2014 08:10:00 19.2 C 14.02 g/m*3 19.2 C 0 km/h
Sensor: Nr:Datum:Temp:Abs-Feuchte:Windchill:Wind:
Aussen-T/F 676 10-06-2014 08:15:00 19.4 C 14.01 g/m*3 19.4 C 0 km/h
677 10-06-2014 08:20:00 19.6 C 14.18 g/m*3 19.6 C 0 km/h
678 10-06-2014 08:25:00 19.8 C 14.35 g/m*3 19.8 C 0 km/h
679 10-06-2014 08:30:00 19.9 C 14.43 g/m*3 19.9 C 1.6 km/h
680 10-06-2014 08:35:00 20.1 C 14.25 g/m*3 20.1 C 0 km/h
681 10-06-2014 08:40:00 20.4 C 14.51 g/m*3 20.4 C 0 km/h
682 10-06-2014 08:45:00 20.7 C 14.58 g/m*3 20.7 C 0 km/h
683 10-06-2014 08:50:00 21 C 14.65 g/m*3 21 C 0 km/h
684 10-06-2014 08:55:00 21.2 C 14.83 g/m*3 21.2 C 0 km/h
685 10-06-2014 09:00:00 21.2 C 14.64 g/m*3 21.2 C 0 km/h
686 10-06-2014 09:05:00 21.3 C 14.35 g/m*3 21.3 C 0 km/h
687 10-06-2014 09:10:00 21.3 C 14.73 g/m*3 21.3 C 0 km/h
688 10-06-2014 09:15:00 21.3 C 14.54 g/m*3 21.3 C 0 km/h
689 10-06-2014 09:20:00 21.1 C 14.56 g/m*3 21.1 C 0 km/h
690 10-06-2014 09:25:00 20.8 C 14.67 g/m*3 20.8 C 0 km/h
691 10-06-2014 09:30:00 20.8 C 14.67 g/m*3 20.8 C 0 km/h
692 10-06-2014 09:35:00 21 C 14.65 g/m*3 21 C 3.2 km/h
693 10-06-2014 09:40:00 21.4 C 13.87 g/m*3 21.4 C 3.2 km/h
694 10-06-2014 09:45:00 21.8 C 14.01 g/m*3 21.8 C 1.6 km/h
695 10-06-2014 09:50:00 21.8 C 14.58 g/m*3 21.8 C 0 km/h
696 10-06-2014 09:55:00 21.6 C 14.79 g/m*3 21.6 C 0 km/h
697 10-06-2014 10:00:00 21.4 C 15 g/m*3 21.4 C 0 km/h
698 10-06-2014 10:05:00 21.7 C 15.26 g/m*3 21.7 C 0 km/h
699 10-06-2014 10:10:00 22.2 C 14.53 g/m*3 22.2 C 0 km/h
700 10-06-2014 10:15:00 22.6 C 15.27 g/m*3 22.6 C 1.6 km/h
Sensor: Nr:Datum:Temp:Abs-Feuchte:Windchill:Wind:
Aussen-T/F 701 10-06-2014 10:20:00 23.1 C 14.06 g/m*3 23.1 C 1.6 km/h
702 10-06-2014 10:25:00 23.7 C 14.33 g/m*3 23.7 C 1.6 km/h
703 10-06-2014 10:30:00 24.2 C 14.3 g/m*3 24.2 C 3.2 km/h
704 10-06-2014 10:35:00 24.6 C 14.4 g/m*3 24.6 C 4.8 km/h
705 10-06-2014 10:40:00 25 C 14.27 g/m*3 25 C 6.4 km/h
706 10-06-2014 10:45:00 25.4 C 14.36 g/m*3 25.4 C 8.1 km/h
707 10-06-2014 10:50:00 25.7 C 14.36 g/m*3 25.7 C 11.3 km/h
708 10-06-2014 10:55:00 25.9 C 14.04 g/m*3 25.9 C 6.4 km/h
709 10-06-2014 11:00:00 26 C 14.12 g/m*3 26 C 4.8 km/h
710 10-06-2014 11:05:00 25.9 C 14.04 g/m*3 25.9 C 3.2 km/h
711 10-06-2014 11:10:00 25.9 C 14.28 g/m*3 25.9 C 1.6 km/h
712 10-06-2014 11:15:00 25.8 C 14.69 g/m*3 25.8 C 1.6 km/h
713 10-06-2014 11:20:00 25.6 C 15.24 g/m*3 25.6 C 0 km/h
714 10-06-2014 11:25:00 25.2 C 15.83 g/m*3 25.2 C 0 km/h
715 10-06-2014 11:30:00 24.7 C 16.07 g/m*3 24.7 C 0 km/h
716 10-06-2014 11:35:00 24.3 C 15.93 g/m*3 24.3 C 0 km/h
717 10-06-2014 11:40:00 24.2 C 16.06 g/m*3 24.2 C 0 km/h
718 10-06-2014 11:45:00 24.4 C 15.58 g/m*3 24.4 C 0 km/h
719 10-06-2014 11:50:00 24.8 C 15.25 g/m*3 24.8 C 0 km/h
720 10-06-2014 11:55:00 25.2 C 16.06 g/m*3 25.2 C 1.6 km/h
721 10-06-2014 12:00:00 25 C 15.88 g/m*3 25 C 0 km/h
722 10-06-2014 12:05:00 25.1 C 16.2 g/m*3 25.1 C 3.2 km/h
723 10-06-2014 12:10:00 25.8 C 16.37 g/m*3 25.8 C 6.4 km/h
724 10-06-2014 12:15:00 26.7 C 15.69 g/m*3 26.7 C 11.3 km/h
725 10-06-2014 12:20:00 27.2 C 15.61 g/m*3 27.2 C 9.7 km/h
Sensor: Nr:Datum:Temp:Abs-Feuchte:Windchill:Wind:
Aussen-T/F 726 10-06-2014 12:25:00 27.6 C 16.49 g/m*3 27.6 C 9.7 km/h
727 10-06-2014 12:30:00 27.9 C 16.5 g/m*3 27.9 C 9.7 km/h
728 10-06-2014 12:35:00 28.1 C 16.13 g/m*3 28.1 C 11.3 km/h
729 10-06-2014 12:40:00 28.4 C 15.84 g/m*3 28.4 C 9.7 km/h
730 10-06-2014 12:45:00 28.7 C 16.11 g/m*3 28.7 C 11.3 km/h
731 10-06-2014 12:50:00 28.7 C 15.82 g/m*3 28.7 C 11.3 km/h
732 10-06-2014 12:55:00 28.9 C 16.85 g/m*3 28.9 C 11.3 km/h
733 10-06-2014 13:00:00 29.2 C 15.97 g/m*3 29.2 C 8.1 km/h
734 10-06-2014 13:05:00 29.4 C 16.44 g/m*3 29.4 C 8.1 km/h
735 10-06-2014 13:10:00 29.8 C 16.2 g/m*3 29.8 C 6.4 km/h
736 10-06-2014 13:15:00 30.2 C 16.86 g/m*3 30.2 C 6.4 km/h
737 10-06-2014 13:20:00 30.3 C 16.33 g/m*3 30.3 C 4.8 km/h
738 10-06-2014 13:25:00 30.7 C 16.69 g/m*3 30.7 C 6.4 km/h
739 10-06-2014 13:30:00 30.7 C 17.01 g/m*3 30.7 C 4.8 km/h
740 10-06-2014 13:35:00 30.6 C 16.6 g/m*3 30.6 C 3.2 km/h
741 10-06-2014 13:40:00 30.5 C 15.89 g/m*3 30.5 C 8.1 km/h
742 10-06-2014 13:45:00 30.6 C 16.29 g/m*3 30.6 C 4.8 km/h
743 10-06-2014 13:50:00 30.6 C 16.6 g/m*3 30.6 C 8.1 km/h
744 10-06-2014 13:55:00 30.7 C 16.06 g/m*3 30.7 C 8.1 km/h
745 10-06-2014 14:00:00 31.1 C 16.73 g/m*3 31.1 C 3.2 km/h
746 10-06-2014 14:05:00 31.3 C 16.91 g/m*3 31.3 C 4.8 km/h
747 10-06-2014 14:10:00 31.4 C 16.67 g/m*3 31.4 C 4.8 km/h
748 10-06-2014 14:15:00 31.4 C 16.35 g/m*3 31.4 C 6.4 km/h
749 10-06-2014 14:20:00 31.6 C 16.19 g/m*3 31.6 C 1.6 km/h
750 10-06-2014 14:25:00 31.7 C 15.95 g/m*3 31.7 C 4.8 km/h
Sensor: Nr:Datum:Temp:Abs-Feuchte:Windchill:Wind:
Aussen-T/F 751 10-06-2014 14:30:00 31.8 C 16.7 g/m*3 31.8 C 3.2 km/h
752 10-06-2014 14:35:00 32.2 C 16.04 g/m*3 32.2 C 3.2 km/h
753 10-06-2014 14:40:00 32.4 C 16.21 g/m*3 32.4 C 3.2 km/h
754 10-06-2014 14:45:00 32.2 C 15.7 g/m*3 32.2 C 4.8 km/h
755 10-06-2014 14:50:00 32.1 C 16.97 g/m*3 32.1 C 4.8 km/h
756 10-06-2014 14:55:00 32.3 C 15.78 g/m*3 32.3 C 6.4 km/h
757 10-06-2014 15:00:00 32.4 C 16.21 g/m*3 32.4 C 3.2 km/h
758 10-06-2014 15:05:00 32.7 C 15.42 g/m*3 32.7 C 4.8 km/h
759 10-06-2014 15:10:00 32.9 C 15.58 g/m*3 32.9 C 4.8 km/h
760 10-06-2014 15:15:00 33.1 C 15.39 g/m*3 33.1 C 4.8 km/h
761 10-06-2014 15:20:00 33.1 C 16.1 g/m*3 33.1 C 6.4 km/h
762 10-06-2014 15:25:00 33.1 C 15.39 g/m*3 33.1 C 6.4 km/h
763 10-06-2014 15:30:00 33.4 C 15.63 g/m*3 33.4 C 3.2 km/h
764 10-06-2014 15:35:00 33.6 C 15.43 g/m*3 33.6 C 4.8 km/h
765 10-06-2014 15:40:00 33.8 C 15.59 g/m*3 33.8 C 4.8 km/h
766 10-06-2014 15:45:00 34 C 14.26 g/m*3 34 C 8.1 km/h
767 10-06-2014 15:50:00 33.9 C 14.18 g/m*3 33.9 C 9.7 km/h
768 10-06-2014 15:55:00 33.5 C 14.25 g/m*3 33.5 C 4.8 km/h
769 10-06-2014 16:00:00 33.3 C 13.74 g/m*3 33.3 C 1.6 km/h
770 10-06-2014 16:05:00 33.6 C 15.06 g/m*3 33.6 C 4.8 km/h
771 10-06-2014 16:10:00 33.8 C 14.48 g/m*3 33.8 C 4.8 km/h
772 10-06-2014 16:15:00 34 C 15.01 g/m*3 34 C 8.1 km/h
773 10-06-2014 16:20:00 34.3 C 14.1 g/m*3 34.3 C 4.8 km/h
774 10-06-2014 16:25:00 34.6 C 14.71 g/m*3 34.6 C 6.4 km/h
775 10-06-2014 16:30:00 34.2 C 14.41 g/m*3 34.2 C 6.4 km/h
Sensor: Nr:Datum:Temp:Abs-Feuchte:Windchill:Wind:
Aussen-T/F 776 10-06-2014 16:35:00 34.1 C 14.71 g/m*3 34.1 C 4.8 km/h
777 10-06-2014 16:40:00 34.1 C 14.33 g/m*3 34.1 C 8.1 km/h
778 10-06-2014 16:45:00 34.1 C 15.09 g/m*3 34.1 C 8.1 km/h
779 10-06-2014 16:50:00 34.1 C 14.71 g/m*3 34.1 C 3.2 km/h
780 10-06-2014 16:55:00 34.1 C 14.33 g/m*3 34.1 C 4.8 km/h
781 10-06-2014 17:00:00 34.4 C 13.79 g/m*3 34.4 C 8.1 km/h
782 10-06-2014 17:05:00 34.6 C 13.94 g/m*3 34.6 C 6.4 km/h
783 10-06-2014 17:10:00 35.1 C 13.11 g/m*3 35.1 C 6.4 km/h
784 10-06-2014 17:15:00 34.6 C 12.39 g/m*3 34.6 C 4.8 km/h
785 10-06-2014 17:20:00 33.9 C 14.93 g/m*3 33.9 C 4.8 km/h
786 10-06-2014 17:25:00 32.8 C 16.2 g/m*3 32.8 C 3.2 km/h
787 10-06-2014 17:30:00 31.5 C 16.44 g/m*3 31.5 C 1.6 km/h
788 10-06-2014 17:35:00 30.7 C 15.43 g/m*3 30.7 C 6.4 km/h
789 10-06-2014 17:40:00 30.6 C 15.03 g/m*3 30.6 C 4.8 km/h
790 10-06-2014 17:45:00 30.6 C 15.66 g/m*3 30.6 C 3.2 km/h
791 10-06-2014 17:50:00 30.1 C 14.63 g/m*3 30.1 C 29 km/h
792 10-06-2014 17:55:00 29.9 C 14.78 g/m*3 29.9 C 11.3 km/h
793 10-06-2014 18:00:00 30.1 C 15.85 g/m*3 30.1 C 8.1 km/h
794 10-06-2014 18:05:00 30.4 C 16.73 g/m*3 30.4 C 24.1 km/h
795 10-06-2014 18:10:00 30.6 C 16.29 g/m*3 30.6 C 16.1 km/h
796 10-06-2014 18:15:00 30.5 C 16.51 g/m*3 30.5 C 16.1 km/h
797 10-06-2014 18:20:00 30.4 C 16.42 g/m*3 30.4 C 16.1 km/h
798 10-06-2014 18:25:00 30.2 C 16.55 g/m*3 30.2 C 24.1 km/h
799 10-06-2014 18:30:00 30.3 C 15.72 g/m*3 30.3 C 19.3 km/h
800 10-06-2014 18:35:00 29.7 C 15.22 g/m*3 29.7 C 14.5 km/h
Sensor: Nr:Datum:Temp:Abs-Feuchte:Windchill:Wind:
Aussen-T/F 801 10-06-2014 18:40:00 29.2 C 15.39 g/m*3 29.2 C 14.5 km/h
802 10-06-2014 18:45:00 28.9 C 15.43 g/m*3 28.9 C 12.9 km/h
803 10-06-2014 18:50:00 28.8 C 14.49 g/m*3 28.8 C 12.9 km/h
804 10-06-2014 18:55:00 28.6 C 14.33 g/m*3 28.6 C 11.3 km/h
805 10-06-2014 19:00:00 28.3 C 15.2 g/m*3 28.3 C 6.4 km/h
806 10-06-2014 19:05:00 27.9 C 14.87 g/m*3 27.9 C 9.7 km/h
807 10-06-2014 19:10:00 27.8 C 15.33 g/m*3 27.8 C 6.4 km/h
808 10-06-2014 19:15:00 27.8 C 15.6 g/m*3 27.8 C 4.8 km/h
809 10-06-2014 19:20:00 27.8 C 15.87 g/m*3 27.8 C 3.2 km/h
810 10-06-2014 19:25:00 27.7 C 16.05 g/m*3 27.7 C 8.1 km/h
811 10-06-2014 19:30:00 27.9 C 15.96 g/m*3 27.9 C 16.1 km/h
812 10-06-2014 19:35:00 27.9 C 15.69 g/m*3 27.9 C 19.3 km/h
813 10-06-2014 19:40:00 27.8 C 15.33 g/m*3 27.8 C 14.5 km/h
814 10-06-2014 19:45:00 27.7 C 15.78 g/m*3 27.7 C 9.7 km/h
815 10-06-2014 19:50:00 27.8 C 15.6 g/m*3 27.8 C 8.1 km/h
816 10-06-2014 19:55:00 27.7 C 15.51 g/m*3 27.7 C 11.3 km/h
817 10-06-2014 20:00:00 27.4 C 15.52 g/m*3 27.4 C 9.7 km/h
818 10-06-2014 20:05:00 27.2 C 15.35 g/m*3 27.2 C 6.4 km/h
819 10-06-2014 20:10:00 26.8 C 15.27 g/m*3 26.8 C 12.9 km/h
820 10-06-2014 20:15:00 26.7 C 15.44 g/m*3 26.7 C 9.7 km/h
821 10-06-2014 20:20:00 26.5 C 15.52 g/m*3 26.5 C 11.3 km/h
822 10-06-2014 20:25:00 26.4 C 15.43 g/m*3 26.4 C 4.8 km/h
823 10-06-2014 20:30:00 26.3 C 15.6 g/m*3 26.3 C 8.1 km/h
824 10-06-2014 20:35:00 26.2 C 15.51 g/m*3 26.2 C 6.4 km/h
825 10-06-2014 20:40:00 26.1 C 15.67 g/m*3 26.1 C 6.4 km/h
Sensor: Nr:Datum:Temp:Abs-Feuchte:Windchill:Wind:
Aussen-T/F 826 10-06-2014 20:45:00 25.9 C 16.46 g/m*3 25.9 C 4.8 km/h
827 10-06-2014 20:50:00 25.7 C 16.52 g/m*3 25.7 C 1.6 km/h
828 10-06-2014 20:55:00 25.2 C 16.99 g/m*3 25.2 C 4.8 km/h
829 10-06-2014 21:00:00 24.6 C 16.66 g/m*3 24.6 C 3.2 km/h
830 10-06-2014 21:05:00 24.4 C 16.02 g/m*3 24.4 C 8.1 km/h
831 10-06-2014 21:10:00 24.4 C 16.69 g/m*3 24.4 C 6.4 km/h
832 10-06-2014 21:15:00 24.2 C 16.28 g/m*3 24.2 C 6.4 km/h
833 10-06-2014 21:20:00 24.1 C 16.85 g/m*3 24.1 C 4.8 km/h
834 10-06-2014 21:25:00 23.9 C 16.66 g/m*3 23.9 C 3.2 km/h
835 10-06-2014 21:30:00 23.7 C 16.68 g/m*3 23.7 C 1.6 km/h
836 10-06-2014 21:35:00 23.5 C 16.5 g/m*3 23.5 C 0 km/h
837 10-06-2014 21:40:00 23.4 C 16.61 g/m*3 23.4 C 1.6 km/h
838 10-06-2014 21:45:00 23.3 C 16.52 g/m*3 23.3 C 1.6 km/h
839 10-06-2014 21:50:00 23.3 C 16.52 g/m*3 23.3 C 0 km/h
840 10-06-2014 21:55:00 23.1 C 16.54 g/m*3 23.1 C 0 km/h
841 10-06-2014 22:00:00 23 C 16.44 g/m*3 23 C 0 km/h
842 10-06-2014 22:05:00 22.8 C 16.26 g/m*3 22.8 C 1.6 km/h
843 10-06-2014 22:10:00 22.7 C 16.37 g/m*3 22.7 C 1.6 km/h
844 10-06-2014 22:15:00 22.6 C 16.27 g/m*3 22.6 C 1.6 km/h
845 10-06-2014 22:20:00 22.4 C 16.09 g/m*3 22.4 C 1.6 km/h
846 10-06-2014 22:25:00 22.3 C 15.99 g/m*3 22.3 C 0 km/h
847 10-06-2014 22:30:00 22.2 C 15.9 g/m*3 22.2 C 0 km/h
848 10-06-2014 22:35:00 22.1 C 15.81 g/m*3 22.1 C 0 km/h
849 10-06-2014 22:40:00 22.1 C 15.81 g/m*3 22.1 C 1.6 km/h
850 10-06-2014 22:45:00 22.1 C 15.81 g/m*3 22.1 C 0 km/h
Sensor: Nr:Datum:Temp:Abs-Feuchte:Windchill:Wind:
Aussen-T/F 851 10-06-2014 22:50:00 22.1 C 15.81 g/m*3 22.1 C 0 km/h
852 10-06-2014 22:55:00 22 C 15.91 g/m*3 22 C 0 km/h
853 10-06-2014 23:00:00 21.9 C 15.82 g/m*3 21.9 C 0 km/h
854 10-06-2014 23:05:00 21.8 C 15.73 g/m*3 21.8 C 0 km/h
855 10-06-2014 23:10:00 21.8 C 15.73 g/m*3 21.8 C 0 km/h
856 10-06-2014 23:15:00 21.7 C 15.64 g/m*3 21.7 C 0 km/h
857 10-06-2014 23:20:00 21.6 C 15.74 g/m*3 21.6 C 0 km/h
858 10-06-2014 23:25:00 21.4 C 15.75 g/m*3 21.4 C 0 km/h
859 10-06-2014 23:30:00 21.4 C 15.75 g/m*3 21.4 C 0 km/h
860 10-06-2014 23:35:00 21.3 C 15.66 g/m*3 21.3 C 0 km/h
861 10-06-2014 23:40:00 21.2 C 15.57 g/m*3 21.2 C 0 km/h
862 10-06-2014 23:45:00 21.2 C 15.75 g/m*3 21.2 C 0 km/h
863 10-06-2014 23:50:00 21.2 C 15.75 g/m*3 21.2 C 0 km/h
864 10-06-2014 23:55:00 21.1 C 15.66 g/m*3 21.1 C 0 km/h
865 11-06-2014 00:00:00 20.9 C 15.48 g/m*3 20.9 C 0 km/h
866 11-06-2014 00:05:00 20.7 C 15.48 g/m*3 20.7 C 0 km/h
867 11-06-2014 00:10:00 20.6 C 15.57 g/m*3 20.6 C 0 km/h
868 11-06-2014 00:15:00 20.5 C 15.48 g/m*3 20.5 C 0 km/h
869 11-06-2014 00:20:00 20.4 C 15.57 g/m*3 20.4 C 0 km/h
870 11-06-2014 00:25:00 20.4 C 15.57 g/m*3 20.4 C 0 km/h
871 11-06-2014 00:30:00 20.3 C 15.48 g/m*3 20.3 C 0 km/h
872 11-06-2014 00:35:00 20.3 C 15.65 g/m*3 20.3 C 0 km/h
873 11-06-2014 00:40:00 20.2 C 15.56 g/m*3 20.2 C 0 km/h
874 11-06-2014 00:45:00 20.1 C 15.47 g/m*3 20.1 C 0 km/h
875 11-06-2014 00:50:00 20 C 15.38 g/m*3 20 C 0 km/h
Sensor: Nr:Datum:Temp:Abs-Feuchte:Windchill:Wind:
Aussen-T/F 876 11-06-2014 00:55:00 19.9 C 15.46 g/m*3 19.9 C 0 km/h
877 11-06-2014 01:00:00 19.9 C 15.46 g/m*3 19.9 C 0 km/h
878 11-06-2014 01:05:00 19.9 C 15.46 g/m*3 19.9 C 0 km/h
879 11-06-2014 01:10:00 19.8 C 15.37 g/m*3 19.8 C 0 km/h
880 11-06-2014 01:15:00 19.8 C 15.54 g/m*3 19.8 C 0 km/h
881 11-06-2014 01:20:00 19.8 C 15.54 g/m*3 19.8 C 0 km/h
882 11-06-2014 01:25:00 19.7 C 15.28 g/m*3 19.7 C 0 km/h
883 11-06-2014 01:30:00 19.7 C 15.45 g/m*3 19.7 C 0 km/h
884 11-06-2014 01:35:00 19.6 C 15.36 g/m*3 19.6 C 0 km/h
885 11-06-2014 01:40:00 19.6 C 15.36 g/m*3 19.6 C 0 km/h
886 11-06-2014 01:45:00 19.5 C 15.27 g/m*3 19.5 C 0 km/h
887 11-06-2014 01:50:00 19.5 C 15.44 g/m*3 19.5 C 0 km/h
888 11-06-2014 01:55:00 19.4 C 15.35 g/m*3 19.4 C 0 km/h
889 11-06-2014 02:00:00 19.4 C 15.35 g/m*3 19.4 C 0 km/h
890 11-06-2014 02:05:00 19.4 C 15.35 g/m*3 19.4 C 3.2 km/h
891 11-06-2014 02:10:00 19.6 C 15.36 g/m*3 19.6 C 3.2 km/h
892 11-06-2014 02:15:00 19.8 C 15.37 g/m*3 19.8 C 4.8 km/h
893 11-06-2014 02:20:00 20.2 C 15.39 g/m*3 20.2 C 6.4 km/h
894 11-06-2014 02:25:00 20.4 C 15.39 g/m*3 20.4 C 1.6 km/h
895 11-06-2014 02:30:00 20.5 C 15.48 g/m*3 20.5 C 4.8 km/h
896 11-06-2014 02:35:00 20.7 C 15.48 g/m*3 20.7 C 8.1 km/h
897 11-06-2014 02:40:00 20.7 C 15.3 g/m*3 20.7 C 9.7 km/h
898 11-06-2014 02:45:00 20.7 C 15.3 g/m*3 20.7 C 14.5 km/h
899 11-06-2014 02:50:00 20.6 C 15.21 g/m*3 20.6 C 11.3 km/h
900 11-06-2014 02:55:00 20.6 C 15.03 g/m*3 20.6 C 6.4 km/h
Sensor: Nr:Datum:Temp:Abs-Feuchte:Windchill:Wind:
Aussen-T/F 901 11-06-2014 03:00:00 20.5 C 14.95 g/m*3 20.5 C 6.4 km/h
902 11-06-2014 03:05:00 20.4 C 14.86 g/m*3 20.4 C 4.8 km/h
903 11-06-2014 03:10:00 20.3 C 14.77 g/m*3 20.3 C 1.6 km/h
904 11-06-2014 03:15:00 20.2 C 14.69 g/m*3 20.2 C 3.2 km/h
905 11-06-2014 03:20:00 20.2 C 14.69 g/m*3 20.2 C 1.6 km/h
906 11-06-2014 03:25:00 20.1 C 14.6 g/m*3 20.1 C 4.8 km/h
907 11-06-2014 03:30:00 20.2 C 14.69 g/m*3 20.2 C 3.2 km/h
908 11-06-2014 03:35:00 20.2 C 14.69 g/m*3 20.2 C 0 km/h
909 11-06-2014 03:40:00 20.2 C 14.69 g/m*3 20.2 C 1.6 km/h
910 11-06-2014 03:45:00 20.1 C 14.6 g/m*3 20.1 C 3.2 km/h
911 11-06-2014 03:50:00 20.1 C 14.43 g/m*3 20.1 C 1.6 km/h
912 11-06-2014 03:55:00 20.2 C 14.51 g/m*3 20.2 C 1.6 km/h
913 11-06-2014 04:00:00 20.2 C 14.51 g/m*3 20.2 C 0 km/h
914 11-06-2014 04:05:00 20.2 C 14.86 g/m*3 20.2 C 1.6 km/h
915 11-06-2014 04:10:00 20.1 C 14.95 g/m*3 20.1 C 0 km/h
916 11-06-2014 04:15:00 19.8 C 14.69 g/m*3 19.8 C 0 km/h
917 11-06-2014 04:20:00 19.8 C 14.69 g/m*3 19.8 C 0 km/h
918 11-06-2014 05:20:00 18.4 C 14.63 g/m*3 18.4 C 12.9 km/h
919 11-06-2014 05:25:00 18.8 C 14.82 g/m*3 18.8 C 14.5 km/h
920 11-06-2014 05:30:00 18.9 C 14.74 g/m*3 18.9 C 9.7 km/h
921 11-06-2014 05:35:00 19.1 C 14.75 g/m*3 19.1 C 9.7 km/h
922 11-06-2014 05:40:00 19.1 C 14.75 g/m*3 19.1 C 8.1 km/h
923 11-06-2014 05:45:00 19.1 C 14.75 g/m*3 19.1 C 6.4 km/h
924 11-06-2014 05:50:00 18.7 C 14.57 g/m*3 18.7 C 17.7 km/h
925 11-06-2014 05:55:00 18.7 C 14.57 g/m*3 18.7 C 8.1 km/h
Sensor: Nr:Datum:Temp:Abs-Feuchte:Windchill:Wind:
Aussen-T/F 926 11-06-2014 06:00:00 18.4 C 14.47 g/m*3 18.4 C 8.1 km/h
927 11-06-2014 06:05:00 18.3 C 14.38 g/m*3 18.3 C 4.8 km/h
928 11-06-2014 06:10:00 18.1 C 14.37 g/m*3 18.1 C 3.2 km/h
929 11-06-2014 06:15:00 18 C 14.44 g/m*3 18 C 1.6 km/h
930 11-06-2014 06:20:00 17.9 C 14.35 g/m*3 17.9 C 0 km/h
931 11-06-2014 06:25:00 17.9 C 14.35 g/m*3 17.9 C 0 km/h
932 11-06-2014 06:30:00 17.9 C 14.5 g/m*3 17.9 C 1.6 km/h
933 11-06-2014 06:35:00 17.9 C 14.5 g/m*3 17.9 C 0 km/h
934 11-06-2014 06:40:00 17.8 C 14.42 g/m*3 17.8 C 0 km/h
935 11-06-2014 06:45:00 17.9 C 14.5 g/m*3 17.9 C 0 km/h
936 11-06-2014 06:50:00 17.9 C 14.5 g/m*3 17.9 C 0 km/h
937 11-06-2014 06:55:00 17.9 C 14.5 g/m*3 17.9 C 0 km/h
938 11-06-2014 07:00:00 17.8 C 14.42 g/m*3 17.8 C 0 km/h
939 11-06-2014 07:05:00 17.8 C 14.42 g/m*3 17.8 C 0 km/h
940 11-06-2014 07:10:00 17.8 C 14.57 g/m*3 17.8 C 0 km/h
941 11-06-2014 07:15:00 17.8 C 14.57 g/m*3 17.8 C 0 km/h
942 11-06-2014 07:20:00 17.8 C 14.57 g/m*3 17.8 C 0 km/h
943 11-06-2014 07:40:00 17.9 C 14.66 g/m*3 17.9 C 0 km/h
944 11-06-2014 07:45:00 17.9 C 14.66 g/m*3 17.9 C 1.6 km/h
945 11-06-2014 07:50:00 17.8 C 14.57 g/m*3 17.8 C 0 km/h
946 11-06-2014 07:55:00 17.9 C 14.66 g/m*3 17.9 C 0 km/h
947 11-06-2014 08:00:00 17.9 C 14.66 g/m*3 17.9 C 0 km/h
948 11-06-2014 08:05:00 18 C 14.9 g/m*3 18 C 0 km/h
949 11-06-2014 08:10:00 18 C 14.9 g/m*3 18 C 1.6 km/h
950 11-06-2014 08:15:00 18.1 C 14.99 g/m*3 18.1 C 3.2 km/h
Sensor: Nr:Datum:Temp:Abs-Feuchte:Windchill:Wind:
Aussen-T/F 951 11-06-2014 08:20:00 18.1 C 14.99 g/m*3 18.1 C 0 km/h
952 11-06-2014 08:25:00 18.1 C 14.99 g/m*3 18.1 C 1.6 km/h
953 11-06-2014 08:30:00 18.2 C 15.08 g/m*3 18.2 C 1.6 km/h
954 11-06-2014 08:35:00 18.3 C 15.01 g/m*3 18.3 C 1.6 km/h
955 11-06-2014 08:40:00 18.3 C 15.01 g/m*3 18.3 C 1.6 km/h
956 11-06-2014 08:45:00 18.6 C 15.44 g/m*3 18.6 C 1.6 km/h
957 11-06-2014 08:50:00 18.8 C 15.62 g/m*3 18.8 C 3.2 km/h
958 11-06-2014 08:55:00 19 C 15.81 g/m*3 19 C 3.2 km/h
959 11-06-2014 09:00:00 18.9 C 15.55 g/m*3 18.9 C 0 km/h
960 11-06-2014 09:05:00 19 C 15.64 g/m*3 19 C 1.6 km/h
961 11-06-2014 09:10:00 19 C 15.64 g/m*3 19 C 3.2 km/h
962 11-06-2014 09:15:00 19.1 C 15.74 g/m*3 19.1 C 0 km/h
963 11-06-2014 09:20:00 19.1 C 15.41 g/m*3 19.1 C 3.2 km/h
964 11-06-2014 09:25:00 19.1 C 15.41 g/m*3 19.1 C 1.6 km/h
965 11-06-2014 09:30:00 19.3 C 15.76 g/m*3 19.3 C 3.2 km/h
966 11-06-2014 09:35:00 19.3 C 15.59 g/m*3 19.3 C 8.1 km/h
967 11-06-2014 09:40:00 19.4 C 15.52 g/m*3 19.4 C 6.4 km/h
968 11-06-2014 09:45:00 19.6 C 15.7 g/m*3 19.6 C 9.7 km/h
969 11-06-2014 09:50:00 19.6 C 15.36 g/m*3 19.6 C 6.4 km/h
970 11-06-2014 09:55:00 19.6 C 15.19 g/m*3 19.6 C 3.2 km/h
971 11-06-2014 10:00:00 19.6 C 15.19 g/m*3 19.6 C 1.6 km/h
972 11-06-2014 10:05:00 19.6 C 15.36 g/m*3 19.6 C 11.3 km/h
973 11-06-2014 10:10:00 19.2 C 14.68 g/m*3 19.2 C 12.9 km/h
974 11-06-2014 10:15:00 18.8 C 14.33 g/m*3 18.8 C 17.7 km/h
975 11-06-2014 10:20:00 18.3 C 13.92 g/m*3 18.3 C 14.5 km/h
Sensor: Nr:Datum:Temp:Abs-Feuchte:Windchill:Wind:
Aussen-T/F 976 11-06-2014 10:25:00 18.2 C 13.99 g/m*3 18.2 C 12.9 km/h
977 11-06-2014 10:30:00 18 C 13.82 g/m*3 18 C 11.3 km/h
978 11-06-2014 10:35:00 18 C 13.82 g/m*3 18 C 14.5 km/h
979 11-06-2014 10:40:00 17.9 C 13.74 g/m*3 17.9 C 12.9 km/h
980 11-06-2014 10:45:00 17.9 C 13.89 g/m*3 17.9 C 11.3 km/h
981 11-06-2014 10:50:00 17.9 C 13.59 g/m*3 17.9 C 17.7 km/h
982 11-06-2014 10:55:00 17.8 C 13.66 g/m*3 17.8 C 14.5 km/h
983 11-06-2014 11:00:00 17.8 C 13.66 g/m*3 17.8 C 9.7 km/h
984 11-06-2014 11:05:00 17.8 C 13.51 g/m*3 17.8 C 14.5 km/h
985 11-06-2014 11:10:00 17.8 C 13.51 g/m*3 17.8 C 8.1 km/h
986 11-06-2014 11:15:00 17.8 C 13.51 g/m*3 17.8 C 6.4 km/h
987 11-06-2014 11:20:00 17.8 C 13.66 g/m*3 17.8 C 17.7 km/h
988 11-06-2014 11:25:00 17.7 C 13.43 g/m*3 17.7 C 8.1 km/h
989 11-06-2014 11:30:00 17.7 C 13.43 g/m*3 17.7 C 14.5 km/h
990 11-06-2014 11:35:00 17.7 C 13.43 g/m*3 17.7 C 14.5 km/h
991 11-06-2014 11:40:00 17.7 C 13.43 g/m*3 17.7 C 14.5 km/h
992 11-06-2014 11:45:00 17.7 C 13.43 g/m*3 17.7 C 8.1 km/h
993 11-06-2014 11:50:00 17.8 C 13.51 g/m*3 17.8 C 6.4 km/h
994 11-06-2014 11:55:00 17.8 C 13.51 g/m*3 17.8 C 8.1 km/h
995 11-06-2014 12:00:00 17.8 C 13.51 g/m*3 17.8 C 8.1 km/h
996 11-06-2014 12:05:00 18.2 C 13.83 g/m*3 18.2 C 11.3 km/h
997 11-06-2014 12:10:00 18.3 C 13.92 g/m*3 18.3 C 8.1 km/h
998 11-06-2014 12:15:00 18.4 C 13.68 g/m*3 18.4 C 11.3 km/h
999 11-06-2014 12:20:00 18.5 C 13.45 g/m*3 18.5 C 9.7 km/h
1000 11-06-2014 12:25:00 18.6 C 13.85 g/m*3 18.6 C 9.7 km/h
Sensor: Nr:Datum:Temp:Abs-Feuchte:Windchill:Wind:
Aussen-T/F 1001 11-06-2014 12:30:00 18.7 C 13.61 g/m*3 18.7 C 12.9 km/h
1002 11-06-2014 12:35:00 18.9 C 13.77 g/m*3 18.9 C 9.7 km/h
1003 11-06-2014 12:40:00 18.9 C 13.61 g/m*3 18.9 C 8.1 km/h
1004 11-06-2014 12:45:00 18.9 C 13.61 g/m*3 18.9 C 11.3 km/h
1005 11-06-2014 12:50:00 19.1 C 13.93 g/m*3 19.1 C 6.4 km/h
1006 11-06-2014 12:55:00 19.2 C 13.69 g/m*3 19.2 C 8.1 km/h
1007 11-06-2014 13:00:00 19.2 C 13.85 g/m*3 19.2 C 16.1 km/h
1008 11-06-2014 13:05:00 19.3 C 13.6 g/m*3 19.3 C 9.7 km/h
1009 11-06-2014 13:10:00 19.3 C 13.44 g/m*3 19.3 C 11.3 km/h
1010 11-06-2014 13:15:00 19.3 C 13.6 g/m*3 19.3 C 4.8 km/h
1011 11-06-2014 13:20:00 19.4 C 13.68 g/m*3 19.4 C 6.4 km/h
1012 11-06-2014 13:25:00 19.4 C 13.68 g/m*3 19.4 C 9.7 km/h
1013 11-06-2014 13:30:00 19.4 C 13.85 g/m*3 19.4 C 6.4 km/h
1014 11-06-2014 13:35:00 19.6 C 13.84 g/m*3 19.6 C 6.4 km/h
1015 11-06-2014 13:40:00 19.6 C 13.84 g/m*3 19.6 C 4.8 km/h
1016 11-06-2014 13:45:00 19.7 C 14.09 g/m*3 19.7 C 4.8 km/h
1017 11-06-2014 13:50:00 19.9 C 14.26 g/m*3 19.9 C 6.4 km/h
1018 11-06-2014 13:55:00 20.2 C 14.34 g/m*3 20.2 C 6.4 km/h
1019 11-06-2014 14:00:00 20.3 C 14.25 g/m*3 20.3 C 9.7 km/h
1020 11-06-2014 14:05:00 20.4 C 14.33 g/m*3 20.4 C 6.4 km/h
1021 11-06-2014 14:10:00 20.5 C 14.41 g/m*3 20.5 C 8.1 km/h
1022 11-06-2014 14:15:00 20.6 C 14.32 g/m*3 20.6 C 6.4 km/h
1023 11-06-2014 14:20:00 20.6 C 14.32 g/m*3 20.6 C 4.8 km/h
1024 11-06-2014 14:25:00 20.7 C 14.22 g/m*3 20.7 C 8.1 km/h
1025 11-06-2014 14:30:00 20.7 C 14.22 g/m*3 20.7 C 4.8 km/h
Sensor: Nr:Datum:Temp:Abs-Feuchte:Windchill:Wind:
Aussen-T/F 1026 11-06-2014 14:35:00 20.7 C 14.58 g/m*3 20.7 C 11.3 km/h
1027 11-06-2014 14:40:00 20.7 C 14.22 g/m*3 20.7 C 9.7 km/h
1028 11-06-2014 14:45:00 20.9 C 14.57 g/m*3 20.9 C 9.7 km/h
1029 11-06-2014 14:50:00 21.1 C 14.19 g/m*3 21.1 C 8.1 km/h
1030 11-06-2014 14:55:00 21.2 C 14.27 g/m*3 21.2 C 4.8 km/h
1031 11-06-2014 15:00:00 21.3 C 14.35 g/m*3 21.3 C 8.1 km/h
1032 11-06-2014 15:05:00 21.4 C 14.44 g/m*3 21.4 C 8.1 km/h
1033 11-06-2014 15:10:00 21.5 C 14.52 g/m*3 21.5 C 8.1 km/h
1034 11-06-2014 15:15:00 21.6 C 14.22 g/m*3 21.6 C 4.8 km/h
1035 11-06-2014 15:20:00 21.7 C 14.31 g/m*3 21.7 C 6.4 km/h
1036 11-06-2014 15:25:00 21.9 C 14.47 g/m*3 21.9 C 8.1 km/h
1037 11-06-2014 15:30:00 22 C 14.17 g/m*3 22 C 6.4 km/h
1038 11-06-2014 15:35:00 22.2 C 14.14 g/m*3 22.2 C 6.4 km/h
1039 11-06-2014 15:40:00 22.2 C 14.33 g/m*3 22.2 C 8.1 km/h
1040 11-06-2014 15:45:00 22.2 C 14.33 g/m*3 22.2 C 4.8 km/h
1041 11-06-2014 15:50:00 22.1 C 14.05 g/m*3 22.1 C 3.2 km/h
1042 11-06-2014 15:55:00 22.1 C 14.25 g/m*3 22.1 C 3.2 km/h
1043 11-06-2014 16:00:00 22.5 C 14.78 g/m*3 22.5 C 8.1 km/h
1044 11-06-2014 16:05:00 22.9 C 14.31 g/m*3 22.9 C 8.1 km/h
1045 11-06-2014 16:10:00 23.1 C 14.68 g/m*3 23.1 C 4.8 km/h
1046 11-06-2014 16:15:00 23.1 C 14.47 g/m*3 23.1 C 4.8 km/h
1047 11-06-2014 16:20:00 23.1 C 14.47 g/m*3 23.1 C 8.1 km/h
1048 11-06-2014 16:25:00 23.2 C 14.34 g/m*3 23.2 C 4.8 km/h
1049 11-06-2014 16:30:00 23.3 C 14.64 g/m*3 23.3 C 6.4 km/h
1050 11-06-2014 16:35:00 23.1 C 14.06 g/m*3 23.1 C 4.8 km/h
Sensor: Nr:Datum:Temp:Abs-Feuchte:Windchill:Wind:
Aussen-T/F 1051 11-06-2014 16:40:00 23.3 C 14.43 g/m*3 23.3 C 9.7 km/h
1052 11-06-2014 16:45:00 23.8 C 14.63 g/m*3 23.8 C 8.1 km/h
1053 11-06-2014 16:50:00 24.1 C 14.66 g/m*3 24.1 C 11.3 km/h
1054 11-06-2014 16:55:00 24.1 C 14.66 g/m*3 24.1 C 6.4 km/h
1055 11-06-2014 17:00:00 24.3 C 14.16 g/m*3 24.3 C 3.2 km/h
1056 11-06-2014 17:05:00 24.4 C 14.69 g/m*3 24.4 C 6.4 km/h
1057 11-06-2014 17:10:00 24.4 C 14.02 g/m*3 24.4 C 12.9 km/h
1058 11-06-2014 17:15:00 24.3 C 14.61 g/m*3 24.3 C 6.4 km/h
1059 11-06-2014 17:20:00 24.2 C 13.86 g/m*3 24.2 C 8.1 km/h
1060 11-06-2014 17:25:00 24.3 C 13.94 g/m*3 24.3 C 8.1 km/h
1061 11-06-2014 17:30:00 24.3 C 13.72 g/m*3 24.3 C 6.4 km/h
1062 11-06-2014 17:35:00 24.3 C 13.94 g/m*3 24.3 C 6.4 km/h
1063 11-06-2014 17:40:00 24.2 C 13.86 g/m*3 24.2 C 8.1 km/h
1064 11-06-2014 17:45:00 24.1 C 14 g/m*3 24.1 C 11.3 km/h
1065 11-06-2014 17:50:00 23.9 C 14.06 g/m*3 23.9 C 9.7 km/h
1066 11-06-2014 17:55:00 24 C 13.92 g/m*3 24 C 6.4 km/h
1067 11-06-2014 18:00:00 24.2 C 13.42 g/m*3 24.2 C 9.7 km/h
1068 11-06-2014 18:05:00 24.2 C 13.42 g/m*3 24.2 C 11.3 km/h
1069 11-06-2014 18:10:00 24 C 13.71 g/m*3 24 C 9.7 km/h
1070 11-06-2014 18:15:00 24 C 13.05 g/m*3 24 C 8.1 km/h
1071 11-06-2014 18:20:00 24.2 C 12.76 g/m*3 24.2 C 6.4 km/h
1072 11-06-2014 18:25:00 24.4 C 12.91 g/m*3 24.4 C 9.7 km/h
1073 11-06-2014 18:30:00 24.4 C 13.35 g/m*3 24.4 C 9.7 km/h
1074 11-06-2014 18:35:00 24.7 C 13.81 g/m*3 24.7 C 9.7 km/h
1075 11-06-2014 18:40:00 24.8 C 12.75 g/m*3 24.8 C 6.4 km/h
Sensor: Nr:Datum:Temp:Abs-Feuchte:Windchill:Wind:
Aussen-T/F 1076 11-06-2014 18:45:00 24.7 C 13.35 g/m*3 24.7 C 9.7 km/h
1077 11-06-2014 18:50:00 24.6 C 13.05 g/m*3 24.6 C 8.1 km/h
1078 11-06-2014 18:55:00 24.7 C 12.9 g/m*3 24.7 C 9.7 km/h
1079 11-06-2014 19:00:00 24.8 C 12.75 g/m*3 24.8 C 9.7 km/h
1080 11-06-2014 19:05:00 24.7 C 12.9 g/m*3 24.7 C 9.7 km/h
1081 11-06-2014 19:10:00 24.8 C 12.97 g/m*3 24.8 C 11.3 km/h
1082 11-06-2014 19:15:00 24.8 C 12.97 g/m*3 24.8 C 8.1 km/h
1083 11-06-2014 19:20:00 24.6 C 12.6 g/m*3 24.6 C 9.7 km/h
1084 11-06-2014 19:25:00 24.3 C 12.17 g/m*3 24.3 C 8.1 km/h
1085 11-06-2014 19:30:00 24.1 C 12.03 g/m*3 24.1 C 9.7 km/h
1086 11-06-2014 19:35:00 23.8 C 11.83 g/m*3 23.8 C 9.7 km/h
1087 11-06-2014 19:40:00 23.6 C 12.12 g/m*3 23.6 C 9.7 km/h
1088 11-06-2014 19:45:00 23.3 C 12.13 g/m*3 23.3 C 11.3 km/h
1089 11-06-2014 19:50:00 23.1 C 11.58 g/m*3 23.1 C 9.7 km/h
1090 11-06-2014 19:55:00 22.9 C 11.04 g/m*3 22.9 C 11.3 km/h
1091 11-06-2014 20:00:00 22.7 C 11.31 g/m*3 22.7 C 8.1 km/h
1092 11-06-2014 20:05:00 22.7 C 11.52 g/m*3 22.7 C 11.3 km/h
1093 11-06-2014 20:10:00 22.6 C 11.25 g/m*3 22.6 C 8.1 km/h
1094 11-06-2014 20:15:00 22.4 C 11.12 g/m*3 22.4 C 8.1 km/h
1095 11-06-2014 20:20:00 22.3 C 11.45 g/m*3 22.3 C 8.1 km/h
1096 11-06-2014 20:25:00 22.2 C 11.19 g/m*3 22.2 C 9.7 km/h
1097 11-06-2014 20:30:00 22.1 C 11.32 g/m*3 22.1 C 6.4 km/h
1098 11-06-2014 20:35:00 22.1 C 11.32 g/m*3 22.1 C 4.8 km/h
1099 11-06-2014 20:40:00 22.1 C 11.32 g/m*3 22.1 C 3.2 km/h
1100 11-06-2014 20:45:00 22 C 11.45 g/m*3 22 C 3.2 km/h
Sensor: Nr:Datum:Temp:Abs-Feuchte:Windchill:Wind:
Aussen-T/F 1101 11-06-2014 20:50:00 21.9 C 11.39 g/m*3 21.9 C 3.2 km/h
1102 11-06-2014 20:55:00 21.8 C 12.66 g/m*3 21.8 C 1.6 km/h
1103 11-06-2014 21:00:00 21.4 C 11.81 g/m*3 21.4 C 4.8 km/h
1104 11-06-2014 21:05:00 21.2 C 12.23 g/m*3 21.2 C 3.2 km/h
1105 11-06-2014 21:10:00 20.9 C 12.2 g/m*3 20.9 C 0 km/h
1106 11-06-2014 21:15:00 20.6 C 12.53 g/m*3 20.6 C 1.6 km/h
1107 11-06-2014 21:20:00 20.2 C 12.59 g/m*3 20.2 C 0 km/h
1108 11-06-2014 21:25:00 19.8 C 12.81 g/m*3 19.8 C 1.6 km/h
1109 11-06-2014 21:30:00 19.4 C 12.68 g/m*3 19.4 C 0 km/h
1110 11-06-2014 21:35:00 19.1 C 12.62 g/m*3 19.1 C 0 km/h
1111 11-06-2014 21:40:00 18.8 C 12.56 g/m*3 18.8 C 0 km/h
1112 11-06-2014 21:45:00 18.7 C 12.65 g/m*3 18.7 C 0 km/h
1113 11-06-2014 21:50:00 18.5 C 12.82 g/m*3 18.5 C 0 km/h
1114 11-06-2014 21:55:00 18.3 C 12.98 g/m*3 18.3 C 1.6 km/h
1115 11-06-2014 22:00:00 18.2 C 12.75 g/m*3 18.2 C 1.6 km/h
1116 11-06-2014 22:05:00 17.9 C 12.52 g/m*3 17.9 C 0 km/h
1117 11-06-2014 22:10:00 17.8 C 12.45 g/m*3 17.8 C 0 km/h
1118 11-06-2014 22:15:00 17.7 C 12.52 g/m*3 17.7 C 0 km/h
1119 11-06-2014 22:20:00 17.5 C 12.52 g/m*3 17.5 C 0 km/h
1120 11-06-2014 22:25:00 17.4 C 12.6 g/m*3 17.4 C 1.6 km/h
1121 11-06-2014 22:30:00 17.3 C 12.52 g/m*3 17.3 C 0 km/h
1122 11-06-2014 22:35:00 17.2 C 12.45 g/m*3 17.2 C 0 km/h
1123 11-06-2014 22:40:00 17.1 C 12.52 g/m*3 17.1 C 1.6 km/h
1124 11-06-2014 22:45:00 16.9 C 12.37 g/m*3 16.9 C 0 km/h
1125 11-06-2014 22:50:00 16.9 C 12.37 g/m*3 16.9 C 1.6 km/h
Sensor: Nr:Datum:Temp:Abs-Feuchte:Windchill:Wind:
Aussen-T/F 1126 11-06-2014 22:55:00 16.8 C 12.3 g/m*3 16.8 C 0 km/h
1127 11-06-2014 23:00:00 16.8 C 12.3 g/m*3 16.8 C 1.6 km/h
1128 11-06-2014 23:05:00 16.8 C 12.44 g/m*3 16.8 C 1.6 km/h
1129 11-06-2014 23:10:00 16.7 C 12.36 g/m*3 16.7 C 0 km/h
1130 11-06-2014 23:15:00 16.7 C 12.36 g/m*3 16.7 C 0 km/h
1131 11-06-2014 23:20:00 16.7 C 12.36 g/m*3 16.7 C 0 km/h
1132 11-06-2014 23:25:00 16.6 C 12.29 g/m*3 16.6 C 0 km/h
1133 11-06-2014 23:30:00 16.6 C 12.29 g/m*3 16.6 C 0 km/h
1134 11-06-2014 23:35:00 16.5 C 12.36 g/m*3 16.5 C 0 km/h
1135 11-06-2014 23:40:00 16.4 C 12.28 g/m*3 16.4 C 0 km/h
1136 11-06-2014 23:45:00 16.4 C 12.28 g/m*3 16.4 C 1.6 km/h
1137 11-06-2014 23:50:00 16.4 C 12.28 g/m*3 16.4 C 0 km/h
1138 11-06-2014 23:55:00 16.3 C 12.21 g/m*3 16.3 C 0 km/h
1139 12-06-2014 00:00:00 16.3 C 12.21 g/m*3 16.3 C 0 km/h
1140 12-06-2014 00:05:00 16.3 C 12.07 g/m*3 16.3 C 0 km/h
1141 12-06-2014 00:10:00 16.3 C 12.07 g/m*3 16.3 C 0 km/h
1142 12-06-2014 00:15:00 16.3 C 12.07 g/m*3 16.3 C 0 km/h
1143 12-06-2014 00:20:00 16.2 C 12 g/m*3 16.2 C 1.6 km/h
1144 12-06-2014 00:25:00 16.2 C 12 g/m*3 16.2 C 0 km/h
1145 12-06-2014 00:30:00 16.2 C 12.14 g/m*3 16.2 C 0 km/h
1146 12-06-2014 00:35:00 16.1 C 12.06 g/m*3 16.1 C 0 km/h
1147 12-06-2014 00:40:00 16.1 C 12.2 g/m*3 16.1 C 0 km/h
1148 12-06-2014 00:45:00 16.1 C 12.2 g/m*3 16.1 C 0 km/h
1149 12-06-2014 00:50:00 15.9 C 11.92 g/m*3 15.9 C 0 km/h
1150 12-06-2014 00:55:00 15.9 C 11.92 g/m*3 15.9 C 0 km/h
Sensor: Nr:Datum:Temp:Abs-Feuchte:Windchill:Wind:
Aussen-T/F 1151 12-06-2014 01:00:00 15.8 C 11.98 g/m*3 15.8 C 0 km/h
1152 12-06-2014 01:05:00 15.8 C 11.98 g/m*3 15.8 C 0 km/h
1153 12-06-2014 01:10:00 15.8 C 12.11 g/m*3 15.8 C 1.6 km/h
1154 12-06-2014 01:15:00 15.7 C 11.91 g/m*3 15.7 C 1.6 km/h
1155 12-06-2014 01:20:00 15.7 C 11.91 g/m*3 15.7 C 0 km/h
1156 12-06-2014 01:25:00 15.7 C 11.91 g/m*3 15.7 C 0 km/h
1157 12-06-2014 01:30:00 15.7 C 12.04 g/m*3 15.7 C 0 km/h
1158 12-06-2014 01:35:00 15.6 C 11.84 g/m*3 15.6 C 0 km/h
1159 12-06-2014 01:40:00 15.6 C 11.84 g/m*3 15.6 C 0 km/h
1160 12-06-2014 01:45:00 15.6 C 11.97 g/m*3 15.6 C 0 km/h
1161 12-06-2014 01:50:00 15.5 C 11.9 g/m*3 15.5 C 1.6 km/h
1162 12-06-2014 01:55:00 15.4 C 11.69 g/m*3 15.4 C 0 km/h
1163 12-06-2014 02:00:00 15.4 C 11.82 g/m*3 15.4 C 0 km/h
1164 12-06-2014 02:05:00 15.4 C 11.82 g/m*3 15.4 C 0 km/h
1165 12-06-2014 02:10:00 15.4 C 11.82 g/m*3 15.4 C 0 km/h
1166 12-06-2014 02:15:00 15.4 C 11.82 g/m*3 15.4 C 1.6 km/h
1167 12-06-2014 02:20:00 15.3 C 11.62 g/m*3 15.3 C 0 km/h
1168 12-06-2014 02:25:00 15.3 C 11.62 g/m*3 15.3 C 0 km/h
1169 12-06-2014 02:30:00 15.2 C 11.55 g/m*3 15.2 C 0 km/h
1170 12-06-2014 02:35:00 15.2 C 11.55 g/m*3 15.2 C 0 km/h
1171 12-06-2014 02:40:00 15.2 C 11.68 g/m*3 15.2 C 0 km/h
1172 12-06-2014 02:45:00 15.1 C 11.48 g/m*3 15.1 C 0 km/h
1173 12-06-2014 02:50:00 15 C 11.41 g/m*3 15 C 1.6 km/h
1174 12-06-2014 02:55:00 15 C 11.41 g/m*3 15 C 0 km/h
1175 12-06-2014 03:00:00 14.9 C 11.47 g/m*3 14.9 C 1.6 km/h
Sensor: Nr:Datum:Temp:Abs-Feuchte:Windchill:Wind:
Aussen-T/F 1176 12-06-2014 03:05:00 14.9 C 11.47 g/m*3 14.9 C 0 km/h
1177 12-06-2014 03:10:00 14.9 C 11.47 g/m*3 14.9 C 0 km/h
1178 12-06-2014 03:15:00 14.8 C 11.4 g/m*3 14.8 C 0 km/h
1179 12-06-2014 03:20:00 14.8 C 11.27 g/m*3 14.8 C 0 km/h
1180 12-06-2014 03:25:00 14.7 C 11.33 g/m*3 14.7 C 0 km/h
1181 12-06-2014 03:30:00 14.7 C 11.33 g/m*3 14.7 C 0 km/h
1182 12-06-2014 03:35:00 14.7 C 11.33 g/m*3 14.7 C 0 km/h
1183 12-06-2014 03:40:00 14.6 C 11.26 g/m*3 14.6 C 0 km/h
1184 12-06-2014 03:45:00 14.6 C 11.26 g/m*3 14.6 C 0 km/h
1185 12-06-2014 03:50:00 14.6 C 11.26 g/m*3 14.6 C 0 km/h
1186 12-06-2014 03:55:00 14.6 C 11.26 g/m*3 14.6 C 1.6 km/h
1187 12-06-2014 04:00:00 14.6 C 11.14 g/m*3 14.6 C 0 km/h
1188 12-06-2014 04:05:00 14.7 C 11.21 g/m*3 14.7 C 0 km/h
1189 12-06-2014 04:10:00 14.7 C 11.08 g/m*3 14.7 C 1.6 km/h
1190 12-06-2014 04:15:00 14.7 C 11.21 g/m*3 14.7 C 4.8 km/h
1191 12-06-2014 04:20:00 14.8 C 11.02 g/m*3 14.8 C 3.2 km/h
1192 12-06-2014 04:25:00 15 C 11.03 g/m*3 15 C 1.6 km/h
1193 12-06-2014 04:30:00 15.1 C 10.97 g/m*3 15.1 C 3.2 km/h
1194 12-06-2014 04:35:00 15.2 C 11.03 g/m*3 15.2 C 4.8 km/h
1195 12-06-2014 04:40:00 15.1 C 11.09 g/m*3 15.1 C 0 km/h
1196 12-06-2014 04:45:00 14.9 C 10.96 g/m*3 14.9 C 0 km/h
1197 12-06-2014 04:50:00 14.7 C 10.95 g/m*3 14.7 C 0 km/h
1198 12-06-2014 04:55:00 14.6 C 10.89 g/m*3 14.6 C 0 km/h
1199 12-06-2014 05:00:00 14.5 C 10.94 g/m*3 14.5 C 1.6 km/h
1200 12-06-2014 05:05:00 14.4 C 11 g/m*3 14.4 C 0 km/h
Sensor: Nr:Datum:Temp:Abs-Feuchte:Windchill:Wind:
Aussen-T/F 1201 12-06-2014 05:10:00 14.3 C 10.93 g/m*3 14.3 C 0 km/h
1202 12-06-2014 05:15:00 14.3 C 10.93 g/m*3 14.3 C 1.6 km/h
1203 12-06-2014 05:20:00 14.3 C 10.81 g/m*3 14.3 C 1.6 km/h
1204 12-06-2014 05:25:00 14.4 C 10.88 g/m*3 14.4 C 0 km/h
1205 12-06-2014 05:30:00 14.4 C 10.75 g/m*3 14.4 C 0 km/h
1206 12-06-2014 05:35:00 14.5 C 10.82 g/m*3 14.5 C 1.6 km/h
1207 12-06-2014 05:40:00 14.5 C 10.82 g/m*3 14.5 C 0 km/h
1208 12-06-2014 05:45:00 14.4 C 10.88 g/m*3 14.4 C 0 km/h
1209 12-06-2014 05:50:00 14.3 C 10.81 g/m*3 14.3 C 0 km/h
1210 12-06-2014 05:55:00 14.2 C 10.75 g/m*3 14.2 C 0 km/h
1211 12-06-2014 06:00:00 14.2 C 10.87 g/m*3 14.2 C 0 km/h
1212 12-06-2014 06:05:00 14.1 C 10.8 g/m*3 14.1 C 0 km/h
1213 12-06-2014 06:10:00 14.1 C 10.8 g/m*3 14.1 C 0 km/h
1214 12-06-2014 06:15:00 14.1 C 10.8 g/m*3 14.1 C 1.6 km/h
1215 12-06-2014 06:20:00 14.2 C 10.87 g/m*3 14.2 C 0 km/h
1216 12-06-2014 06:25:00 14.2 C 10.99 g/m*3 14.2 C 0 km/h
1217 12-06-2014 06:30:00 14.2 C 10.87 g/m*3 14.2 C 0 km/h
1218 12-06-2014 06:35:00 14.2 C 10.99 g/m*3 14.2 C 0 km/h
1219 12-06-2014 06:40:00 14.2 C 10.99 g/m*3 14.2 C 0 km/h
1220 12-06-2014 06:45:00 14.2 C 10.99 g/m*3 14.2 C 0 km/h
1221 12-06-2014 06:50:00 14.3 C 10.93 g/m*3 14.3 C 0 km/h
1222 12-06-2014 06:55:00 14.4 C 11 g/m*3 14.4 C 0 km/h
1223 12-06-2014 07:00:00 14.4 C 10.88 g/m*3 14.4 C 0 km/h
1224 12-06-2014 07:05:00 14.4 C 10.88 g/m*3 14.4 C 0 km/h
1225 12-06-2014 07:10:00 14.6 C 11.14 g/m*3 14.6 C 0 km/h
Sensor: Nr:Datum:Temp:Abs-Feuchte:Windchill:Wind:
Aussen-T/F 1226 12-06-2014 07:15:00 14.6 C 11.14 g/m*3 14.6 C 0 km/h
1227 12-06-2014 07:20:00 14.6 C 11.26 g/m*3 14.6 C 0 km/h
1228 12-06-2014 07:25:00 14.6 C 11.14 g/m*3 14.6 C 0 km/h
1229 12-06-2014 07:30:00 14.7 C 11.33 g/m*3 14.7 C 0 km/h
1230 12-06-2014 07:35:00 14.8 C 11.27 g/m*3 14.8 C 0 km/h
1231 12-06-2014 07:40:00 14.8 C 11.15 g/m*3 14.8 C 0 km/h
1232 12-06-2014 07:45:00 14.9 C 11.22 g/m*3 14.9 C 0 km/h
1233 12-06-2014 07:50:00 15.2 C 11.42 g/m*3 15.2 C 0 km/h
1234 12-06-2014 07:55:00 15.3 C 11.36 g/m*3 15.3 C 1.6 km/h
1235 12-06-2014 08:00:00 15.6 C 11.44 g/m*3 15.6 C 0 km/h
1236 12-06-2014 08:05:00 15.8 C 11.31 g/m*3 15.8 C 1.6 km/h
1237 12-06-2014 08:10:00 16.1 C 11.38 g/m*3 16.1 C 3.2 km/h
1238 12-06-2014 08:15:00 16.3 C 11.38 g/m*3 16.3 C 4.8 km/h
1239 12-06-2014 08:20:00 16.4 C 11.31 g/m*3 16.4 C 3.2 km/h
1240 12-06-2014 08:25:00 16.6 C 11.3 g/m*3 16.6 C 6.4 km/h
1241 12-06-2014 08:30:00 16.7 C 11.51 g/m*3 16.7 C 4.8 km/h
1242 12-06-2014 08:35:00 16.9 C 11.51 g/m*3 16.9 C 3.2 km/h
1243 12-06-2014 08:40:00 17.1 C 11.65 g/m*3 17.1 C 6.4 km/h
1244 12-06-2014 08:45:00 17.2 C 11.42 g/m*3 17.2 C 4.8 km/h
1245 12-06-2014 08:50:00 17.3 C 11.49 g/m*3 17.3 C 4.8 km/h
1246 12-06-2014 08:55:00 17.4 C 11.41 g/m*3 17.4 C 1.6 km/h
1247 12-06-2014 09:00:00 17.6 C 11.55 g/m*3 17.6 C 4.8 km/h
1248 12-06-2014 09:05:00 17.7 C 11.62 g/m*3 17.7 C 4.8 km/h
1249 12-06-2014 09:10:00 17.8 C 11.69 g/m*3 17.8 C 4.8 km/h
1250 12-06-2014 09:15:00 17.7 C 11.62 g/m*3 17.7 C 1.6 km/h
Sensor: Nr:Datum:Temp:Abs-Feuchte:Windchill:Wind:
Aussen-T/F 1251 12-06-2014 09:20:00 17.7 C 11.62 g/m*3 17.7 C 0 km/h
1252 12-06-2014 09:25:00 17.8 C 11.84 g/m*3 17.8 C 1.6 km/h
1253 12-06-2014 09:30:00 17.9 C 11.91 g/m*3 17.9 C 1.6 km/h
1254 12-06-2014 09:35:00 18 C 11.83 g/m*3 18 C 4.8 km/h
1255 12-06-2014 09:40:00 18.1 C 11.74 g/m*3 18.1 C 0 km/h
1256 12-06-2014 09:45:00 18.2 C 11.81 g/m*3 18.2 C 4.8 km/h
1257 12-06-2014 09:50:00 18.4 C 11.95 g/m*3 18.4 C 6.4 km/h
1258 12-06-2014 09:55:00 18.7 C 12.17 g/m*3 18.7 C 4.8 km/h
1259 12-06-2014 10:00:00 18.9 C 12.15 g/m*3 18.9 C 4.8 km/h
1260 12-06-2014 10:05:00 19.1 C 12.46 g/m*3 19.1 C 1.6 km/h
1261 12-06-2014 10:10:00 19.4 C 12.35 g/m*3 19.4 C 3.2 km/h
1262 12-06-2014 10:15:00 19.7 C 12.4 g/m*3 19.7 C 3.2 km/h
1263 12-06-2014 10:20:00 19.9 C 12.2 g/m*3 19.9 C 3.2 km/h
1264 12-06-2014 10:25:00 20.1 C 12.86 g/m*3 20.1 C 1.6 km/h
1265 12-06-2014 10:30:00 20.3 C 12.31 g/m*3 20.3 C 1.6 km/h
1266 12-06-2014 10:35:00 20.6 C 12.71 g/m*3 20.6 C 4.8 km/h
1267 12-06-2014 10:40:00 20.9 C 12.75 g/m*3 20.9 C 4.8 km/h
1268 12-06-2014 10:45:00 21 C 12.64 g/m*3 21 C 4.8 km/h
1269 12-06-2014 10:50:00 21.2 C 12.6 g/m*3 21.2 C 4.8 km/h
1270 12-06-2014 10:55:00 21.4 C 12 g/m*3 21.4 C 3.2 km/h
1271 12-06-2014 11:00:00 21.4 C 12.19 g/m*3 21.4 C 4.8 km/h
1272 12-06-2014 11:05:00 21.6 C 12.33 g/m*3 21.6 C 4.8 km/h
1273 12-06-2014 11:10:00 21.8 C 12.28 g/m*3 21.8 C 9.7 km/h
1274 12-06-2014 11:15:00 21.9 C 11.96 g/m*3 21.9 C 11.3 km/h
1275 12-06-2014 11:20:00 21.9 C 11.77 g/m*3 21.9 C 11.3 km/h
Sensor: Nr:Datum:Temp:Abs-Feuchte:Windchill:Wind:
Aussen-T/F 1276 12-06-2014 11:25:00 22.1 C 12.1 g/m*3 22.1 C 9.7 km/h
1277 12-06-2014 11:30:00 22.3 C 12.24 g/m*3 22.3 C 8.1 km/h
1278 12-06-2014 11:35:00 22.4 C 12.11 g/m*3 22.4 C 8.1 km/h
1279 12-06-2014 11:40:00 22.5 C 12.18 g/m*3 22.5 C 9.7 km/h
1280 12-06-2014 11:45:00 22.6 C 12.05 g/m*3 22.6 C 6.4 km/h
1281 12-06-2014 11:50:00 22.8 C 12.19 g/m*3 22.8 C 12.9 km/h
1282 12-06-2014 11:55:00 22.9 C 11.85 g/m*3 22.9 C 6.4 km/h
1283 12-06-2014 12:00:00 23 C 11.92 g/m*3 23 C 4.8 km/h
1284 12-06-2014 12:05:00 23 C 11.92 g/m*3 23 C 9.7 km/h
1285 12-06-2014 12:10:00 23.1 C 11.37 g/m*3 23.1 C 6.4 km/h
1286 12-06-2014 12:15:00 23.2 C 11.64 g/m*3 23.2 C 9.7 km/h
1287 12-06-2014 12:20:00 23.3 C 11.29 g/m*3 23.3 C 9.7 km/h
1288 12-06-2014 12:25:00 23.4 C 11.78 g/m*3 23.4 C 9.7 km/h
1289 12-06-2014 12:30:00 23.7 C 11.98 g/m*3 23.7 C 9.7 km/h
1290 12-06-2014 12:35:00 23.9 C 11.25 g/m*3 23.9 C 9.7 km/h
1291 12-06-2014 12:40:00 23.9 C 11.68 g/m*3 23.9 C 4.8 km/h
1292 12-06-2014 12:45:00 23.9 C 11.47 g/m*3 23.9 C 11.3 km/h
1293 12-06-2014 12:50:00 24 C 10.88 g/m*3 24 C 4.8 km/h
1294 12-06-2014 12:55:00 23.9 C 11.9 g/m*3 23.9 C 9.7 km/h
1295 12-06-2014 13:00:00 24.1 C 11.82 g/m*3 24.1 C 9.7 km/h
1296 12-06-2014 13:05:00 24.3 C 11.29 g/m*3 24.3 C 12.9 km/h
1297 12-06-2014 13:10:00 24.5 C 11.19 g/m*3 24.5 C 6.4 km/h
1298 12-06-2014 13:15:00 24.3 C 11.29 g/m*3 24.3 C 6.4 km/h
1299 12-06-2014 13:20:00 24.3 C 11.51 g/m*3 24.3 C 9.7 km/h
1300 12-06-2014 13:25:00 24.5 C 12.53 g/m*3 24.5 C 9.7 km/h
Sensor: Nr:Datum:Temp:Abs-Feuchte:Windchill:Wind:
Aussen-T/F 1301 12-06-2014 13:30:00 24.7 C 12.22 g/m*3 24.7 C 9.7 km/h
1302 12-06-2014 13:35:00 24.7 C 11.32 g/m*3 24.7 C 6.4 km/h
1303 12-06-2014 13:40:00 24.7 C 11.32 g/m*3 24.7 C 8.1 km/h
1304 12-06-2014 13:45:00 24.8 C 11.61 g/m*3 24.8 C 9.7 km/h
1305 12-06-2014 13:50:00 24.9 C 11.45 g/m*3 24.9 C 4.8 km/h
1306 12-06-2014 13:55:00 25.1 C 11.57 g/m*3 25.1 C 9.7 km/h
1307 12-06-2014 14:00:00 25.2 C 11.17 g/m*3 25.2 C 8.1 km/h
1308 12-06-2014 14:05:00 25.3 C 11.94 g/m*3 25.3 C 9.7 km/h
1309 12-06-2014 14:10:00 25.4 C 11.54 g/m*3 25.4 C 8.1 km/h
1310 12-06-2014 14:15:00 25.6 C 11.9 g/m*3 25.6 C 12.9 km/h
1311 12-06-2014 14:20:00 25.5 C 11.6 g/m*3 25.5 C 9.7 km/h
1312 12-06-2014 14:25:00 25.5 C 10.42 g/m*3 25.5 C 9.7 km/h
1313 12-06-2014 14:30:00 25.4 C 11.3 g/m*3 25.4 C 11.3 km/h
1314 12-06-2014 14:35:00 25.7 C 11.25 g/m*3 25.7 C 9.7 km/h
1315 12-06-2014 14:40:00 25.7 C 10.77 g/m*3 25.7 C 8.1 km/h
1316 12-06-2014 14:45:00 25.8 C 10.83 g/m*3 25.8 C 12.9 km/h
1317 12-06-2014 14:50:00 25.8 C 10.35 g/m*3 25.8 C 9.7 km/h
1318 12-06-2014 14:55:00 25.6 C 10.71 g/m*3 25.6 C 8.1 km/h
1319 12-06-2014 15:00:00 25.7 C 10.53 g/m*3 25.7 C 8.1 km/h
1320 12-06-2014 15:05:00 26.1 C 10.28 g/m*3 26.1 C 8.1 km/h
1321 12-06-2014 15:10:00 26.2 C 10.34 g/m*3 26.2 C 9.7 km/h
1322 12-06-2014 15:15:00 26.1 C 10.28 g/m*3 26.1 C 9.7 km/h
1323 12-06-2014 15:20:00 26.1 C 10.28 g/m*3 26.1 C 11.3 km/h
1324 12-06-2014 15:25:00 26.1 C 10.53 g/m*3 26.1 C 14.5 km/h
1325 12-06-2014 15:30:00 26 C 10.96 g/m*3 26 C 11.3 km/h
Sensor: Nr:Datum:Temp:Abs-Feuchte:Windchill:Wind:
Aussen-T/F 1326 12-06-2014 15:35:00 26 C 10.47 g/m*3 26 C 8.1 km/h
1327 12-06-2014 15:40:00 26.2 C 9.6 g/m*3 26.2 C 9.7 km/h
1328 12-06-2014 15:45:00 26.4 C 9.46 g/m*3 26.4 C 6.4 km/h
1329 12-06-2014 15:50:00 26.4 C 9.21 g/m*3 26.4 C 12.9 km/h
1330 12-06-2014 15:55:00 26.5 C 9.01 g/m*3 26.5 C 8.1 km/h
1331 12-06-2014 16:00:00 26.5 C 9.26 g/m*3 26.5 C 11.3 km/h
1332 12-06-2014 16:05:00 26.5 C 9.01 g/m*3 26.5 C 12.9 km/h
1333 12-06-2014 16:10:00 26.6 C 9.57 g/m*3 26.6 C 6.4 km/h
1334 12-06-2014 16:15:00 26.8 C 9.67 g/m*3 26.8 C 8.1 km/h
1335 12-06-2014 16:20:00 26.8 C 9.42 g/m*3 26.8 C 11.3 km/h
1336 12-06-2014 16:25:00 26.7 C 9.11 g/m*3 26.7 C 12.9 km/h
1337 12-06-2014 16:30:00 26.8 C 8.91 g/m*3 26.8 C 12.9 km/h
1338 12-06-2014 16:35:00 26.7 C 9.62 g/m*3 26.7 C 6.4 km/h
1339 12-06-2014 16:40:00 27 C 9.52 g/m*3 27 C 9.7 km/h
1340 12-06-2014 16:45:00 27.1 C 9.32 g/m*3 27.1 C 14.5 km/h
1341 12-06-2014 16:50:00 27.1 C 9.32 g/m*3 27.1 C 8.1 km/h
1342 12-06-2014 16:55:00 26.8 C 9.67 g/m*3 26.8 C 9.7 km/h
1343 12-06-2014 17:00:00 26.8 C 9.16 g/m*3 26.8 C 11.3 km/h
1344 12-06-2014 17:05:00 26.8 C 9.16 g/m*3 26.8 C 11.3 km/h
1345 12-06-2014 17:10:00 26.8 C 9.67 g/m*3 26.8 C 11.3 km/h
1346 12-06-2014 17:15:00 26.8 C 9.67 g/m*3 26.8 C 11.3 km/h
1347 12-06-2014 17:20:00 26.8 C 9.42 g/m*3 26.8 C 11.3 km/h
1348 12-06-2014 17:25:00 26.8 C 10.44 g/m*3 26.8 C 12.9 km/h
1349 12-06-2014 17:30:00 26.6 C 10.32 g/m*3 26.6 C 12.9 km/h
1350 12-06-2014 17:35:00 26.4 C 10.21 g/m*3 26.4 C 14.5 km/h
Sensor: Nr:Datum:Temp:Abs-Feuchte:Windchill:Wind:
Aussen-T/F 1351 12-06-2014 17:40:00 26.4 C 9.96 g/m*3 26.4 C 9.7 km/h
1352 12-06-2014 17:45:00 26.7 C 10.38 g/m*3 26.7 C 9.7 km/h
1353 12-06-2014 17:50:00 26.6 C 9.82 g/m*3 26.6 C 16.1 km/h
1354 12-06-2014 17:55:00 26.4 C 9.96 g/m*3 26.4 C 9.7 km/h
1355 12-06-2014 18:00:00 26.6 C 10.07 g/m*3 26.6 C 11.3 km/h
1356 12-06-2014 18:05:00 26.7 C 10.38 g/m*3 26.7 C 9.7 km/h
1357 12-06-2014 18:10:00 26.6 C 9.82 g/m*3 26.6 C 11.3 km/h
1358 12-06-2014 18:15:00 26.3 C 9.41 g/m*3 26.3 C 6.4 km/h
1359 12-06-2014 18:20:00 26.3 C 9.41 g/m*3 26.3 C 9.7 km/h
1360 12-06-2014 18:25:00 26.4 C 9.46 g/m*3 26.4 C 8.1 km/h
1361 12-06-2014 18:30:00 26.4 C 10.21 g/m*3 26.4 C 9.7 km/h
1362 12-06-2014 18:35:00 26.3 C 9.41 g/m*3 26.3 C 8.1 km/h
1363 12-06-2014 18:40:00 26.3 C 9.65 g/m*3 26.3 C 9.7 km/h
1364 12-06-2014 18:45:00 26 C 9.98 g/m*3 26 C 11.3 km/h
1365 12-06-2014 18:50:00 25.7 C 10.06 g/m*3 25.7 C 11.3 km/h
1366 12-06-2014 18:55:00 25.7 C 9.58 g/m*3 25.7 C 12.9 km/h
1367 12-06-2014 19:00:00 25.7 C 9.58 g/m*3 25.7 C 9.7 km/h
1368 12-06-2014 19:05:00 25.7 C 9.58 g/m*3 25.7 C 9.7 km/h
1369 12-06-2014 19:10:00 25.7 C 9.58 g/m*3 25.7 C 9.7 km/h
1370 12-06-2014 19:15:00 25.6 C 9.52 g/m*3 25.6 C 9.7 km/h
1371 12-06-2014 19:20:00 25.3 C 9.36 g/m*3 25.3 C 11.3 km/h
1372 12-06-2014 19:25:00 24.9 C 9.16 g/m*3 24.9 C 8.1 km/h
1373 12-06-2014 19:30:00 24.8 C 9.56 g/m*3 24.8 C 9.7 km/h
1374 12-06-2014 19:35:00 24.6 C 9.45 g/m*3 24.6 C 11.3 km/h
1375 12-06-2014 19:40:00 24.3 C 9.07 g/m*3 24.3 C 9.7 km/h
Sensor: Nr:Datum:Temp:Abs-Feuchte:Windchill:Wind:
Aussen-T/F 1376 12-06-2014 19:45:00 24.2 C 9.24 g/m*3 24.2 C 9.7 km/h
1377 12-06-2014 19:50:00 24.2 C 9.24 g/m*3 24.2 C 8.1 km/h
1378 12-06-2014 19:55:00 24.2 C 9.24 g/m*3 24.2 C 12.9 km/h
1379 12-06-2014 20:00:00 24.1 C 9.41 g/m*3 24.1 C 9.7 km/h
1380 12-06-2014 20:05:00 23.9 C 9.3 g/m*3 23.9 C 8.1 km/h
1381 12-06-2014 20:10:00 23.7 C 9.41 g/m*3 23.7 C 11.3 km/h
1382 12-06-2014 20:15:00 23.5 C 9.09 g/m*3 23.5 C 6.4 km/h
1383 12-06-2014 20:20:00 23.4 C 9.25 g/m*3 23.4 C 8.1 km/h
1384 12-06-2014 20:25:00 23.3 C 8.99 g/m*3 23.3 C 6.4 km/h
1385 12-06-2014 20:30:00 23.3 C 8.99 g/m*3 23.3 C 4.8 km/h
1386 12-06-2014 20:35:00 23.2 C 9.36 g/m*3 23.2 C 6.4 km/h
1387 12-06-2014 20:40:00 22.9 C 8.99 g/m*3 22.9 C 8.1 km/h
1388 12-06-2014 20:45:00 22.8 C 9.35 g/m*3 22.8 C 8.1 km/h
1389 12-06-2014 20:50:00 22.7 C 9.29 g/m*3 22.7 C 8.1 km/h
1390 12-06-2014 20:55:00 22.5 C 9.39 g/m*3 22.5 C 3.2 km/h
1391 12-06-2014 21:00:00 22.3 C 9.48 g/m*3 22.3 C 4.8 km/h
1392 12-06-2014 21:05:00 22.2 C 9.82 g/m*3 22.2 C 0 km/h
1393 12-06-2014 21:10:00 22.2 C 9.82 g/m*3 22.2 C 3.2 km/h
1394 12-06-2014 21:15:00 22.2 C 9.82 g/m*3 22.2 C 1.6 km/h
1395 12-06-2014 21:20:00 22.2 C 9.82 g/m*3 22.2 C 3.2 km/h
1396 12-06-2014 21:25:00 22.2 C 9.82 g/m*3 22.2 C 0 km/h
1397 12-06-2014 21:30:00 19.9 C 10.82 g/m*3 19.9 C 0 km/h
1398 12-06-2014 21:35:00 19.9 C 10.82 g/m*3 19.9 C 0 km/h
1399 12-06-2014 21:40:00 18.9 C 10.53 g/m*3 18.9 C 0 km/h
1400 12-06-2014 21:45:00 18.6 C 10.82 g/m*3 18.6 C 0 km/h
Sensor: Nr:Datum:Temp:Abs-Feuchte:Windchill:Wind:
Aussen-T/F 1401 12-06-2014 21:50:00 18.3 C 10.48 g/m*3 18.3 C 0 km/h
1402 12-06-2014 21:55:00 18.2 C 10.41 g/m*3 18.2 C 1.6 km/h
1403 12-06-2014 22:00:00 18 C 10.44 g/m*3 18 C 1.6 km/h
1404 12-06-2014 22:05:00 17.9 C 10.38 g/m*3 17.9 C 1.6 km/h
1405 12-06-2014 22:10:00 17.9 C 10.23 g/m*3 17.9 C 1.6 km/h
1406 12-06-2014 22:15:00 18 C 10.29 g/m*3 18 C 3.2 km/h
1407 12-06-2014 22:20:00 18.1 C 10.35 g/m*3 18.1 C 0 km/h
1408 12-06-2014 22:25:00 17.9 C 10.23 g/m*3 17.9 C 0 km/h
1409 12-06-2014 22:30:00 17.8 C 10.32 g/m*3 17.8 C 3.2 km/h
1410 12-06-2014 22:35:00 17.8 C 10.32 g/m*3 17.8 C 1.6 km/h
1411 12-06-2014 22:40:00 17.7 C 10.26 g/m*3 17.7 C 1.6 km/h
1412 12-06-2014 22:45:00 17.5 C 10.44 g/m*3 17.5 C 0 km/h
1413 12-06-2014 22:50:00 17.3 C 10.31 g/m*3 17.3 C 0 km/h
1414 12-06-2014 22:55:00 17.2 C 10.4 g/m*3 17.2 C 0 km/h
1415 12-06-2014 23:00:00 16.9 C 10.21 g/m*3 16.9 C 0 km/h
1416 12-06-2014 23:05:00 16.8 C 10.29 g/m*3 16.8 C 1.6 km/h
1417 12-06-2014 23:10:00 16.7 C 10.37 g/m*3 16.7 C 0 km/h
1418 12-06-2014 23:15:00 16.6 C 10.45 g/m*3 16.6 C 0 km/h
1419 12-06-2014 23:20:00 16.5 C 10.39 g/m*3 16.5 C 0 km/h
1420 12-06-2014 23:25:00 16.4 C 10.33 g/m*3 16.4 C 0 km/h
1421 12-06-2014 23:30:00 16.3 C 10.27 g/m*3 16.3 C 0 km/h
1422 12-06-2014 23:35:00 16.3 C 10.27 g/m*3 16.3 C 0 km/h
1423 12-06-2014 23:40:00 16.2 C 10.34 g/m*3 16.2 C 0 km/h
1424 12-06-2014 23:45:00 16.1 C 10.42 g/m*3 16.1 C 0 km/h
1425 12-06-2014 23:50:00 16 C 10.35 g/m*3 16 C 0 km/h
Sensor: Nr:Datum:Temp:Abs-Feuchte:Windchill:Wind:
Aussen-T/F 1426 12-06-2014 23:55:00 15.9 C 10.43 g/m*3 15.9 C 0 km/h
1427 13-06-2014 00:00:00 15.8 C 10.36 g/m*3 15.8 C 0 km/h
1428 13-06-2014 00:05:00 15.8 C 10.36 g/m*3 15.8 C 0 km/h
1429 13-06-2014 00:10:00 15.7 C 10.3 g/m*3 15.7 C 0 km/h
1430 13-06-2014 00:15:00 15.6 C 10.24 g/m*3 15.6 C 0 km/h
1431 13-06-2014 00:20:00 15.6 C 10.24 g/m*3 15.6 C 0 km/h
1432 13-06-2014 00:25:00 15.5 C 10.05 g/m*3 15.5 C 0 km/h
1433 13-06-2014 00:30:00 15.4 C 9.99 g/m*3 15.4 C 0 km/h
1434 13-06-2014 00:35:00 15.4 C 10.12 g/m*3 15.4 C 1.6 km/h
1435 13-06-2014 00:40:00 15.3 C 10.06 g/m*3 15.3 C 0 km/h
1436 13-06-2014 00:45:00 15.3 C 10.06 g/m*3 15.3 C 0 km/h
1437 13-06-2014 00:50:00 15.2 C 10.12 g/m*3 15.2 C 0 km/h
1438 13-06-2014 00:55:00 15.2 C 10.12 g/m*3 15.2 C 0 km/h
1439 13-06-2014 01:00:00 15.1 C 10.06 g/m*3 15.1 C 0 km/h
1440 13-06-2014 01:05:00 15 C 10.13 g/m*3 15 C 0 km/h
1441 13-06-2014 01:10:00 15 C 10.26 g/m*3 15 C 0 km/h
1442 13-06-2014 01:15:00 14.9 C 10.2 g/m*3 14.9 C 0 km/h
1443 13-06-2014 01:20:00 14.9 C 10.2 g/m*3 14.9 C 0 km/h
1444 13-06-2014 01:25:00 14.8 C 10.13 g/m*3 14.8 C 0 km/h
1445 13-06-2014 01:30:00 14.6 C 10.14 g/m*3 14.6 C 0 km/h
1446 13-06-2014 01:35:00 14.6 C 10.14 g/m*3 14.6 C 0 km/h
1447 13-06-2014 01:40:00 14.5 C 10.07 g/m*3 14.5 C 0 km/h
1448 13-06-2014 01:45:00 14.3 C 10.07 g/m*3 14.3 C 0 km/h
1449 13-06-2014 01:50:00 14.2 C 10.01 g/m*3 14.2 C 0 km/h
1450 13-06-2014 01:55:00 14.2 C 10.01 g/m*3 14.2 C 0 km/h
Sensor: Nr:Datum:Temp:Abs-Feuchte:Windchill:Wind:
Aussen-T/F 1451 13-06-2014 02:00:00 14.1 C 10.07 g/m*3 14.1 C 0 km/h
1452 13-06-2014 02:05:00 14.1 C 10.07 g/m*3 14.1 C 0 km/h
1453 13-06-2014 02:10:00 13.9 C 9.95 g/m*3 13.9 C 0 km/h
1454 13-06-2014 02:15:00 13.8 C 10.01 g/m*3 13.8 C 0 km/h
1455 13-06-2014 02:20:00 13.6 C 9.89 g/m*3 13.6 C 0 km/h
1456 13-06-2014 02:25:00 13.6 C 10 g/m*3 13.6 C 0 km/h
1457 13-06-2014 02:30:00 13.4 C 9.88 g/m*3 13.4 C 0 km/h
1458 13-06-2014 02:35:00 13.3 C 9.82 g/m*3 13.3 C 0 km/h
1459 13-06-2014 02:40:00 13.1 C 9.81 g/m*3 13.1 C 0 km/h
1460 13-06-2014 02:45:00 13 C 9.75 g/m*3 13 C 0 km/h
1461 13-06-2014 02:50:00 12.9 C 9.69 g/m*3 12.9 C 0 km/h
1462 13-06-2014 02:55:00 12.9 C 9.81 g/m*3 12.9 C 0 km/h
1463 13-06-2014 03:00:00 12.8 C 9.74 g/m*3 12.8 C 0 km/h
1464 13-06-2014 03:05:00 12.8 C 9.74 g/m*3 12.8 C 0 km/h
1465 13-06-2014 03:10:00 12.7 C 9.68 g/m*3 12.7 C 0 km/h
1466 13-06-2014 03:15:00 12.6 C 9.62 g/m*3 12.6 C 0 km/h
1467 13-06-2014 03:20:00 12.6 C 9.74 g/m*3 12.6 C 0 km/h
1468 13-06-2014 03:25:00 12.6 C 9.74 g/m*3 12.6 C 0 km/h
1469 13-06-2014 03:30:00 12.4 C 9.62 g/m*3 12.4 C 0 km/h
1470 13-06-2014 03:35:00 12.4 C 9.62 g/m*3 12.4 C 0 km/h
1471 13-06-2014 03:40:00 12.4 C 9.72 g/m*3 12.4 C 0 km/h
1472 13-06-2014 03:45:00 12.3 C 9.66 g/m*3 12.3 C 0 km/h
1473 13-06-2014 03:50:00 12.3 C 9.66 g/m*3 12.3 C 0 km/h
1474 13-06-2014 03:55:00 12.2 C 9.6 g/m*3 12.2 C 0 km/h
1475 13-06-2014 04:00:00 12.2 C 9.6 g/m*3 12.2 C 0 km/h
Sensor: Nr:Datum:Temp:Abs-Feuchte:Windchill:Wind:
Aussen-T/F 1476 13-06-2014 04:05:00 12.1 C 9.54 g/m*3 12.1 C 0 km/h
1477 13-06-2014 04:10:00 12.1 C 9.65 g/m*3 12.1 C 0 km/h
1478 13-06-2014 04:15:00 12 C 9.59 g/m*3 12 C 0 km/h
1479 13-06-2014 04:20:00 11.9 C 9.53 g/m*3 11.9 C 0 km/h
1480 13-06-2014 04:25:00 11.9 C 9.53 g/m*3 11.9 C 0 km/h
1481 13-06-2014 04:30:00 11.8 C 9.58 g/m*3 11.8 C 0 km/h
1482 13-06-2014 04:35:00 11.7 C 9.52 g/m*3 11.7 C 0 km/h
1483 13-06-2014 04:40:00 11.7 C 9.52 g/m*3 11.7 C 0 km/h
1484 13-06-2014 04:45:00 11.7 C 9.52 g/m*3 11.7 C 0 km/h
1485 13-06-2014 04:50:00 11.7 C 9.52 g/m*3 11.7 C 0 km/h
1486 13-06-2014 04:55:00 11.6 C 9.46 g/m*3 11.6 C 0 km/h
1487 13-06-2014 05:00:00 11.5 C 9.4 g/m*3 11.5 C 0 km/h
1488 13-06-2014 05:05:00 11.6 C 9.46 g/m*3 11.6 C 0 km/h
1489 13-06-2014 05:10:00 11.5 C 9.5 g/m*3 11.5 C 0 km/h
1490 13-06-2014 05:15:00 11.4 C 9.34 g/m*3 11.4 C 0 km/h
1491 13-06-2014 05:20:00 11.4 C 9.44 g/m*3 11.4 C 0 km/h
1492 13-06-2014 05:25:00 11.4 C 9.44 g/m*3 11.4 C 0 km/h
1493 13-06-2014 05:30:00 11.3 C 9.38 g/m*3 11.3 C 0 km/h
1494 13-06-2014 05:35:00 11.3 C 9.38 g/m*3 11.3 C 0 km/h
1495 13-06-2014 05:40:00 11.3 C 9.38 g/m*3 11.3 C 0 km/h
1496 13-06-2014 05:45:00 11.2 C 9.33 g/m*3 11.2 C 0 km/h
1497 13-06-2014 05:50:00 11.3 C 9.49 g/m*3 11.3 C 0 km/h
1498 13-06-2014 05:55:00 11.3 C 9.49 g/m*3 11.3 C 1.6 km/h
1499 13-06-2014 06:00:00 11.3 C 9.49 g/m*3 11.3 C 0 km/h
1500 13-06-2014 06:05:00 11.3 C 9.49 g/m*3 11.3 C 0 km/h
Sensor: Nr:Datum:Temp:Abs-Feuchte:Windchill:Wind:
Aussen-T/F 1501 13-06-2014 06:10:00 11.3 C 9.49 g/m*3 11.3 C 0 km/h
1502 13-06-2014 06:15:00 11.3 C 9.49 g/m*3 11.3 C 0 km/h
1503 13-06-2014 06:20:00 11.4 C 9.55 g/m*3 11.4 C 0 km/h
1504 13-06-2014 06:25:00 11.3 C 9.49 g/m*3 11.3 C 0 km/h
1505 13-06-2014 06:30:00 11.4 C 9.55 g/m*3 11.4 C 0 km/h
1506 13-06-2014 06:35:00 11.4 C 9.55 g/m*3 11.4 C 0 km/h
1507 13-06-2014 06:40:00 11.4 C 9.55 g/m*3 11.4 C 0 km/h
1508 13-06-2014 06:45:00 11.5 C 9.61 g/m*3 11.5 C 0 km/h
1509 13-06-2014 06:50:00 11.6 C 9.67 g/m*3 11.6 C 0 km/h
1510 13-06-2014 06:55:00 11.6 C 9.67 g/m*3 11.6 C 0 km/h
1511 13-06-2014 07:00:00 11.7 C 9.73 g/m*3 11.7 C 0 km/h
1512 13-06-2014 07:05:00 11.7 C 9.73 g/m*3 11.7 C 0 km/h
1513 13-06-2014 07:10:00 11.8 C 9.79 g/m*3 11.8 C 0 km/h
1514 13-06-2014 07:15:00 11.9 C 9.85 g/m*3 11.9 C 0 km/h
1515 13-06-2014 07:20:00 12 C 9.91 g/m*3 12 C 0 km/h
1516 13-06-2014 07:25:00 12.1 C 9.97 g/m*3 12.1 C 0 km/h
1517 13-06-2014 07:30:00 12.2 C 10.04 g/m*3 12.2 C 0 km/h
1518 13-06-2014 07:35:00 12.3 C 10.1 g/m*3 12.3 C 0 km/h
1519 13-06-2014 07:40:00 12.4 C 10.16 g/m*3 12.4 C 0 km/h
1520 13-06-2014 07:45:00 12.4 C 10.16 g/m*3 12.4 C 0 km/h
1521 13-06-2014 07:50:00 12.7 C 10.35 g/m*3 12.7 C 1.6 km/h
1522 13-06-2014 07:55:00 12.9 C 10.37 g/m*3 12.9 C 1.6 km/h
1523 13-06-2014 08:00:00 13.3 C 10.51 g/m*3 13.3 C 0 km/h
1524 13-06-2014 08:05:00 13.7 C 10.66 g/m*3 13.7 C 0 km/h
1525 13-06-2014 08:10:00 14.1 C 10.68 g/m*3 14.1 C 0 km/h
Sensor: Nr:Datum:Temp:Abs-Feuchte:Windchill:Wind:
Aussen-T/F 1526 13-06-2014 08:15:00 14.3 C 10.81 g/m*3 14.3 C 0 km/h
1527 13-06-2014 08:20:00 14.6 C 10.89 g/m*3 14.6 C 0 km/h
1528 13-06-2014 08:25:00 14.8 C 10.89 g/m*3 14.8 C 0 km/h
1529 13-06-2014 08:30:00 15.1 C 10.97 g/m*3 15.1 C 0 km/h
1530 13-06-2014 08:35:00 15.4 C 11.17 g/m*3 15.4 C 0 km/h
1531 13-06-2014 08:40:00 15.7 C 11.37 g/m*3 15.7 C 0 km/h
1532 13-06-2014 08:45:00 15.9 C 11.38 g/m*3 15.9 C 0 km/h
1533 13-06-2014 08:50:00 16.4 C 11.45 g/m*3 16.4 C 0 km/h
1534 13-06-2014 08:55:00 16.7 C 11.37 g/m*3 16.7 C 0 km/h
1535 13-06-2014 09:00:00 16.8 C 11.58 g/m*3 16.8 C 0 km/h
1536 13-06-2014 09:05:00 16.9 C 11.36 g/m*3 16.9 C 0 km/h
1537 13-06-2014 09:10:00 17.1 C 11.35 g/m*3 17.1 C 0 km/h
1538 13-06-2014 09:15:00 17.2 C 11.42 g/m*3 17.2 C 0 km/h
1539 13-06-2014 09:20:00 16.9 C 11.22 g/m*3 16.9 C 1.6 km/h
1540 13-06-2014 09:25:00 16.8 C 11.44 g/m*3 16.8 C 0 km/h
1541 13-06-2014 09:30:00 16.8 C 11.44 g/m*3 16.8 C 0 km/h
1542 13-06-2014 09:35:00 16.8 C 11.58 g/m*3 16.8 C 0 km/h
1543 13-06-2014 09:40:00 16.8 C 11.72 g/m*3 16.8 C 0 km/h
1544 13-06-2014 09:45:00 16.9 C 11.65 g/m*3 16.9 C 0 km/h
1545 13-06-2014 09:50:00 17.2 C 11.72 g/m*3 17.2 C 1.6 km/h
1546 13-06-2014 09:55:00 17.7 C 11.77 g/m*3 17.7 C 1.6 km/h
1547 13-06-2014 10:00:00 18.3 C 12.04 g/m*3 18.3 C 0 km/h
1548 13-06-2014 10:05:00 18.7 C 12.33 g/m*3 18.7 C 3.2 km/h
1549 13-06-2014 10:10:00 19.2 C 11.38 g/m*3 19.2 C 3.2 km/h
1550 13-06-2014 10:15:00 19.7 C 11.21 g/m*3 19.7 C 1.6 km/h
Sensor: Nr:Datum:Temp:Abs-Feuchte:Windchill:Wind:
Aussen-T/F 1551 13-06-2014 10:20:00 20 C 11.92 g/m*3 20 C 1.6 km/h
1552 13-06-2014 10:25:00 20.2 C 11.71 g/m*3 20.2 C 3.2 km/h
1553 13-06-2014 10:30:00 20.4 C 11.32 g/m*3 20.4 C 3.2 km/h
1554 13-06-2014 10:35:00 20.8 C 12.13 g/m*3 20.8 C 3.2 km/h
1555 13-06-2014 10:40:00 21.1 C 12.16 g/m*3 21.1 C 4.8 km/h
1556 13-06-2014 10:45:00 21.3 C 11.93 g/m*3 21.3 C 1.6 km/h
1557 13-06-2014 10:50:00 21.6 C 11.95 g/m*3 21.6 C 6.4 km/h
1558 13-06-2014 10:55:00 21.8 C 11.32 g/m*3 21.8 C 4.8 km/h
1559 13-06-2014 11:00:00 21.9 C 11 g/m*3 21.9 C 8.1 km/h
1560 13-06-2014 11:05:00 21.9 C 10.81 g/m*3 21.9 C 8.1 km/h
1561 13-06-2014 11:10:00 22 C 10.29 g/m*3 22 C 6.4 km/h
1562 13-06-2014 11:15:00 22.2 C 10.8 g/m*3 22.2 C 8.1 km/h
1563 13-06-2014 11:20:00 22.1 C 10.54 g/m*3 22.1 C 4.8 km/h
1564 13-06-2014 11:25:00 22 C 11.06 g/m*3 22 C 8.1 km/h
1565 13-06-2014 11:30:00 22.2 C 10.21 g/m*3 22.2 C 8.1 km/h
1566 13-06-2014 11:35:00 22.2 C 10.21 g/m*3 22.2 C 9.7 km/h
1567 13-06-2014 11:40:00 21.9 C 10.03 g/m*3 21.9 C 6.4 km/h
1568 13-06-2014 11:45:00 21.8 C 10.36 g/m*3 21.8 C 6.4 km/h
1569 13-06-2014 11:50:00 21.7 C 10.11 g/m*3 21.7 C 6.4 km/h
1570 13-06-2014 11:55:00 21.7 C 10.11 g/m*3 21.7 C 3.2 km/h
1571 13-06-2014 12:00:00 21.9 C 10.23 g/m*3 21.9 C 12.9 km/h
1572 13-06-2014 12:05:00 21.9 C 10.42 g/m*3 21.9 C 6.4 km/h
1573 13-06-2014 12:10:00 21.8 C 10.17 g/m*3 21.8 C 4.8 km/h
1574 13-06-2014 12:15:00 22.1 C 10.35 g/m*3 22.1 C 3.2 km/h
1575 13-06-2014 12:20:00 22.7 C 10.51 g/m*3 22.7 C 8.1 km/h
Sensor: Nr:Datum:Temp:Abs-Feuchte:Windchill:Wind:
Aussen-T/F 1576 13-06-2014 12:25:00 22.9 C 10.63 g/m*3 22.9 C 4.8 km/h
1577 13-06-2014 12:30:00 22.9 C 10.63 g/m*3 22.9 C 8.1 km/h
1578 13-06-2014 12:35:00 22.7 C 10.3 g/m*3 22.7 C 8.1 km/h
1579 13-06-2014 12:40:00 22.5 C 9.99 g/m*3 22.5 C 9.7 km/h
1580 13-06-2014 12:45:00 22.9 C 10.42 g/m*3 22.9 C 6.4 km/h
1581 13-06-2014 12:50:00 23.2 C 9.36 g/m*3 23.2 C 9.7 km/h
1582 13-06-2014 12:55:00 23.1 C 10.13 g/m*3 23.1 C 12.9 km/h
1583 13-06-2014 13:00:00 22.9 C 10.63 g/m*3 22.9 C 11.3 km/h
1584 13-06-2014 13:05:00 22.8 C 10.36 g/m*3 22.8 C 14.5 km/h
1585 13-06-2014 13:10:00 23 C 10.28 g/m*3 23 C 12.9 km/h
1586 13-06-2014 13:15:00 23.3 C 10.04 g/m*3 23.3 C 8.1 km/h
1587 13-06-2014 13:20:00 23.2 C 10.19 g/m*3 23.2 C 11.3 km/h
1588 13-06-2014 13:25:00 22.8 C 10.16 g/m*3 22.8 C 9.7 km/h
1589 13-06-2014 13:30:00 22.9 C 10.63 g/m*3 22.9 C 11.3 km/h
1590 13-06-2014 13:35:00 22.9 C 10.42 g/m*3 22.9 C 9.7 km/h
1591 13-06-2014 13:40:00 23.2 C 10.19 g/m*3 23.2 C 14.5 km/h
1592 13-06-2014 13:45:00 23.2 C 10.39 g/m*3 23.2 C 8.1 km/h
1593 13-06-2014 13:50:00 23.2 C 10.39 g/m*3 23.2 C 12.9 km/h
1594 13-06-2014 13:55:00 23.1 C 10.34 g/m*3 23.1 C 11.3 km/h
1595 13-06-2014 14:00:00 22.9 C 9.81 g/m*3 22.9 C 11.3 km/h
1596 13-06-2014 14:05:00 23 C 10.07 g/m*3 23 C 8.1 km/h
1597 13-06-2014 14:10:00 23.2 C 9.77 g/m*3 23.2 C 14.5 km/h
1598 13-06-2014 14:15:00 23.2 C 10.6 g/m*3 23.2 C 12.9 km/h
1599 13-06-2014 14:20:00 23.6 C 11.27 g/m*3 23.6 C 11.3 km/h
1600 13-06-2014 14:25:00 23.8 C 10.33 g/m*3 23.8 C 16.1 km/h
Sensor: Nr:Datum:Temp:Abs-Feuchte:Windchill:Wind:
Aussen-T/F 1601 13-06-2014 14:30:00 23.8 C 10.33 g/m*3 23.8 C 12.9 km/h
1602 13-06-2014 14:35:00 23.8 C 10.33 g/m*3 23.8 C 14.5 km/h
1603 13-06-2014 14:40:00 23.8 C 10.11 g/m*3 23.8 C 14.5 km/h
1604 13-06-2014 14:45:00 23.9 C 10.6 g/m*3 23.9 C 12.9 km/h
1605 13-06-2014 14:50:00 24.2 C 10.34 g/m*3 24.2 C 11.3 km/h
1606 13-06-2014 14:55:00 24.4 C 10.01 g/m*3 24.4 C 11.3 km/h
1607 13-06-2014 15:00:00 24.2 C 9.9 g/m*3 24.2 C 14.5 km/h
1608 13-06-2014 15:05:00 23.9 C 10.17 g/m*3 23.9 C 12.9 km/h
1609 13-06-2014 15:10:00 23.9 C 9.95 g/m*3 23.9 C 9.7 km/h
1610 13-06-2014 15:15:00 23.9 C 10.17 g/m*3 23.9 C 17.7 km/h
1611 13-06-2014 15:20:00 23.7 C 10.48 g/m*3 23.7 C 12.9 km/h
1612 13-06-2014 15:25:00 23.8 C 10.33 g/m*3 23.8 C 8.1 km/h
1613 13-06-2014 15:30:00 23.8 C 9.9 g/m*3 23.8 C 16.1 km/h
1614 13-06-2014 15:35:00 24.1 C 10.5 g/m*3 24.1 C 11.3 km/h
1615 13-06-2014 15:40:00 24.5 C 10.74 g/m*3 24.5 C 9.7 km/h
1616 13-06-2014 15:45:00 24.9 C 9.84 g/m*3 24.9 C 11.3 km/h
1617 13-06-2014 15:50:00 25.1 C 9.49 g/m*3 25.1 C 11.3 km/h
1618 13-06-2014 15:55:00 24.8 C 9.56 g/m*3 24.8 C 14.5 km/h
1619 13-06-2014 16:00:00 24.7 C 10.41 g/m*3 24.7 C 9.7 km/h
1620 13-06-2014 16:05:00 24.9 C 10.07 g/m*3 24.9 C 16.1 km/h
1621 13-06-2014 16:10:00 25 C 9.9 g/m*3 25 C 12.9 km/h
1622 13-06-2014 16:15:00 25.2 C 10.01 g/m*3 25.2 C 16.1 km/h
1623 13-06-2014 16:20:00 25.1 C 9.72 g/m*3 25.1 C 16.1 km/h
1624 13-06-2014 16:25:00 25.2 C 10.24 g/m*3 25.2 C 12.9 km/h
1625 13-06-2014 16:30:00 25.2 C 10.01 g/m*3 25.2 C 11.3 km/h
Sensor: Nr:Datum:Temp:Abs-Feuchte:Windchill:Wind:
Aussen-T/F 1626 13-06-2014 16:35:00 25.2 C 9.54 g/m*3 25.2 C 12.9 km/h
1627 13-06-2014 16:40:00 25 C 9.44 g/m*3 25 C 12.9 km/h
1628 13-06-2014 16:45:00 24.9 C 10.07 g/m*3 24.9 C 9.7 km/h
1629 13-06-2014 16:50:00 25.1 C 9.95 g/m*3 25.1 C 14.5 km/h
1630 13-06-2014 16:55:00 24.9 C 9.84 g/m*3 24.9 C 8.1 km/h
1631 13-06-2014 17:00:00 24.7 C 9.96 g/m*3 24.7 C 11.3 km/h
1632 13-06-2014 17:05:00 24.4 C 10.01 g/m*3 24.4 C 19.3 km/h
1633 13-06-2014 17:10:00 24.6 C 10.13 g/m*3 24.6 C 11.3 km/h
1634 13-06-2014 17:15:00 24.8 C 10.24 g/m*3 24.8 C 12.9 km/h
1635 13-06-2014 17:20:00 24.8 C 10.24 g/m*3 24.8 C 16.1 km/h
1636 13-06-2014 17:25:00 24.7 C 9.73 g/m*3 24.7 C 14.5 km/h
1637 13-06-2014 17:30:00 24.6 C 10.13 g/m*3 24.6 C 11.3 km/h
1638 13-06-2014 17:35:00 24.8 C 10.02 g/m*3 24.8 C 12.9 km/h
1639 13-06-2014 17:40:00 24.9 C 10.76 g/m*3 24.9 C 11.3 km/h
1640 13-06-2014 17:45:00 25 C 10.13 g/m*3 25 C 17.7 km/h
1641 13-06-2014 17:50:00 24.9 C 9.39 g/m*3 24.9 C 11.3 km/h
1642 13-06-2014 17:55:00 24.7 C 9.73 g/m*3 24.7 C 16.1 km/h
1643 13-06-2014 18:00:00 24.6 C 9.9 g/m*3 24.6 C 16.1 km/h
1644 13-06-2014 18:05:00 24.7 C 9.51 g/m*3 24.7 C 11.3 km/h
1645 13-06-2014 18:10:00 24.7 C 9.73 g/m*3 24.7 C 12.9 km/h
1646 13-06-2014 18:15:00 24.9 C 9.84 g/m*3 24.9 C 16.1 km/h
1647 13-06-2014 18:20:00 24.8 C 9.79 g/m*3 24.8 C 16.1 km/h
1648 13-06-2014 18:25:00 24.3 C 9.96 g/m*3 24.3 C 20.9 km/h
1649 13-06-2014 18:30:00 23.8 C 9.9 g/m*3 23.8 C 20.9 km/h
1650 13-06-2014 18:35:00 23.7 C 9.84 g/m*3 23.7 C 11.3 km/h
Sensor: Nr:Datum:Temp:Abs-Feuchte:Windchill:Wind:
Aussen-T/F 1651 13-06-2014 18:40:00 23.6 C 10 g/m*3 23.6 C 17.7 km/h
1652 13-06-2014 18:45:00 23 C 9.66 g/m*3 23 C 14.5 km/h
1653 13-06-2014 18:50:00 22.4 C 9.53 g/m*3 22.4 C 12.9 km/h
1654 13-06-2014 18:55:00 22.4 C 9.93 g/m*3 22.4 C 11.3 km/h
1655 13-06-2014 19:00:00 22.7 C 10.1 g/m*3 22.7 C 16.1 km/h
1656 13-06-2014 19:05:00 23 C 10.28 g/m*3 23 C 8.1 km/h
1657 13-06-2014 19:10:00 23.3 C 10.04 g/m*3 23.3 C 6.4 km/h
1658 13-06-2014 19:15:00 23.4 C 9.88 g/m*3 23.4 C 11.3 km/h
1659 13-06-2014 19:20:00 23.2 C 9.98 g/m*3 23.2 C 12.9 km/h
1660 13-06-2014 19:25:00 23 C 10.07 g/m*3 23 C 12.9 km/h
1661 13-06-2014 19:30:00 22.8 C 9.96 g/m*3 22.8 C 12.9 km/h
1662 13-06-2014 19:35:00 22.6 C 9.84 g/m*3 22.6 C 14.5 km/h
1663 13-06-2014 19:40:00 22.3 C 10.07 g/m*3 22.3 C 11.3 km/h
1664 13-06-2014 19:45:00 21.9 C 10.03 g/m*3 21.9 C 11.3 km/h
1665 13-06-2014 19:50:00 21.7 C 9.92 g/m*3 21.7 C 11.3 km/h
1666 13-06-2014 19:55:00 21.5 C 9.99 g/m*3 21.5 C 9.7 km/h
1667 13-06-2014 20:00:00 21.4 C 10.12 g/m*3 21.4 C 9.7 km/h
1668 13-06-2014 20:05:00 21.2 C 10.01 g/m*3 21.2 C 8.1 km/h
1669 13-06-2014 20:10:00 21.1 C 10.13 g/m*3 21.1 C 16.1 km/h
1670 13-06-2014 20:15:00 21 C 10.08 g/m*3 21 C 11.3 km/h
1671 13-06-2014 20:20:00 21.1 C 10.13 g/m*3 21.1 C 9.7 km/h
1672 13-06-2014 20:25:00 21 C 10.08 g/m*3 21 C 9.7 km/h
1673 13-06-2014 20:30:00 21 C 10.08 g/m*3 21 C 8.1 km/h
1674 13-06-2014 20:35:00 20.9 C 10.2 g/m*3 20.9 C 9.7 km/h
1675 13-06-2014 20:40:00 20.8 C 10.14 g/m*3 20.8 C 4.8 km/h
Sensor: Nr:Datum:Temp:Abs-Feuchte:Windchill:Wind:
Aussen-T/F 1676 13-06-2014 20:45:00 20.7 C 10.08 g/m*3 20.7 C 6.4 km/h
1677 13-06-2014 20:50:00 20.6 C 10.2 g/m*3 20.6 C 6.4 km/h
1678 13-06-2014 20:55:00 20.5 C 10.14 g/m*3 20.5 C 8.1 km/h
1679 13-06-2014 21:00:00 20.4 C 10.26 g/m*3 20.4 C 6.4 km/h
1680 13-06-2014 21:05:00 20.2 C 10.14 g/m*3 20.2 C 6.4 km/h
1681 13-06-2014 21:10:00 20.1 C 10.26 g/m*3 20.1 C 3.2 km/h
1682 13-06-2014 21:15:00 19.9 C 10.48 g/m*3 19.9 C 1.6 km/h
1683 13-06-2014 21:20:00 19.7 C 10.53 g/m*3 19.7 C 1.6 km/h
1684 13-06-2014 21:25:00 19.4 C 10.84 g/m*3 19.4 C 3.2 km/h
1685 13-06-2014 21:30:00 19 C 10.76 g/m*3 19 C 0 km/h
1686 13-06-2014 21:35:00 18.6 C 10.82 g/m*3 18.6 C 1.6 km/h
1687 13-06-2014 21:40:00 18.3 C 10.79 g/m*3 18.3 C 0 km/h
1688 13-06-2014 21:45:00 18.1 C 10.82 g/m*3 18.1 C 0 km/h
1689 13-06-2014 21:50:00 17.8 C 10.62 g/m*3 17.8 C 1.6 km/h
1690 13-06-2014 21:55:00 17.6 C 10.65 g/m*3 17.6 C 0 km/h
1691 13-06-2014 22:00:00 17.3 C 10.75 g/m*3 17.3 C 0 km/h
1692 13-06-2014 22:05:00 17.2 C 10.69 g/m*3 17.2 C 0 km/h
1693 13-06-2014 22:10:00 17 C 10.71 g/m*3 17 C 1.6 km/h
1694 13-06-2014 22:15:00 16.9 C 10.79 g/m*3 16.9 C 0 km/h
1695 13-06-2014 22:20:00 16.8 C 10.72 g/m*3 16.8 C 0 km/h
1696 13-06-2014 22:25:00 16.8 C 10.72 g/m*3 16.8 C 0 km/h
1697 13-06-2014 22:30:00 16.9 C 10.79 g/m*3 16.9 C 0 km/h
1698 13-06-2014 22:35:00 17 C 11.14 g/m*3 17 C 0 km/h
1699 13-06-2014 22:40:00 17 C 11 g/m*3 17 C 0 km/h
1700 13-06-2014 22:45:00 17 C 11 g/m*3 17 C 0 km/h
Sensor: Nr:Datum:Temp:Abs-Feuchte:Windchill:Wind:
Aussen-T/F 1701 13-06-2014 22:50:00 17.1 C 11.06 g/m*3 17.1 C 0 km/h
1702 13-06-2014 22:55:00 17.1 C 10.92 g/m*3 17.1 C 0 km/h
1703 13-06-2014 23:00:00 17.1 C 10.92 g/m*3 17.1 C 0 km/h
1704 13-06-2014 23:05:00 17.1 C 11.06 g/m*3 17.1 C 0 km/h
1705 13-06-2014 23:10:00 17.1 C 11.21 g/m*3 17.1 C 0 km/h
1706 13-06-2014 23:15:00 17.1 C 11.21 g/m*3 17.1 C 0 km/h
1707 13-06-2014 23:20:00 17 C 11 g/m*3 17 C 0 km/h
1708 13-06-2014 23:25:00 16.9 C 11.08 g/m*3 16.9 C 0 km/h
1709 13-06-2014 23:30:00 16.8 C 11.15 g/m*3 16.8 C 0 km/h
1710 13-06-2014 23:35:00 16.8 C 11.01 g/m*3 16.8 C 0 km/h
1711 13-06-2014 23:40:00 16.8 C 11.15 g/m*3 16.8 C 0 km/h
1712 13-06-2014 23:45:00 16.8 C 11.29 g/m*3 16.8 C 0 km/h
1713 13-06-2014 23:50:00 16.8 C 11.15 g/m*3 16.8 C 0 km/h
1714 13-06-2014 23:55:00 16.8 C 11.29 g/m*3 16.8 C 0 km/h
1715 14-06-2014 00:00:00 16.8 C 11.15 g/m*3 16.8 C 0 km/h
1716 14-06-2014 00:05:00 16.8 C 11.29 g/m*3 16.8 C 0 km/h
1717 14-06-2014 00:10:00 16.9 C 11.36 g/m*3 16.9 C 0 km/h
1718 14-06-2014 00:15:00 16.8 C 11.15 g/m*3 16.8 C 0 km/h
1719 14-06-2014 00:20:00 16.9 C 11.36 g/m*3 16.9 C 0 km/h
1720 14-06-2014 00:25:00 16.9 C 11.36 g/m*3 16.9 C 0 km/h
1721 14-06-2014 00:30:00 16.9 C 11.22 g/m*3 16.9 C 0 km/h
1722 14-06-2014 00:35:00 16.8 C 11.29 g/m*3 16.8 C 0 km/h
1723 14-06-2014 00:40:00 16.7 C 11.23 g/m*3 16.7 C 0 km/h
1724 14-06-2014 00:45:00 16.6 C 11.16 g/m*3 16.6 C 0 km/h
1725 14-06-2014 00:50:00 16.6 C 11.16 g/m*3 16.6 C 0 km/h
Sensor: Nr:Datum:Temp:Abs-Feuchte:Windchill:Wind:
Aussen-T/F 1726 14-06-2014 00:55:00 16.6 C 11.16 g/m*3 16.6 C 0 km/h
1727 14-06-2014 01:00:00 16.5 C 11.09 g/m*3 16.5 C 0 km/h
1728 14-06-2014 01:05:00 16.5 C 11.09 g/m*3 16.5 C 0 km/h
1729 14-06-2014 01:10:00 16.5 C 11.23 g/m*3 16.5 C 0 km/h
1730 14-06-2014 01:15:00 16.5 C 11.23 g/m*3 16.5 C 0 km/h
1731 14-06-2014 01:20:00 16.6 C 11.3 g/m*3 16.6 C 0 km/h
1732 14-06-2014 01:25:00 16.6 C 11.44 g/m*3 16.6 C 0 km/h
1733 14-06-2014 01:30:00 16.6 C 11.3 g/m*3 16.6 C 0 km/h
1734 14-06-2014 01:35:00 16.6 C 11.44 g/m*3 16.6 C 0 km/h
1735 14-06-2014 01:40:00 16.5 C 11.23 g/m*3 16.5 C 0 km/h
1736 14-06-2014 01:45:00 16.4 C 11.17 g/m*3 16.4 C 0 km/h
1737 14-06-2014 01:50:00 16.4 C 11.17 g/m*3 16.4 C 1.6 km/h
1738 14-06-2014 01:55:00 16.5 C 11.23 g/m*3 16.5 C 1.6 km/h
1739 14-06-2014 02:00:00 16.5 C 11.23 g/m*3 16.5 C 0 km/h
1740 14-06-2014 02:05:00 16.5 C 11.23 g/m*3 16.5 C 0 km/h
1741 14-06-2014 02:10:00 16.4 C 11.17 g/m*3 16.4 C 0 km/h
1742 14-06-2014 02:15:00 16.4 C 11.17 g/m*3 16.4 C 0 km/h
1743 14-06-2014 02:20:00 16.3 C 11.1 g/m*3 16.3 C 0 km/h
1744 14-06-2014 02:25:00 16.2 C 11.03 g/m*3 16.2 C 0 km/h
1745 14-06-2014 02:30:00 16.1 C 11.1 g/m*3 16.1 C 0 km/h
1746 14-06-2014 02:35:00 16 C 11.04 g/m*3 16 C 0 km/h
1747 14-06-2014 02:40:00 15.9 C 10.97 g/m*3 15.9 C 0 km/h
1748 14-06-2014 02:45:00 15.9 C 10.97 g/m*3 15.9 C 0 km/h
1749 14-06-2014 02:50:00 15.9 C 10.97 g/m*3 15.9 C 0 km/h
1750 14-06-2014 02:55:00 15.8 C 10.9 g/m*3 15.8 C 0 km/h
Sensor: Nr:Datum:Temp:Abs-Feuchte:Windchill:Wind:
Aussen-T/F 1751 14-06-2014 03:00:00 15.8 C 11.04 g/m*3 15.8 C 0 km/h
1752 14-06-2014 03:05:00 15.8 C 11.04 g/m*3 15.8 C 0 km/h
1753 14-06-2014 03:10:00 15.8 C 11.04 g/m*3 15.8 C 0 km/h
1754 14-06-2014 03:15:00 15.9 C 11.1 g/m*3 15.9 C 0 km/h
1755 14-06-2014 03:20:00 15.9 C 11.1 g/m*3 15.9 C 0 km/h
1756 14-06-2014 03:25:00 15.9 C 11.1 g/m*3 15.9 C 0 km/h
1757 14-06-2014 03:30:00 15.8 C 11.04 g/m*3 15.8 C 0 km/h
1758 14-06-2014 03:35:00 15.8 C 11.04 g/m*3 15.8 C 0 km/h
1759 14-06-2014 03:40:00 15.8 C 11.04 g/m*3 15.8 C 0 km/h
1760 14-06-2014 03:45:00 15.8 C 11.04 g/m*3 15.8 C 1.6 km/h
1761 14-06-2014 03:50:00 15.9 C 10.97 g/m*3 15.9 C 3.2 km/h
1762 14-06-2014 03:55:00 16.1 C 11.1 g/m*3 16.1 C 0 km/h
1763 14-06-2014 04:00:00 16.1 C 11.24 g/m*3 16.1 C 0 km/h
1764 14-06-2014 04:05:00 16.1 C 11.24 g/m*3 16.1 C 1.6 km/h
1765 14-06-2014 04:10:00 16.1 C 10.97 g/m*3 16.1 C 1.6 km/h
1766 14-06-2014 04:15:00 16.2 C 11.03 g/m*3 16.2 C 3.2 km/h
1767 14-06-2014 04:20:00 16.3 C 10.96 g/m*3 16.3 C 6.4 km/h
1768 14-06-2014 04:25:00 16.3 C 10.82 g/m*3 16.3 C 8.1 km/h
1769 14-06-2014 04:30:00 16.4 C 10.89 g/m*3 16.4 C 4.8 km/h
1770 14-06-2014 04:35:00 16.4 C 10.89 g/m*3 16.4 C 6.4 km/h
1771 14-06-2014 04:40:00 16.4 C 10.89 g/m*3 16.4 C 8.1 km/h
1772 14-06-2014 04:45:00 16.4 C 10.89 g/m*3 16.4 C 4.8 km/h
1773 14-06-2014 04:50:00 16.4 C 10.89 g/m*3 16.4 C 6.4 km/h
1774 14-06-2014 04:55:00 16.4 C 10.89 g/m*3 16.4 C 8.1 km/h
1775 14-06-2014 05:00:00 16.4 C 10.89 g/m*3 16.4 C 4.8 km/h
Sensor: Nr:Datum:Temp:Abs-Feuchte:Windchill:Wind:
Aussen-T/F 1776 14-06-2014 05:05:00 16.3 C 10.82 g/m*3 16.3 C 8.1 km/h
1777 14-06-2014 05:10:00 16.3 C 10.82 g/m*3 16.3 C 8.1 km/h
1778 14-06-2014 05:15:00 16.3 C 10.96 g/m*3 16.3 C 3.2 km/h
1779 14-06-2014 05:20:00 16.3 C 10.96 g/m*3 16.3 C 4.8 km/h
1780 14-06-2014 05:25:00 16.2 C 10.89 g/m*3 16.2 C 6.4 km/h
1781 14-06-2014 05:30:00 16.1 C 10.83 g/m*3 16.1 C 4.8 km/h
1782 14-06-2014 05:35:00 16.1 C 10.97 g/m*3 16.1 C 4.8 km/h
1783 14-06-2014 05:40:00 16.1 C 10.97 g/m*3 16.1 C 8.1 km/h
1784 14-06-2014 05:45:00 16 C 10.9 g/m*3 16 C 8.1 km/h
1785 14-06-2014 05:50:00 16 C 10.9 g/m*3 16 C 1.6 km/h
1786 14-06-2014 05:55:00 15.9 C 10.83 g/m*3 15.9 C 4.8 km/h
1787 14-06-2014 06:00:00 15.9 C 10.83 g/m*3 15.9 C 4.8 km/h
1788 14-06-2014 06:05:00 15.9 C 10.83 g/m*3 15.9 C 6.4 km/h
1789 14-06-2014 06:10:00 15.9 C 10.83 g/m*3 15.9 C 4.8 km/h
1790 14-06-2014 06:15:00 15.9 C 10.83 g/m*3 15.9 C 4.8 km/h
1791 14-06-2014 06:20:00 15.9 C 10.83 g/m*3 15.9 C 8.1 km/h
1792 14-06-2014 06:25:00 15.9 C 10.83 g/m*3 15.9 C 4.8 km/h
1793 14-06-2014 06:30:00 15.9 C 10.7 g/m*3 15.9 C 6.4 km/h
1794 14-06-2014 06:35:00 15.9 C 10.7 g/m*3 15.9 C 4.8 km/h
1795 14-06-2014 06:40:00 15.9 C 10.56 g/m*3 15.9 C 11.3 km/h
1796 14-06-2014 06:45:00 15.8 C 10.5 g/m*3 15.8 C 11.3 km/h
1797 14-06-2014 06:50:00 15.8 C 10.5 g/m*3 15.8 C 9.7 km/h
1798 14-06-2014 06:55:00 15.7 C 10.44 g/m*3 15.7 C 11.3 km/h
1799 14-06-2014 07:00:00 15.6 C 10.37 g/m*3 15.6 C 9.7 km/h
1800 14-06-2014 07:05:00 15.6 C 10.24 g/m*3 15.6 C 9.7 km/h
Sensor: Nr:Datum:Temp:Abs-Feuchte:Windchill:Wind:
Aussen-T/F 1801 14-06-2014 07:10:00 15.6 C 10.24 g/m*3 15.6 C 8.1 km/h
1802 14-06-2014 07:15:00 15.6 C 10.37 g/m*3 15.6 C 4.8 km/h
1803 14-06-2014 07:20:00 15.6 C 10.24 g/m*3 15.6 C 6.4 km/h
1804 14-06-2014 07:25:00 15.6 C 10.37 g/m*3 15.6 C 8.1 km/h
1805 14-06-2014 07:30:00 15.5 C 10.31 g/m*3 15.5 C 4.8 km/h
1806 14-06-2014 07:35:00 15.4 C 10.38 g/m*3 15.4 C 4.8 km/h
1807 14-06-2014 07:40:00 15.4 C 10.38 g/m*3 15.4 C 9.7 km/h
1808 14-06-2014 07:45:00 15.3 C 10.45 g/m*3 15.3 C 9.7 km/h
1809 14-06-2014 07:50:00 15.3 C 10.45 g/m*3 15.3 C 6.4 km/h
1810 14-06-2014 07:55:00 15.3 C 10.06 g/m*3 15.3 C 9.7 km/h
1811 14-06-2014 08:00:00 15.3 C 9.66 g/m*3 15.3 C 11.3 km/h
1812 14-06-2014 08:05:00 15.3 C 9.66 g/m*3 15.3 C 8.1 km/h
1813 14-06-2014 08:10:00 15.4 C 9.46 g/m*3 15.4 C 9.7 km/h
1814 14-06-2014 08:15:00 15.5 C 9.52 g/m*3 15.5 C 11.3 km/h
1815 14-06-2014 08:20:00 15.6 C 9.44 g/m*3 15.6 C 9.7 km/h
1816 14-06-2014 08:25:00 15.7 C 9.5 g/m*3 15.7 C 11.3 km/h
1817 14-06-2014 08:30:00 15.7 C 9.37 g/m*3 15.7 C 11.3 km/h
1818 14-06-2014 08:35:00 15.7 C 9.23 g/m*3 15.7 C 9.7 km/h
1819 14-06-2014 08:40:00 15.7 C 9.37 g/m*3 15.7 C 8.1 km/h
1820 14-06-2014 08:45:00 15.7 C 9.37 g/m*3 15.7 C 9.7 km/h
1821 14-06-2014 08:50:00 15.7 C 9.1 g/m*3 15.7 C 9.7 km/h
1822 14-06-2014 08:55:00 15.6 C 9.04 g/m*3 15.6 C 11.3 km/h
1823 14-06-2014 09:00:00 15.6 C 9.04 g/m*3 15.6 C 8.1 km/h
1824 14-06-2014 09:05:00 15.6 C 9.04 g/m*3 15.6 C 8.1 km/h
1825 14-06-2014 09:10:00 15.6 C 9.18 g/m*3 15.6 C 6.4 km/h
Sensor: Nr:Datum:Temp:Abs-Feuchte:Windchill:Wind:
Aussen-T/F 1826 14-06-2014 09:15:00 15.7 C 9.1 g/m*3 15.7 C 8.1 km/h
1827 14-06-2014 09:20:00 15.7 C 8.96 g/m*3 15.7 C 8.1 km/h
1828 14-06-2014 09:25:00 15.6 C 8.64 g/m*3 15.6 C 14.5 km/h
1829 14-06-2014 09:30:00 15.6 C 8.64 g/m*3 15.6 C 14.5 km/h
1830 14-06-2014 09:35:00 15.6 C 8.64 g/m*3 15.6 C 11.3 km/h
1831 14-06-2014 09:40:00 15.6 C 8.51 g/m*3 15.6 C 12.9 km/h
1832 14-06-2014 09:45:00 15.7 C 8.43 g/m*3 15.7 C 11.3 km/h
1833 14-06-2014 09:50:00 15.7 C 8.43 g/m*3 15.7 C 12.9 km/h
1834 14-06-2014 09:55:00 15.7 C 8.3 g/m*3 15.7 C 12.9 km/h
1835 14-06-2014 10:00:00 15.8 C 8.35 g/m*3 15.8 C 12.9 km/h
1836 14-06-2014 10:05:00 15.9 C 8.26 g/m*3 15.9 C 9.7 km/h
1837 14-06-2014 10:10:00 16 C 8.31 g/m*3 16 C 6.4 km/h
1838 14-06-2014 10:15:00 16.1 C 8.36 g/m*3 16.1 C 6.4 km/h
1839 14-06-2014 10:20:00 16.1 C 8.22 g/m*3 16.1 C 11.3 km/h
1840 14-06-2014 10:25:00 16.2 C 8.27 g/m*3 16.2 C 9.7 km/h
1841 14-06-2014 10:30:00 16.4 C 8.37 g/m*3 16.4 C 9.7 km/h
1842 14-06-2014 10:35:00 16.6 C 8.33 g/m*3 16.6 C 11.3 km/h
1843 14-06-2014 10:40:00 16.8 C 8.44 g/m*3 16.8 C 11.3 km/h
1844 14-06-2014 10:45:00 16.9 C 8.63 g/m*3 16.9 C 8.1 km/h
1845 14-06-2014 10:50:00 17 C 8.54 g/m*3 17 C 8.1 km/h
1846 14-06-2014 10:55:00 17.1 C 8.15 g/m*3 17.1 C 6.4 km/h
1847 14-06-2014 11:00:00 17.2 C 8.49 g/m*3 17.2 C 8.1 km/h
1848 14-06-2014 11:05:00 17.3 C 8.25 g/m*3 17.3 C 8.1 km/h
1849 14-06-2014 11:10:00 17.3 C 8.69 g/m*3 17.3 C 6.4 km/h
1850 14-06-2014 11:15:00 17.4 C 8.45 g/m*3 17.4 C 6.4 km/h
Sensor: Nr:Datum:Temp:Abs-Feuchte:Windchill:Wind:
Aussen-T/F 1851 14-06-2014 11:20:00 17.6 C 8.55 g/m*3 17.6 C 11.3 km/h
1852 14-06-2014 11:25:00 17.8 C 8.65 g/m*3 17.8 C 9.7 km/h
1853 14-06-2014 11:30:00 17.9 C 8.7 g/m*3 17.9 C 6.4 km/h
1854 14-06-2014 11:35:00 18.4 C 8.65 g/m*3 18.4 C 8.1 km/h
1855 14-06-2014 11:40:00 18.4 C 8.81 g/m*3 18.4 C 8.1 km/h
1856 14-06-2014 11:45:00 18.3 C 8.6 g/m*3 18.3 C 9.7 km/h
1857 14-06-2014 11:50:00 18.2 C 8.55 g/m*3 18.2 C 9.7 km/h
1858 14-06-2014 11:55:00 18.1 C 8.65 g/m*3 18.1 C 11.3 km/h
1859 14-06-2014 12:00:00 18.1 C 8.65 g/m*3 18.1 C 16.1 km/h
1860 14-06-2014 12:05:00 18 C 8.45 g/m*3 18 C 16.1 km/h
1861 14-06-2014 12:10:00 17.9 C 8.55 g/m*3 17.9 C 9.7 km/h
1862 14-06-2014 12:15:00 18.1 C 8.81 g/m*3 18.1 C 9.7 km/h
1863 14-06-2014 12:20:00 18.2 C 8.7 g/m*3 18.2 C 6.4 km/h
1864 14-06-2014 12:25:00 18.4 C 8.97 g/m*3 18.4 C 14.5 km/h
1865 14-06-2014 12:30:00 18.7 C 9.45 g/m*3 18.7 C 11.3 km/h
1866 14-06-2014 12:35:00 19.2 C 9.4 g/m*3 19.2 C 8.1 km/h
1867 14-06-2014 12:40:00 19.4 C 8.68 g/m*3 19.4 C 8.1 km/h
1868 14-06-2014 12:45:00 19.1 C 8.85 g/m*3 19.1 C 11.3 km/h
1869 14-06-2014 12:50:00 19.1 C 8.69 g/m*3 19.1 C 9.7 km/h
1870 14-06-2014 12:55:00 19.3 C 8.79 g/m*3 19.3 C 14.5 km/h
1871 14-06-2014 13:00:00 19.7 C 9 g/m*3 19.7 C 12.9 km/h
1872 14-06-2014 13:05:00 19.6 C 8.61 g/m*3 19.6 C 11.3 km/h
1873 14-06-2014 13:10:00 19.3 C 8.46 g/m*3 19.3 C 12.9 km/h
1874 14-06-2014 13:15:00 19.3 C 8.96 g/m*3 19.3 C 9.7 km/h
1875 14-06-2014 13:20:00 19 C 8.47 g/m*3 19 C 11.3 km/h
Sensor: Nr:Datum:Temp:Abs-Feuchte:Windchill:Wind:
Aussen-T/F 1876 14-06-2014 13:25:00 18.8 C 8.7 g/m*3 18.8 C 16.1 km/h
1877 14-06-2014 13:30:00 18.6 C 8.59 g/m*3 18.6 C 11.3 km/h
1878 14-06-2014 13:35:00 18.6 C 8.75 g/m*3 18.6 C 8.1 km/h
1879 14-06-2014 13:40:00 18.4 C 8.81 g/m*3 18.4 C 9.7 km/h
1880 14-06-2014 13:45:00 18.4 C 8.81 g/m*3 18.4 C 6.4 km/h
1881 14-06-2014 13:50:00 18.3 C 8.76 g/m*3 18.3 C 12.9 km/h
1882 14-06-2014 13:55:00 18.5 C 8.7 g/m*3 18.5 C 11.3 km/h
1883 14-06-2014 14:00:00 18.5 C 8.7 g/m*3 18.5 C 8.1 km/h
1884 14-06-2014 14:05:00 18.6 C 8.59 g/m*3 18.6 C 11.3 km/h
1885 14-06-2014 14:10:00 18.8 C 8.54 g/m*3 18.8 C 8.1 km/h
1886 14-06-2014 14:15:00 18.9 C 8.59 g/m*3 18.9 C 11.3 km/h
1887 14-06-2014 14:20:00 19.1 C 8.36 g/m*3 19.1 C 14.5 km/h
1888 14-06-2014 14:25:00 19.1 C 8.03 g/m*3 19.1 C 12.9 km/h
1889 14-06-2014 14:30:00 19.3 C 8.46 g/m*3 19.3 C 9.7 km/h
1890 14-06-2014 14:35:00 19.6 C 8.27 g/m*3 19.6 C 16.1 km/h
1891 14-06-2014 14:40:00 19.6 C 8.44 g/m*3 19.6 C 12.9 km/h
1892 14-06-2014 14:45:00 19.6 C 8.44 g/m*3 19.6 C 14.5 km/h
1893 14-06-2014 14:50:00 19.4 C 8.51 g/m*3 19.4 C 11.3 km/h
1894 14-06-2014 14:55:00 19.4 C 8.84 g/m*3 19.4 C 12.9 km/h
1895 14-06-2014 15:00:00 19.6 C 8.44 g/m*3 19.6 C 16.1 km/h
1896 14-06-2014 15:05:00 19.6 C 7.93 g/m*3 19.6 C 9.7 km/h
1897 14-06-2014 15:10:00 19.8 C 8.2 g/m*3 19.8 C 14.5 km/h
1898 14-06-2014 15:15:00 19.9 C 8.59 g/m*3 19.9 C 4.8 km/h
1899 14-06-2014 15:20:00 20.2 C 8.39 g/m*3 20.2 C 12.9 km/h
1900 14-06-2014 15:25:00 19.9 C 8.25 g/m*3 19.9 C 19.3 km/h
Sensor: Nr:Datum:Temp:Abs-Feuchte:Windchill:Wind:
Aussen-T/F 1901 14-06-2014 15:30:00 19.4 C 8.34 g/m*3 19.4 C 19.3 km/h
1902 14-06-2014 15:35:00 19.6 C 8.44 g/m*3 19.6 C 14.5 km/h
1903 14-06-2014 15:40:00 19.8 C 8.54 g/m*3 19.8 C 12.9 km/h
1904 14-06-2014 15:45:00 19.8 C 8.71 g/m*3 19.8 C 14.5 km/h
1905 14-06-2014 15:50:00 19.7 C 8.32 g/m*3 19.7 C 11.3 km/h
1906 14-06-2014 15:55:00 19.4 C 8.18 g/m*3 19.4 C 6.4 km/h
1907 14-06-2014 16:00:00 19.3 C 8.29 g/m*3 19.3 C 11.3 km/h
1908 14-06-2014 16:05:00 19 C 8.15 g/m*3 19 C 11.3 km/h
1909 14-06-2014 16:10:00 18.8 C 8.21 g/m*3 18.8 C 12.9 km/h
1910 14-06-2014 16:15:00 18.8 C 8.05 g/m*3 18.8 C 11.3 km/h
1911 14-06-2014 16:20:00 19 C 8.31 g/m*3 19 C 11.3 km/h
1912 14-06-2014 16:25:00 19.3 C 8.13 g/m*3 19.3 C 12.9 km/h
1913 14-06-2014 16:30:00 19.6 C 8.44 g/m*3 19.6 C 12.9 km/h
1914 14-06-2014 16:35:00 19.8 C 8.37 g/m*3 19.8 C 12.9 km/h
1915 14-06-2014 16:40:00 19.7 C 8.32 g/m*3 19.7 C 9.7 km/h
1916 14-06-2014 16:45:00 19.8 C 8.54 g/m*3 19.8 C 14.5 km/h
1917 14-06-2014 16:50:00 20 C 8.64 g/m*3 20 C 14.5 km/h
1918 14-06-2014 16:55:00 19.8 C 8.37 g/m*3 19.8 C 12.9 km/h
1919 14-06-2014 17:00:00 19.9 C 8.59 g/m*3 19.9 C 16.1 km/h
1920 14-06-2014 17:05:00 20.1 C 8.34 g/m*3 20.1 C 14.5 km/h
1921 14-06-2014 17:10:00 19.8 C 8.71 g/m*3 19.8 C 9.7 km/h
1922 14-06-2014 17:15:00 19.7 C 8.66 g/m*3 19.7 C 8.1 km/h
1923 14-06-2014 17:20:00 19.7 C 8.49 g/m*3 19.7 C 12.9 km/h
1924 14-06-2014 17:25:00 19.7 C 8.66 g/m*3 19.7 C 11.3 km/h
1925 14-06-2014 17:30:00 19.7 C 8.83 g/m*3 19.7 C 11.3 km/h
Sensor: Nr:Datum:Temp:Abs-Feuchte:Windchill:Wind:
Aussen-T/F 1926 14-06-2014 17:35:00 19.8 C 8.71 g/m*3 19.8 C 11.3 km/h
1927 14-06-2014 17:40:00 19.8 C 8.54 g/m*3 19.8 C 8.1 km/h
1928 14-06-2014 17:45:00 19.7 C 8.66 g/m*3 19.7 C 8.1 km/h
1929 14-06-2014 17:50:00 19.5 C 8.39 g/m*3 19.5 C 12.9 km/h
1930 14-06-2014 17:55:00 19.3 C 8.63 g/m*3 19.3 C 9.7 km/h
1931 14-06-2014 18:00:00 19.3 C 8.63 g/m*3 19.3 C 8.1 km/h
1932 14-06-2014 18:05:00 19.3 C 8.79 g/m*3 19.3 C 8.1 km/h
1933 14-06-2014 18:10:00 19.5 C 8.56 g/m*3 19.5 C 12.9 km/h
1934 14-06-2014 18:15:00 19.4 C 8.68 g/m*3 19.4 C 11.3 km/h
1935 14-06-2014 18:20:00 19.2 C 8.57 g/m*3 19.2 C 8.1 km/h
1936 14-06-2014 18:25:00 19.1 C 8.69 g/m*3 19.1 C 11.3 km/h
1937 14-06-2014 18:30:00 19.3 C 8.96 g/m*3 19.3 C 8.1 km/h
1938 14-06-2014 18:35:00 19.4 C 8.84 g/m*3 19.4 C 12.9 km/h
1939 14-06-2014 18:40:00 19.6 C 9.12 g/m*3 19.6 C 11.3 km/h
1940 14-06-2014 18:45:00 19.6 C 8.95 g/m*3 19.6 C 11.3 km/h
1941 14-06-2014 18:50:00 19.5 C 8.89 g/m*3 19.5 C 8.1 km/h
1942 14-06-2014 18:55:00 19.3 C 8.96 g/m*3 19.3 C 9.7 km/h
1943 14-06-2014 19:00:00 19.1 C 8.85 g/m*3 19.1 C 11.3 km/h
1944 14-06-2014 19:05:00 19.2 C 9.4 g/m*3 19.2 C 11.3 km/h
1945 14-06-2014 19:10:00 19.6 C 8.95 g/m*3 19.6 C 11.3 km/h
1946 14-06-2014 19:15:00 19.9 C 8.93 g/m*3 19.9 C 12.9 km/h
1947 14-06-2014 19:20:00 19.9 C 8.93 g/m*3 19.9 C 14.5 km/h
1948 14-06-2014 19:25:00 19.3 C 8.79 g/m*3 19.3 C 11.3 km/h
1949 14-06-2014 19:30:00 18.8 C 8.86 g/m*3 18.8 C 6.4 km/h
1950 14-06-2014 19:35:00 18.6 C 9.07 g/m*3 18.6 C 8.1 km/h
Sensor: Nr:Datum:Temp:Abs-Feuchte:Windchill:Wind:
Aussen-T/F 1951 14-06-2014 19:40:00 18.6 C 9.07 g/m*3 18.6 C 8.1 km/h
1952 14-06-2014 19:45:00 18.5 C 8.86 g/m*3 18.5 C 8.1 km/h
1953 14-06-2014 19:50:00 18.4 C 9.12 g/m*3 18.4 C 8.1 km/h
1954 14-06-2014 19:55:00 18.5 C 9.18 g/m*3 18.5 C 11.3 km/h
1955 14-06-2014 20:00:00 18.7 C 9.13 g/m*3 18.7 C 6.4 km/h
1956 14-06-2014 20:05:00 18.8 C 9.18 g/m*3 18.8 C 9.7 km/h
1957 14-06-2014 20:10:00 18.8 C 9.18 g/m*3 18.8 C 11.3 km/h
1958 14-06-2014 20:15:00 18.7 C 9.13 g/m*3 18.7 C 8.1 km/h
1959 14-06-2014 20:20:00 18.6 C 9.23 g/m*3 18.6 C 9.7 km/h
1960 14-06-2014 20:25:00 18.4 C 9.12 g/m*3 18.4 C 12.9 km/h
1961 14-06-2014 20:30:00 18.4 C 9.12 g/m*3 18.4 C 11.3 km/h
1962 14-06-2014 20:35:00 18.5 C 9.18 g/m*3 18.5 C 6.4 km/h
1963 14-06-2014 20:40:00 18.4 C 9.12 g/m*3 18.4 C 8.1 km/h
1964 14-06-2014 20:45:00 18.4 C 9.12 g/m*3 18.4 C 8.1 km/h
1965 14-06-2014 20:50:00 18.4 C 9.12 g/m*3 18.4 C 9.7 km/h
1966 14-06-2014 20:55:00 18.3 C 9.22 g/m*3 18.3 C 11.3 km/h
1967 14-06-2014 21:00:00 18.2 C 9.17 g/m*3 18.2 C 8.1 km/h
1968 14-06-2014 21:05:00 18.1 C 9.12 g/m*3 18.1 C 8.1 km/h
1969 14-06-2014 21:10:00 17.9 C 9.16 g/m*3 17.9 C 4.8 km/h
1970 14-06-2014 21:15:00 17.7 C 9.05 g/m*3 17.7 C 8.1 km/h
1971 14-06-2014 21:20:00 17.6 C 9.15 g/m*3 17.6 C 3.2 km/h
1972 14-06-2014 21:25:00 17.4 C 9.04 g/m*3 17.4 C 6.4 km/h
1973 14-06-2014 21:30:00 17.3 C 9.13 g/m*3 17.3 C 4.8 km/h
1974 14-06-2014 21:35:00 17.1 C 9.17 g/m*3 17.1 C 3.2 km/h
1975 14-06-2014 21:40:00 17 C 9.12 g/m*3 17 C 3.2 km/h
Sensor: Nr:Datum:Temp:Abs-Feuchte:Windchill:Wind:
Aussen-T/F 1976 14-06-2014 21:45:00 16.9 C 9.21 g/m*3 16.9 C 8.1 km/h
1977 14-06-2014 21:50:00 16.8 C 9.15 g/m*3 16.8 C 4.8 km/h
1978 14-06-2014 21:55:00 16.8 C 9.29 g/m*3 16.8 C 3.2 km/h
1979 14-06-2014 22:00:00 16.7 C 9.24 g/m*3 16.7 C 4.8 km/h
1980 14-06-2014 22:05:00 16.6 C 9.32 g/m*3 16.6 C 3.2 km/h
1981 14-06-2014 22:10:00 16.6 C 9.32 g/m*3 16.6 C 3.2 km/h
1982 14-06-2014 22:15:00 16.4 C 9.21 g/m*3 16.4 C 8.1 km/h
1983 14-06-2014 22:20:00 16.3 C 9.3 g/m*3 16.3 C 0 km/h
1984 14-06-2014 22:25:00 16 C 9.4 g/m*3 16 C 3.2 km/h
1985 14-06-2014 22:30:00 15.7 C 9.23 g/m*3 15.7 C 3.2 km/h
1986 14-06-2014 22:35:00 15.6 C 9.31 g/m*3 15.6 C 3.2 km/h
1987 14-06-2014 22:40:00 15.3 C 9.27 g/m*3 15.3 C 3.2 km/h
1988 14-06-2014 22:45:00 15 C 9.23 g/m*3 15 C 0 km/h
1989 14-06-2014 22:50:00 14.8 C 9.25 g/m*3 14.8 C 1.6 km/h
1990 14-06-2014 22:55:00 14.7 C 9.44 g/m*3 14.7 C 0 km/h
1991 14-06-2014 23:00:00 14.6 C 9.39 g/m*3 14.6 C 1.6 km/h
1992 14-06-2014 23:05:00 14.4 C 9.27 g/m*3 14.4 C 0 km/h
1993 14-06-2014 23:10:00 14.4 C 9.27 g/m*3 14.4 C 1.6 km/h
1994 14-06-2014 23:15:00 14.3 C 9.21 g/m*3 14.3 C 0 km/h
1995 14-06-2014 23:20:00 14.4 C 9.27 g/m*3 14.4 C 0 km/h
1996 14-06-2014 23:25:00 14.4 C 9.27 g/m*3 14.4 C 0 km/h
1997 14-06-2014 23:30:00 14.4 C 9.39 g/m*3 14.4 C 0 km/h
1998 14-06-2014 23:35:00 14.4 C 9.39 g/m*3 14.4 C 0 km/h
1999 14-06-2014 23:40:00 14.3 C 9.34 g/m*3 14.3 C 0 km/h
2000 14-06-2014 23:45:00 14.3 C 9.46 g/m*3 14.3 C 1.6 km/h
Sensor: Nr:Datum:Temp:Abs-Feuchte:Windchill:Wind:
Aussen-T/F 2001 14-06-2014 23:50:00 14.2 C 9.4 g/m*3 14.2 C 0 km/h
2002 14-06-2014 23:55:00 14.2 C 9.52 g/m*3 14.2 C 0 km/h

Legende:
   Min
   Max


Maximal/Minimal-Werte vom 08.06.2014 - 14.06.2014

Sensor Min Max Avg
Temp
(Aussen-T/F)
11.2 °C
13-06-2014  05:45:00
35.4 °C
09-06-2014  18:00:00
21.33 °C
Abs-Feuchte
(Aussen-T/F)
7.93 g/m*3
14-06-2014  15:05:00
19.11 g/m*3
09-06-2014  19:35:00
12.87 g/m*3
Windchill
(Aussen-T/F)
11.2 C
13-06-2014  05:45:00
35.4 C
09-06-2014  18:00:00
21.32 C

Die Daten stammen von einer Davis Vantage Pro 2 Wetter-Station und werden unter Linux mit der Software wview2wettercgi und aufbereitet. Alle Angaben erfolgen ohne Gewähr für ihre Vollständigkeit oder Richtigkeit.
Kontakt: Rainer Krienke krienke@uni-koblenz.de . Meine Webseiten an der Uni Koblenz oder privat.
Version: $Revision: 0.78 $